Provisional Data: Snake Creek near Lawsville Center, PA


Please select a monitoring station.
Please select start date.
Please select start date.

Toggle Unit: C/F Toggle Unit: C/F
Sample Time Temperature (C) Temperature (F) Specific Conductivity (mS/cm) pH   Turbidity (NTU+) DO (mg/L)
12/23/2022 12:00:00 AM 1.34 34.412 0.1 7.12 16.18 13.4
12/23/2022 12:15:00 AM 1.34 34.412 0.102 7.12 20.89 13.39
12/23/2022 12:30:00 AM 1.34 34.412 0.103 7.12 25.04 13.38
12/23/2022 12:45:00 AM 1.32 34.376 0.104 7.13 35.02 13.39
12/23/2022 1:00:00 AM 1.29 34.322 0.106 7.11 32.14 13.39
12/23/2022 1:15:00 AM 1.26 34.268 0.107 7.1 37.3 13.38
12/23/2022 1:30:00 AM 1.21 34.178 0.107 7.09 40.57 13.39
12/23/2022 1:45:00 AM 1.17 34.106 0.107 7.08 42.96 13.4
12/23/2022 2:00:00 AM 1.13 34.034 0.106 7.07 48.53 13.42
12/23/2022 2:15:00 AM 1.08 33.944 0.105 7.07 53.27 13.42
12/23/2022 2:30:00 AM 1.04 33.872 0.103 7.05 59.87 13.43
12/23/2022 2:45:00 AM 1.01 33.818 0.1 6.98 65.37 13.45
12/23/2022 3:00:00 AM 0.98 33.764 0.101 6.96 90.78 13.46
12/23/2022 3:15:00 AM 0.96 33.728 0.098 6.95 97.67 13.47
12/23/2022 3:30:00 AM 0.96 33.728 0.094 6.93 109.35 13.48
12/23/2022 3:45:00 AM 0.95 33.71 0.09 6.96 119.97 13.47
12/23/2022 4:00:00 AM 0.95 33.71 0.086 6.96 125.19 13.47
12/23/2022 4:15:00 AM 0.97 33.746 0.083 6.94 128.12 13.46
12/23/2022 4:30:00 AM 1 33.8 0.081 6.95 108.4 13.46
12/23/2022 4:45:00 AM 1.03 33.854 0.078 6.94 117.26 13.44
12/23/2022 5:00:00 AM 1.06 33.908 0.076 6.92 134.47 13.44
12/23/2022 5:15:00 AM 1.09 33.962 0.074 6.93 125.49 13.41
12/23/2022 5:30:00 AM 1.12 34.016 0.073 6.93 119.97 13.41
12/23/2022 5:45:00 AM 1.16 34.088 0.071 6.92 106.55 13.39
12/23/2022 6:00:00 AM 1.21 34.178 0.069 6.89 117.78 13.37
12/23/2022 6:15:00 AM 1.27 34.286 0.068 6.92 108.62 13.34
12/23/2022 6:30:00 AM 1.34 34.412 0.068 6.92 112.82 13.31
12/23/2022 6:45:00 AM 1.4 34.52 0.067 6.91 115.9 13.3
12/23/2022 7:00:00 AM 1.46 34.628 0.066 6.91 112.82 13.27
12/23/2022 7:15:00 AM 1.51 34.718 0.066 6.91 110.08 13.26
12/23/2022 7:30:00 AM 1.53 34.754 0.066 6.91 114.28 13.24
12/23/2022 7:45:00 AM 1.56 34.808 0.065 6.89 127.61 13.24
12/23/2022 8:00:00 AM 1.57 34.826 0.064 6.91 144.19 13.22
12/23/2022 8:15:00 AM 1.6 34.88 0.064 6.91 139 13.21
12/23/2022 8:30:00 AM 1.63 34.934 0.064 6.9 165.17 13.2
12/23/2022 8:45:00 AM 1.66 34.988 0.064 6.9 172.35 13.19
12/23/2022 9:00:00 AM 1.69 35.042 0.049 6.91 126.84 13.19
12/23/2022 9:15:00 AM 1.73 35.114 0.063 6.91 108.52 13.17
12/23/2022 9:30:00 AM 1.78 35.204 0.063 6.91 83.46 13.15
12/23/2022 9:45:00 AM 1.83 35.294 0.063 6.91 101.04 13.13
12/23/2022 10:00:00 AM 1.87 35.366 0.063 6.9 74.43 13.11
12/23/2022 10:15:00 AM 1.91 35.438 0.063 6.91 61.08 13.09
12/23/2022 10:30:00 AM 1.95 35.51 0.063 6.91 54.12 13.07
12/23/2022 10:45:00 AM 1.99 35.582 0.064 6.87 55.07 13.05
12/23/2022 11:00:00 AM 2.03 35.654 0.064 6.92 52.85 13.04
12/23/2022 11:15:00 AM 2.09 35.762 0.064 6.92 49.47 13.03
12/23/2022 11:30:00 AM 2.12 35.816 0.065 6.93 49 13.02
12/23/2022 11:45:00 AM 2.11 35.798 0.065 6.91 47.78 13.01
12/23/2022 12:00:00 PM 2.08 35.744 0.065 6.92 47.85 13.01
12/23/2022 12:15:00 PM 2.04 35.672 0.065 6.91 67.99 13.03
12/23/2022 12:30:00 PM 2.02 35.636 0.065 6.92 51.57 13.05
12/23/2022 12:45:00 PM 1.97 35.546 0.065 6.92 51.35 13.07
12/23/2022 1:00:00 PM 1.9 35.42 0.065 6.92 52.41 13.09
12/23/2022 1:15:00 PM 1.82 35.276 0.065 6.9 51.09 13.11
12/23/2022 1:30:00 PM 1.75 35.15 0.065 6.92 51.06 13.14
12/23/2022 1:45:00 PM 1.68 35.024 0.065 6.9 42.19 13.18
12/23/2022 2:00:00 PM 1.62 34.916 0.066 6.89 44 13.21
12/23/2022 2:15:00 PM 1.57 34.826 0.066 6.89 40.31 13.22
12/23/2022 2:30:00 PM 1.51 34.718 0.066 6.85 39.28 13.24
12/23/2022 2:45:00 PM 1.44 34.592 0.066 6.86 36.38 13.27
12/23/2022 3:00:00 PM 1.37 34.466 0.066 6.86 30.79 13.29
12/23/2022 3:15:00 PM 1.32 34.376 0.066 6.86 32.4 13.32
12/23/2022 3:30:00 PM 1.24 34.232 0.066 6.86 28.23 13.35
12/23/2022 3:45:00 PM 1.19 34.142 0.066 6.85 26.88 13.38
12/23/2022 4:00:00 PM 1.12 34.016 0.066 6.86 29.52 13.4
12/23/2022 4:15:00 PM 1.06 33.908 0.067 6.85 27.87 13.43
12/23/2022 4:30:00 PM 0.98 33.764 0.067 6.86 26.78 13.46
12/23/2022 4:45:00 PM 0.91 33.638 0.067 6.85 24.54 13.48
12/23/2022 5:00:00 PM 0.85 33.53 0.067 6.85 25.4 13.5
12/23/2022 5:15:00 PM 0.77 33.386 0.068 6.85 21.9 13.54
12/23/2022 5:30:00 PM 0.7 33.26 0.068 6.86 24.21 13.56
12/23/2022 5:45:00 PM 0.63 33.134 0.068 6.85 22.54 13.6
12/23/2022 6:00:00 PM 0.56 33.008 0.068 6.85 22.56 13.62
12/23/2022 6:15:00 PM 0.48 32.864 0.069 6.85 21.13 13.65
12/23/2022 6:30:00 PM 0.42 32.756 0.069 6.84 21.06 13.68
12/23/2022 6:45:00 PM 0.35 32.63 0.069 6.85 17.33 13.71
12/23/2022 7:00:00 PM 0.29 32.522 0.069 6.85 19.61 13.74
12/23/2022 7:15:00 PM 0.23 32.414 0.069 6.85 18.21 13.76
12/23/2022 7:30:00 PM 0.17 32.306 0.069 6.85 15.48 13.79
12/23/2022 7:45:00 PM 0.1 32.18 0.07 6.85 16.58 13.82
12/23/2022 8:00:00 PM 0.05 32.09 0.07 6.85 16.79 13.84
12/23/2022 8:15:00 PM -0.01 31.982 0.07 6.86 15.12 13.87
12/23/2022 8:30:00 PM -0.04 31.928 0.07 6.86 17.58 13.89
12/23/2022 8:45:00 PM -0.05 31.91 0.07 6.86 14.92 13.91
12/23/2022 9:00:00 PM -0.04 31.928 0.071 6.87 15.83 13.93
12/23/2022 9:15:00 PM -0.04 31.928 0.071 6.87 14.39 13.94
12/23/2022 9:30:00 PM -0.04 31.928 0.071 6.88 14.23 13.94
12/23/2022 9:45:00 PM -0.04 31.928 0.071 6.89 13.48 13.95
12/23/2022 10:00:00 PM -0.04 31.928 0.071 6.89 11.96 13.96
12/23/2022 10:15:00 PM -0.04 31.928 0.071 6.89 12.76 13.96
12/23/2022 10:30:00 PM -0.04 31.928 0.071 6.89 11.94 13.96
12/23/2022 10:45:00 PM -0.04 31.928 0.072 6.89 11.42 13.97
12/23/2022 11:00:00 PM -0.04 31.928 0.072 6.89 9.39 13.97
12/23/2022 11:15:00 PM -0.03 31.946 0.072 6.9 9.43 13.97
12/23/2022 11:30:00 PM -0.03 31.946 0.072 6.9 9.71 13.97
12/23/2022 11:45:00 PM -0.04 31.928 0.072 6.9 9.55 13.97
12/24/2022 12:00:00 AM -0.03 31.946 0.072 6.9 8.75 13.97
12/24/2022 12:15:00 AM -0.04 31.928 0.072 6.9 8.5 13.98
12/24/2022 12:30:00 AM -0.03 31.946 0.072 6.9 8.44 13.98
12/24/2022 12:45:00 AM -0.03 31.946 0.072 6.9 8.01 13.98
12/24/2022 1:00:00 AM -0.03 31.946 0.072 6.9 8.17 13.98
12/24/2022 1:15:00 AM -0.03 31.946 0.072 6.9 8.49 13.99
12/24/2022 1:30:00 AM -0.03 31.946 0.072 6.89 8.18 13.99
12/24/2022 1:45:00 AM -0.03 31.946 0.072 6.9 8.23 13.99
12/24/2022 2:00:00 AM -0.04 31.928 0.072 6.89 7.93 13.99
12/24/2022 2:15:00 AM -0.03 31.946 0.072 6.89 7.95 13.99
12/24/2022 2:30:00 AM -0.03 31.946 0.072 6.89 7.5 13.99
12/24/2022 2:45:00 AM -0.03 31.946 0.073 6.89 7.47 13.99
12/24/2022 3:00:00 AM -0.04 31.928 0.073 6.87 7.42 13.99
12/24/2022 3:15:00 AM -0.03 31.946 0.073 6.88 7.38 14
12/24/2022 3:30:00 AM -0.03 31.946 0.073 6.89 7.55 14
12/24/2022 3:45:00 AM -0.03 31.946 0.073 6.89 7.27 14
12/24/2022 4:00:00 AM -0.03 31.946 0.073 6.89 6.89 14
12/24/2022 4:15:00 AM -0.03 31.946 0.073 6.89 6.67 14
12/24/2022 4:30:00 AM -0.03 31.946 0.073 6.89 6.38 14
12/24/2022 4:45:00 AM -0.03 31.946 0.073 6.88 6.32 14
12/24/2022 5:00:00 AM -0.03 31.946 0.073 6.89 6.28 14
12/24/2022 5:15:00 AM -0.03 31.946 0.073 6.88 6.15 14.01
12/24/2022 5:30:00 AM -0.03 31.946 0.073 6.89 6.05 14.01
12/24/2022 5:45:00 AM -0.03 31.946 0.073 6.89 6.09 14.01
12/24/2022 6:00:00 AM -0.03 31.946 0.073 6.89 5.94 14.01
12/24/2022 6:15:00 AM -0.03 31.946 0.073 6.89 6.11 14.02
12/24/2022 6:30:00 AM -0.03 31.946 0.074 6.88 5.95 14.02
12/24/2022 6:45:00 AM -0.03 31.946 0.073 6.89 5.81 14.02
12/24/2022 7:00:00 AM -0.03 31.946 0.074 6.88 5.74 14.02
12/24/2022 7:15:00 AM -0.03 31.946 0.074 6.89 5.73 14.02
12/24/2022 7:30:00 AM -0.03 31.946 0.074 6.89 5.71 14.02
12/24/2022 7:45:00 AM -0.03 31.946 0.074 6.89 5.6 14.02
12/24/2022 8:00:00 AM -0.03 31.946 0.074 6.88 5.71 14.03
12/24/2022 8:15:00 AM -0.03 31.946 0.074 6.88 5.65 14.04
12/24/2022 8:30:00 AM -0.03 31.946 0.074 6.89 5.57 14.05
12/24/2022 8:45:00 AM -0.03 31.946 0.074 6.89 5.51 14.05
12/24/2022 9:00:00 AM -0.03 31.946 0.074 6.9 5.58 14.06
12/24/2022 9:15:00 AM -0.03 31.946 0.074 6.9 5.44 14.07
12/24/2022 9:30:00 AM -0.03 31.946 0.074 6.89 5.29 14.07
12/24/2022 9:45:00 AM -0.03 31.946 0.074 6.89 5.27 14.08
12/24/2022 10:00:00 AM -0.03 31.946 0.074 6.91 5.25 14.09
12/24/2022 10:15:00 AM -0.03 31.946 0.074 6.91 5.21 14.09
12/24/2022 10:30:00 AM -0.03 31.946 0.074 6.91 5.15 14.09
12/24/2022 10:45:00 AM -0.03 31.946 0.074 6.91 5.05 14.09
12/24/2022 11:00:00 AM -0.03 31.946 0.074 6.91 5.1 14.09
12/24/2022 11:15:00 AM -0.03 31.946 0.075 6.92 5.23 14.1
12/24/2022 11:30:00 AM -0.03 31.946 0.074 6.92 5.33 14.09
12/24/2022 11:45:00 AM -0.03 31.946 0.074 6.92 5.3 14.09
12/24/2022 12:00:00 PM -0.03 31.946 0.075 6.92 5.12 14.09
12/24/2022 12:15:00 PM -0.03 31.946 0.074 6.92 5.31 14.09
12/24/2022 12:30:00 PM -0.03 31.946 0.075 6.92 5.08 14.1
12/24/2022 12:45:00 PM -0.03 31.946 0.074 6.92 5.25 14.09
12/24/2022 1:00:00 PM -0.03 31.946 0.074 6.93 5.23 14.1
12/24/2022 1:15:00 PM -0.03 31.946 0.074 6.92 5.19 14.1
12/24/2022 1:30:00 PM -0.03 31.946 0.074 6.92 5.16 14.1
12/24/2022 1:45:00 PM -0.03 31.946 0.074 6.92 5.14 14.09
12/24/2022 2:00:00 PM -0.04 31.928 0.074 6.93 5.84 14.1
12/24/2022 2:15:00 PM -0.03 31.946 0.074 6.93 5.49 14.09
12/24/2022 2:30:00 PM -0.03 31.946 0.075 6.93 5.43 14.1
12/24/2022 2:45:00 PM -0.03 31.946 0.075 6.93 5.88 14.1
12/24/2022 3:00:00 PM -0.04 31.928 0.075 6.93 6.19 14.1
12/24/2022 3:15:00 PM -0.04 31.928 0.075 6.93 5.97 14.09
12/24/2022 3:30:00 PM -0.04 31.928 0.075 6.93 6.07 14.09
12/24/2022 3:45:00 PM -0.04 31.928 0.075 6.93 5.81 14.09
12/24/2022 4:00:00 PM -0.04 31.928 0.075 6.93 5.77 14.09
12/24/2022 4:15:00 PM -0.04 31.928 0.075 6.92 5.73 14.08
12/24/2022 4:30:00 PM -0.04 31.928 0.075 6.93 5.51 14.08
12/24/2022 4:45:00 PM -0.04 31.928 0.075 6.92 5.36 14.07
12/24/2022 5:00:00 PM -0.04 31.928 0.075 6.92 5.42 14.06
12/24/2022 5:15:00 PM -0.04 31.928 0.075 6.92 5.28 14.06
12/24/2022 5:30:00 PM -0.04 31.928 0.075 6.92 5.3 14.05
12/24/2022 5:45:00 PM -0.04 31.928 0.075 6.91 5.15 14.05
12/24/2022 6:00:00 PM -0.04 31.928 0.076 6.92 5.15 14.05
12/24/2022 6:15:00 PM -0.04 31.928 0.076 6.92 5.15 14.05
12/24/2022 6:30:00 PM -0.04 31.928 0.076 6.92 5.11 14.05
12/24/2022 6:45:00 PM -0.04 31.928 0.076 6.92 4.87 14.05
12/24/2022 7:00:00 PM -0.04 31.928 0.076 6.92 4.97 14.05
12/24/2022 7:15:00 PM -0.04 31.928 0.076 6.91 4.92 14.05
12/24/2022 7:30:00 PM -0.04 31.928 0.076 6.92 4.87 14.05
12/24/2022 7:45:00 PM -0.04 31.928 0.076 6.92 4.88 14.05
12/24/2022 8:00:00 PM -0.04 31.928 0.077 6.92 4.86 14.05
12/24/2022 8:15:00 PM -0.04 31.928 0.077 6.91 4.88 14.05
12/24/2022 8:30:00 PM -0.04 31.928 0.077 6.91 4.75 14.05
12/24/2022 8:45:00 PM -0.04 31.928 0.077 6.92 4.69 14.04
12/24/2022 9:00:00 PM -0.03 31.946 0.077 6.92 4.74 14.04
12/24/2022 9:15:00 PM -0.04 31.928 0.077 6.91 4.76 14.04
12/24/2022 9:30:00 PM -0.04 31.928 0.077 6.92 4.76 14.04
12/24/2022 9:45:00 PM -0.04 31.928 0.077 6.92 4.7 14.04
12/24/2022 10:00:00 PM -0.03 31.946 0.077 6.92 4.63 14.04
12/24/2022 10:15:00 PM -0.04 31.928 0.077 6.92 4.73 14.04
12/24/2022 10:30:00 PM -0.04 31.928 0.078 6.91 4.63 14.04
12/24/2022 10:45:00 PM -0.04 31.928 0.078 6.92 4.65 14.04
12/24/2022 11:00:00 PM -0.04 31.928 0.078 6.92 4.59 14.04
12/24/2022 11:15:00 PM -0.04 31.928 0.078 6.92 4.59 14.04
12/24/2022 11:30:00 PM -0.04 31.928 0.078 6.92 4.59 14.04
12/24/2022 11:45:00 PM -0.03 31.946 0.078 6.92 4.54 14.04
12/25/2022 12:00:00 AM -0.03 31.946 0.078 6.92 4.57 14.04
12/25/2022 12:15:00 AM -0.03 31.946 0.078 6.92 4.53 14.04
12/25/2022 12:30:00 AM -0.03 31.946 0.078 6.92 4.53 14.04
12/25/2022 12:45:00 AM -0.03 31.946 0.078 6.92 4.45 14.04
12/25/2022 1:00:00 AM -0.03 31.946 0.079 6.92 4.44 14.04
12/25/2022 1:15:00 AM -0.03 31.946 0.078 6.92 4.43 14.04
12/25/2022 1:30:00 AM -0.03 31.946 0.079 6.92 4.47 14.04
12/25/2022 1:45:00 AM -0.03 31.946 0.079 6.92 4.47 14.04
12/25/2022 2:00:00 AM -0.04 31.928 0.079 6.92 4.5 14.04
12/25/2022 2:15:00 AM -0.03 31.946 0.079 6.92 4.53 14.04
12/25/2022 2:30:00 AM -0.03 31.946 0.079 6.92 4.42 14.04
12/25/2022 2:45:00 AM -0.03 31.946 0.079 6.91 4.37 14.04
12/25/2022 3:00:00 AM -0.03 31.946 0.079 6.92 4.39 14.04
12/25/2022 3:15:00 AM -0.03 31.946 0.079 6.91 4.32 14.04
12/25/2022 3:30:00 AM -0.03 31.946 0.079 6.92 4.28 14.04
12/25/2022 3:45:00 AM -0.03 31.946 0.079 6.92 4.24 14.04
12/25/2022 4:00:00 AM -0.03 31.946 0.079 6.92 4.24 14.04
12/25/2022 4:15:00 AM -0.03 31.946 0.079 6.92 4.23 14.04
12/25/2022 4:30:00 AM -0.03 31.946 0.079 6.92 4.36 14.04
12/25/2022 4:45:00 AM -0.04 31.928 0.079 6.92 4.29 14.03
12/25/2022 5:00:00 AM -0.04 31.928 0.079 6.91 4.19 14.03
12/25/2022 5:15:00 AM -0.04 31.928 0.08 6.92 4.26 14.03
12/25/2022 5:30:00 AM -0.03 31.946 0.079 6.92 4.29 14.03
12/25/2022 5:45:00 AM -0.04 31.928 0.079 6.92 4.5 14.03
12/25/2022 6:00:00 AM -0.04 31.928 0.08 6.92 4.8 14.03
12/25/2022 6:15:00 AM -0.03 31.946 0.08 6.92 4.83 14.03
12/25/2022 6:30:00 AM -0.04 31.928 0.08 6.91 4.98 14.03
12/25/2022 6:45:00 AM -0.04 31.928 0.08 6.92 4.8 14.03
12/25/2022 7:00:00 AM -0.04 31.928 0.08 6.92 4.6 14.03
12/25/2022 7:15:00 AM -0.04 31.928 0.08 6.92 4.57 14.03
12/25/2022 7:30:00 AM -0.04 31.928 0.08 6.92 4.81 14.03
12/25/2022 7:45:00 AM -0.04 31.928 0.08 6.92 4.69 14.04
12/25/2022 8:00:00 AM -0.04 31.928 0.08 6.92 4.41 14.05
12/25/2022 8:15:00 AM -0.04 31.928 0.08 6.92 4.36 14.05
12/25/2022 8:30:00 AM -0.04 31.928 0.08 6.92 4.5 14.07
12/25/2022 8:45:00 AM -0.04 31.928 0.08 6.92 4.32 14.08
12/25/2022 9:00:00 AM -0.03 31.946 0.08 6.93 4.17 14.08
12/25/2022 9:15:00 AM -0.04 31.928 0.08 6.93 4.28 14.09
12/25/2022 9:30:00 AM -0.03 31.946 0.08 6.93 4.44 14.1
12/25/2022 9:45:00 AM -0.03 31.946 0.08 6.94 4.23 14.1
12/25/2022 10:00:00 AM -0.04 31.928 0.08 6.94 4.32 14.11
12/25/2022 10:15:00 AM -0.04 31.928 0.08 6.94 4.14 14.11
12/25/2022 10:30:00 AM -0.03 31.946 0.08 6.94 4.12 14.11
12/25/2022 10:45:00 AM -0.03 31.946 0.08 6.94 4.76 14.12
12/25/2022 11:00:00 AM -0.03 31.946 0.08 6.94 4.57 14.12
12/25/2022 11:15:00 AM -0.03 31.946 0.08 6.94 4.41 14.12
12/25/2022 11:30:00 AM -0.03 31.946 0.08 6.94 4.48 14.11
12/25/2022 11:45:00 AM -0.03 31.946 0.08 6.95 6.17 14.11
12/25/2022 12:00:00 PM -0.02 31.964 0.08 6.93 5.24 14.11
12/25/2022 12:15:00 PM -0.02 31.964 0.08 6.95 4.81 14.11
12/25/2022 12:30:00 PM -0.03 31.946 0.08 6.95 4.64 14.1
12/25/2022 12:45:00 PM -0.02 31.964 0.08 6.95 4.83 14.11
12/25/2022 1:00:00 PM -0.03 31.946 0.08 6.96 5.12 14.1
12/25/2022 1:15:00 PM -0.02 31.964 0.079 6.95 5.2 14.1
12/25/2022 1:30:00 PM -0.02 31.964 0.079 6.95 5.78 14.09
12/25/2022 1:45:00 PM -0.03 31.946 0.08 6.95 5.45 14.09
12/25/2022 2:00:00 PM -0.03 31.946 0.079 6.95 5.78 14.09
12/25/2022 2:15:00 PM -0.02 31.964 0.08 6.96 5.37 14.09
12/25/2022 2:30:00 PM -0.02 31.964 0.08 6.96 5.44 14.09
12/25/2022 2:45:00 PM -0.02 31.964 0.08 6.96 5.55 14.09
12/25/2022 3:00:00 PM -0.03 31.946 0.08 6.96 5.38 14.08
12/25/2022 3:15:00 PM -0.03 31.946 0.079 6.96 5.22 14.07
12/25/2022 3:30:00 PM -0.03 31.946 0.079 6.96 5.3 14.07
12/25/2022 3:45:00 PM -0.03 31.946 0.079 6.96 5.34 14.06
12/25/2022 4:00:00 PM -0.03 31.946 0.079 6.96 5.47 14.06
12/25/2022 4:15:00 PM -0.03 31.946 0.079 6.95 5.16 14.06
12/25/2022 4:30:00 PM -0.03 31.946 0.08 6.95 5.41 14.05
12/25/2022 4:45:00 PM -0.03 31.946 0.08 6.95 5.19 14.05
12/25/2022 5:00:00 PM -0.03 31.946 0.08 6.95 5.02 14.04
12/25/2022 5:15:00 PM -0.03 31.946 0.08 6.95 4.99 14.04
12/25/2022 5:30:00 PM -0.03 31.946 0.08 6.95 5.28 14.03
12/25/2022 5:45:00 PM -0.03 31.946 0.08 6.95 5.32 14.03
12/25/2022 6:00:00 PM -0.03 31.946 0.08 6.94 5.15 14.03
12/25/2022 6:15:00 PM -0.03 31.946 0.08 6.94 5.89 14.03
12/25/2022 6:30:00 PM -0.03 31.946 0.08 6.93 5.31 14.03
12/25/2022 6:45:00 PM -0.03 31.946 0.081 6.94 4.97 14.03
12/25/2022 7:00:00 PM -0.03 31.946 0.081 6.94 4.89 14.03
12/25/2022 7:15:00 PM -0.03 31.946 0.081 6.94 5.32 14.03
12/25/2022 7:30:00 PM -0.03 31.946 0.081 6.94 5.38 14.04
12/25/2022 7:45:00 PM -0.03 31.946 0.081 6.94 4.84 14.04
12/25/2022 8:00:00 PM -0.03 31.946 0.081 6.94 4.74 14.05
12/25/2022 8:15:00 PM -0.03 31.946 0.081 6.94 4.68 14.05
12/25/2022 8:30:00 PM -0.03 31.946 0.081 6.94 4.61 14.06
12/25/2022 8:45:00 PM -0.03 31.946 0.082 6.94 4.78 14.06
12/25/2022 9:00:00 PM -0.03 31.946 0.081 6.94 4.62 14.07
12/25/2022 9:15:00 PM -0.03 31.946 0.081 6.94 4.79 14.06
12/25/2022 9:30:00 PM -0.03 31.946 0.082 6.94 4.48 14.06
12/25/2022 9:45:00 PM -0.03 31.946 0.082 6.94 4.31 14.07
12/25/2022 10:00:00 PM -0.03 31.946 0.082 6.94 4.51 14.08
12/25/2022 10:15:00 PM -0.04 31.928 0.082 6.94 4.5 14.08
12/25/2022 10:30:00 PM -0.04 31.928 0.082 6.94 4.46 14.08
12/25/2022 10:45:00 PM -0.03 31.946 0.082 6.94 4.09 14.09
12/25/2022 11:00:00 PM -0.03 31.946 0.082 6.94 4.4 14.09
12/25/2022 11:15:00 PM -0.03 31.946 0.082 6.94 4.36 14.09
12/25/2022 11:30:00 PM -0.03 31.946 0.082 6.94 4.29 14.1
12/25/2022 11:45:00 PM -0.04 31.928 0.082 6.94 4.35 14.1
12/26/2022 12:00:00 AM -0.04 31.928 0.082 6.94 4.3 14.1
12/26/2022 12:15:00 AM -0.03 31.946 0.082 6.94 4.25 14.1
12/26/2022 12:30:00 AM -0.03 31.946 0.082 6.95 4.07 14.11
12/26/2022 12:45:00 AM -0.03 31.946 0.082 6.95 4.1 14.11
12/26/2022 1:00:00 AM -0.04 31.928 0.083 6.94 3.98 14.11
12/26/2022 1:15:00 AM -0.03 31.946 0.083 6.95 4.21 14.12
12/26/2022 1:30:00 AM -0.03 31.946 0.083 6.94 4.16 14.12
12/26/2022 1:45:00 AM -0.04 31.928 0.083 6.94 4.02 14.13
12/26/2022 2:00:00 AM -0.04 31.928 0.083 6.95 4.25 14.13
12/26/2022 2:15:00 AM -0.04 31.928 0.083 6.94 4.04 14.13
12/26/2022 2:30:00 AM -0.03 31.946 0.083 6.94 4.15 14.13
12/26/2022 2:45:00 AM -0.03 31.946 0.083 6.94 4.03 14.14
12/26/2022 3:00:00 AM -0.03 31.946 0.083 6.94 3.91 14.14
12/26/2022 3:15:00 AM -0.03 31.946 0.083 6.94 3.93 14.15
12/26/2022 3:30:00 AM -0.03 31.946 0.083 6.95 3.96 14.15
12/26/2022 3:45:00 AM -0.03 31.946 0.083 6.94 3.94 14.15
12/26/2022 4:00:00 AM -0.03 31.946 0.083 6.94 3.95 14.15
12/26/2022 4:15:00 AM -0.03 31.946 0.083 6.94 4.04 14.15
12/26/2022 4:30:00 AM -0.03 31.946 0.084 6.94 4.01 14.15
12/26/2022 4:45:00 AM -0.03 31.946 0.084 6.94 4.04 14.15
12/26/2022 5:00:00 AM -0.03 31.946 0.084 6.94 3.83 14.15
12/26/2022 5:15:00 AM -0.03 31.946 0.084 6.94 3.87 14.16
12/26/2022 5:30:00 AM -0.03 31.946 0.083 6.94 4.05 14.16
12/26/2022 5:45:00 AM -0.03 31.946 0.084 6.94 4 14.16
12/26/2022 6:00:00 AM -0.03 31.946 0.084 6.94 3.92 14.16
12/26/2022 6:15:00 AM -0.03 31.946 0.084 6.93 3.88 14.17
12/26/2022 6:30:00 AM -0.03 31.946 0.084 6.93 3.81 14.17
12/26/2022 6:45:00 AM -0.03 31.946 0.084 6.93 3.82 14.17
12/26/2022 7:00:00 AM -0.03 31.946 0.084 6.94 3.96 14.18
12/26/2022 7:15:00 AM -0.03 31.946 0.084 6.93 3.97 14.18
12/26/2022 7:30:00 AM -0.03 31.946 0.085 6.93 3.94 14.18
12/26/2022 7:45:00 AM -0.03 31.946 0.085 6.94 3.87 14.19
12/26/2022 8:00:00 AM -0.03 31.946 0.085 6.94 3.94 14.2
12/26/2022 8:15:00 AM -0.03 31.946 0.085 6.94 4.42 14.2
12/26/2022 8:30:00 AM -0.03 31.946 0.085 6.94 3.87 14.21
12/26/2022 8:45:00 AM -0.02 31.964 0.085 6.94 4.09 14.22
12/26/2022 9:00:00 AM 0 32 0.085 6.94 4.02 14.23
12/26/2022 9:15:00 AM 0 32 0.085 6.95 3.91 14.24
12/26/2022 9:30:00 AM 0 32 0.085 6.95 3.85 14.25
12/26/2022 9:45:00 AM 0 32 0.085 6.95 3.86 14.25
12/26/2022 10:00:00 AM 0 32 0.085 6.95 3.8 14.26
12/26/2022 10:15:00 AM 0.01 32.018 0.085 6.96 3.79 14.27
12/26/2022 10:30:00 AM 0.01 32.018 0.085 6.97 3.95 14.28
12/26/2022 10:45:00 AM 0.01 32.018 0.085 6.97 3.98 14.28
12/26/2022 11:00:00 AM 0 32 0.086 6.97 4.02 14.3
12/26/2022 11:15:00 AM 0.01 32.018 0.086 6.98 4.41 14.3
12/26/2022 11:30:00 AM 0.01 32.018 0.086 6.98 3.97 14.3
12/26/2022 11:45:00 AM 0 32 0.086 6.99 3.97 14.3
12/26/2022 12:00:00 PM 0.03 32.054 0.086 6.99 3.92 14.3
12/26/2022 12:15:00 PM 0.01 32.018 0.085 6.99 4.19 14.29
12/26/2022 12:30:00 PM 0 32 0.085 6.99 4.11 14.29
12/26/2022 12:45:00 PM 0.01 32.018 0.084 7 4.12 14.28
12/26/2022 1:00:00 PM 0.01 32.018 0.084 6.99 4.24 14.27
12/26/2022 1:15:00 PM 0.01 32.018 0.084 7 4.44 14.26
12/26/2022 1:30:00 PM -0.01 31.982 0.083 6.99 4.85 14.26
12/26/2022 1:45:00 PM -0.01 31.982 0.083 6.99 4.73 14.26
12/26/2022 2:00:00 PM -0.01 31.982 0.083 6.99 4.59 14.25
12/26/2022 2:15:00 PM -0.01 31.982 0.083 7 4.59 14.25
12/26/2022 2:30:00 PM -0.01 31.982 0.083 6.99 4.73 14.23
12/26/2022 2:45:00 PM -0.01 31.982 0.083 6.99 4.78 14.22
12/26/2022 3:00:00 PM -0.02 31.964 0.083 6.99 4.61 14.21
12/26/2022 3:15:00 PM -0.02 31.964 0.083 6.99 4.81 14.2
12/26/2022 3:30:00 PM -0.02 31.964 0.083 6.99 4.71 14.19
12/26/2022 3:45:00 PM -0.02 31.964 0.083 6.99 4.82 14.17
12/26/2022 4:00:00 PM -0.02 31.964 0.082 6.98 4.84 14.16
12/26/2022 4:15:00 PM -0.03 31.946 0.083 6.98 4.61 14.14
12/26/2022 4:30:00 PM -0.02 31.964 0.082 6.98 4.72 14.13
12/26/2022 4:45:00 PM -0.03 31.946 0.083 6.98 4.95 14.11
12/26/2022 5:00:00 PM -0.02 31.964 0.083 6.97 5.93 14.11
12/26/2022 5:15:00 PM -0.02 31.964 0.083 6.97 5.21 14.09
12/26/2022 5:30:00 PM -0.02 31.964 0.083 6.97 5.14 14.08
12/26/2022 5:45:00 PM -0.02 31.964 0.083 6.96 5.4 14.08
12/26/2022 6:00:00 PM -0.01 31.982 0.083 6.96 5.07 14.07
12/26/2022 6:15:00 PM -0.01 31.982 0.083 6.96 5.64 14.07
12/26/2022 6:30:00 PM -0.01 31.982 0.083 6.96 5.36 14.06
12/26/2022 6:45:00 PM -0.01 31.982 0.083 6.96 4.92 14.07
12/26/2022 7:00:00 PM 0 32 0.083 6.95 4.95 14.07
12/26/2022 7:15:00 PM 0 32 0.083 6.96 5.03 14.07
12/26/2022 7:30:00 PM 0 32 0.084 6.96 4.78 14.08
12/26/2022 7:45:00 PM 0 32 0.084 6.96 5.35 14.08
12/26/2022 8:00:00 PM 0 32 0.084 6.95 4.88 14.08
12/26/2022 8:15:00 PM 0 32 0.084 6.95 4.65 14.08
12/26/2022 8:30:00 PM 0.01 32.018 0.084 6.95 4.57 14.09
12/26/2022 8:45:00 PM 0.01 32.018 0.084 6.95 4.38 14.09
12/26/2022 9:00:00 PM 0.01 32.018 0.084 6.95 4.57 14.1
12/26/2022 9:15:00 PM 0 32 0.084 6.95 4.34 14.1
12/26/2022 9:30:00 PM 0 32 0.084 6.95 4.36 14.1
12/26/2022 9:45:00 PM 0 32 0.084 6.95 4.37 14.11
12/26/2022 10:00:00 PM 0 32 0.084 6.95 4.09 14.11
12/26/2022 10:15:00 PM 0 32 0.084 6.95 4.3 14.12
12/26/2022 10:30:00 PM 0 32 0.084 6.95 4.31 14.11
12/26/2022 10:45:00 PM 0 32 0.084 6.95 4.24 14.12
12/26/2022 11:00:00 PM 0 32 0.084 6.95 4.09 14.12
12/26/2022 11:15:00 PM 0.01 32.018 0.084 6.95 4.04 14.12
12/26/2022 11:30:00 PM 0.01 32.018 0.084 6.95 3.96 14.12
12/26/2022 11:45:00 PM 0.01 32.018 0.084 6.95 4.23 14.12
12/27/2022 12:00:00 AM 0.02 32.036 0.084 6.95 4 14.12
12/27/2022 12:15:00 AM 0.02 32.036 0.084 6.96 3.99 14.12
12/27/2022 12:30:00 AM 0.02 32.036 0.084 6.96 3.95 14.11
12/27/2022 12:45:00 AM 0.02 32.036 0.084 6.96 3.91 14.11
12/27/2022 1:00:00 AM 0.03 32.054 0.084 6.96 3.96 14.1
12/27/2022 1:15:00 AM 0.04 32.072 0.084 6.96 4.05 14.1
12/27/2022 1:30:00 AM 0.04 32.072 0.084 6.96 4.2 14.1
12/27/2022 1:45:00 AM 0.04 32.072 0.084 6.96 4.03 14.1
12/27/2022 2:00:00 AM 0.04 32.072 0.084 6.96 4.19 14.1
12/27/2022 2:15:00 AM 0.04 32.072 0.084 6.96 4.07 14.1
12/27/2022 2:30:00 AM 0.05 32.09 0.084 6.96 3.96 14.1
12/27/2022 2:45:00 AM 0.05 32.09 0.084 6.96 4.17 14.1
12/27/2022 3:00:00 AM 0.05 32.09 0.084 6.96 3.94 14.1
12/27/2022 3:15:00 AM 0.05 32.09 0.084 6.96 3.95 14.1
12/27/2022 3:30:00 AM 0.05 32.09 0.084 6.96 3.87 14.1
12/27/2022 3:45:00 AM 0.05 32.09 0.084 6.96 4 14.09
12/27/2022 4:00:00 AM 0.06 32.108 0.084 6.96 3.87 14.09
12/27/2022 4:15:00 AM 0.06 32.108 0.084 6.96 3.92 14.09
12/27/2022 4:30:00 AM 0.06 32.108 0.084 6.96 4.08 14.08
12/27/2022 4:45:00 AM 0.06 32.108 0.084 6.96 4.2 14.09
12/27/2022 5:00:00 AM 0.07 32.126 0.084 6.96 3.86 14.09
12/27/2022 5:15:00 AM 0.07 32.126 0.084 6.96 4 14.09
12/27/2022 5:30:00 AM 0.07 32.126 0.084 6.96 4.03 14.09
12/27/2022 5:45:00 AM 0.07 32.126 0.084 6.96 4.12 14.08
12/27/2022 6:00:00 AM 0.07 32.126 0.084 6.96 3.95 14.09
12/27/2022 6:15:00 AM 0.08 32.144 0.084 6.96 3.95 14.09
12/27/2022 6:30:00 AM 0.08 32.144 0.084 6.96 4.41 14.09
12/27/2022 6:45:00 AM 0.08 32.144 0.084 6.96 3.95 14.09
12/27/2022 7:00:00 AM 0.08 32.144 0.084 6.96 4.14 14.09
12/27/2022 7:15:00 AM 0.08 32.144 0.084 6.96 3.96 14.1
12/27/2022 7:30:00 AM 0.08 32.144 0.084 6.96 4.07 14.09
12/27/2022 7:45:00 AM 0.09 32.162 0.084 6.96 4.34 14.1
12/27/2022 8:00:00 AM 0.09 32.162 0.084 6.96 3.95 14.1
12/27/2022 8:15:00 AM 0.1 32.18 0.084 6.97 3.94 14.11
12/27/2022 8:30:00 AM 0.1 32.18 0.084 6.96 4.11 14.13
12/27/2022 8:45:00 AM 0.11 32.198 0.084 6.97 4.03 14.14
12/27/2022 9:00:00 AM 0.12 32.216 0.084 6.97 4.03 14.14
12/27/2022 9:15:00 AM 0.13 32.234 0.084 6.97 3.82 14.16
12/27/2022 9:30:00 AM 0.14 32.252 0.084 6.97 3.82 14.17
12/27/2022 9:45:00 AM 0.15 32.27 0.084 6.97 4.11 14.17
12/27/2022 10:00:00 AM 0.17 32.306 0.084 6.98 4.1 14.18
12/27/2022 10:15:00 AM 0.18 32.324 0.084 6.98 3.96 14.18
12/27/2022 10:30:00 AM 0.2 32.36 0.084 6.98 4.08 14.18
12/27/2022 10:45:00 AM 0.22 32.396 0.084 6.98 4.4 14.19
12/27/2022 11:00:00 AM 0.24 32.432 0.084 6.98 4.42 14.19
12/27/2022 11:15:00 AM 0.25 32.45 0.084 6.98 4.4 14.2
12/27/2022 11:30:00 AM 0.26 32.468 0.084 6.99 4.09 14.2
12/27/2022 11:45:00 AM 0.27 32.486 0.084 6.99 4.19 14.19
12/27/2022 12:00:00 PM 0.29 32.522 0.084 6.99 4.12 14.19
12/27/2022 12:15:00 PM 0.31 32.558 0.084 6.99 4.02 14.19
12/27/2022 12:30:00 PM 0.33 32.594 0.084 6.99 4.05 14.19
12/27/2022 12:45:00 PM 0.33 32.594 0.088 6.99 3.88 14.18
12/27/2022 1:00:00 PM 0.34 32.612 0.089 6.99 4.03 14.17
12/27/2022 1:15:00 PM 0.34 32.612 0.088 7 4.25 14.17
12/27/2022 1:30:00 PM 0.36 32.648 0.087 6.99 4.47 14.17
12/27/2022 1:45:00 PM 0.38 32.684 0.086 7 4.33 14.17
12/27/2022 2:00:00 PM 0.4 32.72 0.084 7 4.03 14.15
12/27/2022 2:15:00 PM 0.42 32.756 0.084 7 3.97 14.15
12/27/2022 2:30:00 PM 0.43 32.774 0.084 7 3.99 14.14
12/27/2022 2:45:00 PM 0.43 32.774 0.084 7.01 4.12 14.14
12/27/2022 3:00:00 PM 0.43 32.774 0.084 7.01 4.33 14.13
12/27/2022 3:15:00 PM 0.42 32.756 0.084 7.01 4.53 14.12
12/27/2022 3:30:00 PM 0.41 32.738 0.084 7.01 4.51 14.11
12/27/2022 3:45:00 PM 0.41 32.738 0.084 7.01 4.43 14.11
12/27/2022 4:00:00 PM 0.41 32.738 0.083 7 4.17 14.09
12/27/2022 4:15:00 PM 0.39 32.702 0.083 7 3.97 14.08
12/27/2022 4:30:00 PM 0.38 32.684 0.083 7 4.17 14.07
12/27/2022 4:45:00 PM 0.38 32.684 0.083 7 4.37 14.05
12/27/2022 5:00:00 PM 0.37 32.666 0.084 6.99 4.73 14.04
12/27/2022 5:15:00 PM 0.37 32.666 0.084 6.99 5.08 14.03
12/27/2022 5:30:00 PM 0.37 32.666 0.084 6.99 4.96 14.02
12/27/2022 5:45:00 PM 0.37 32.666 0.084 6.98 4.86 14.01
12/27/2022 6:00:00 PM 0.36 32.648 0.084 6.98 4.48 14
12/27/2022 6:15:00 PM 0.36 32.648 0.084 6.98 4.48 14.01
12/27/2022 6:30:00 PM 0.36 32.648 0.084 6.98 4.37 14
12/27/2022 6:45:00 PM 0.36 32.648 0.084 6.98 4.24 14
12/27/2022 7:00:00 PM 0.36 32.648 0.084 6.97 4.43 14
12/27/2022 7:15:00 PM 0.36 32.648 0.084 6.97 4.29 14.01
12/27/2022 7:30:00 PM 0.36 32.648 0.084 6.97 4.02 14.01
12/27/2022 7:45:00 PM 0.35 32.63 0.084 6.97 4.25 14.01
12/27/2022 8:00:00 PM 0.35 32.63 0.084 6.97 4.23 14.01
12/27/2022 8:15:00 PM 0.35 32.63 0.084 6.97 4.05 14
12/27/2022 8:30:00 PM 0.34 32.612 0.084 6.97 3.97 14.01
12/27/2022 8:45:00 PM 0.33 32.594 0.084 6.97 4.17 14.01
12/27/2022 9:00:00 PM 0.32 32.576 0.084 6.97 4.02 14.01
12/27/2022 9:15:00 PM 0.3 32.54 0.084 6.97 4.04 14.02
12/27/2022 9:30:00 PM 0.31 32.558 0.084 6.97 4.13 14.02
12/27/2022 9:45:00 PM 0.31 32.558 0.084 6.97 3.91 14.02
12/27/2022 10:00:00 PM 0.32 32.576 0.084 6.97 4.47 14.02
12/27/2022 10:15:00 PM 0.33 32.594 0.084 6.97 4.17 14.02
12/27/2022 10:30:00 PM 0.33 32.594 0.084 6.97 4.16 14.02
12/27/2022 10:45:00 PM 0.33 32.594 0.084 6.97 4.05 14.02
12/27/2022 11:00:00 PM 0.34 32.612 0.084 6.97 4.19 14.01
12/27/2022 11:15:00 PM 0.34 32.612 0.085 6.97 4.11 14.02
12/27/2022 11:30:00 PM 0.34 32.612 0.085 6.97 4.14 14.01
12/27/2022 11:45:00 PM 0.35 32.63 0.085 6.97 4.1 14
12/28/2022 12:00:00 AM 0.34 32.612 0.085 6.97 4.02 14.01
12/28/2022 12:15:00 AM 0.34 32.612 0.085 6.97 4.05 14.01
12/28/2022 12:30:00 AM 0.34 32.612 0.085 6.97 4.22 14
12/28/2022 12:45:00 AM 0.35 32.63 0.085 6.97 3.97 14.01
12/28/2022 1:00:00 AM 0.34 32.612 0.084 6.97 3.87 14.01
12/28/2022 1:15:00 AM 0.34 32.612 0.085 6.97 4.18 14
12/28/2022 1:30:00 AM 0.34 32.612 0.084 6.97 3.98 14
12/28/2022 1:45:00 AM 0.35 32.63 0.085 6.97 4.26 14
12/28/2022 2:00:00 AM 0.35 32.63 0.085 6.97 3.93 14
12/28/2022 2:15:00 AM 0.36 32.648 0.085 6.97 4.14 13.99
12/28/2022 2:30:00 AM 0.36 32.648 0.085 6.97 4.03 13.99
12/28/2022 2:45:00 AM 0.36 32.648 0.085 6.97 4.01 13.99
12/28/2022 3:00:00 AM 0.36 32.648 0.085 6.97 4.08 13.99
12/28/2022 3:15:00 AM 0.37 32.666 0.085 6.97 4.1 13.99
12/28/2022 3:30:00 AM 0.37 32.666 0.085 6.98 4.32 13.99
12/28/2022 3:45:00 AM 0.37 32.666 0.085 6.98 4.01 13.99
12/28/2022 4:00:00 AM 0.36 32.648 0.085 6.97 4.05 13.99
12/28/2022 4:15:00 AM 0.36 32.648 0.085 6.98 4.03 13.98
12/28/2022 4:30:00 AM 0.36 32.648 0.085 6.97 3.97 13.99
12/28/2022 4:45:00 AM 0.36 32.648 0.085 6.97 4.15 13.98
12/28/2022 5:00:00 AM 0.36 32.648 0.085 6.98 4.06 13.98
12/28/2022 5:15:00 AM 0.35 32.63 0.085 6.98 4.15 13.98
12/28/2022 5:30:00 AM 0.34 32.612 0.084 6.97 3.97 13.98
12/28/2022 5:45:00 AM 0.33 32.594 0.084 6.97 4 13.99
12/28/2022 6:00:00 AM 0.32 32.576 0.084 6.97 4.09 13.99
12/28/2022 6:15:00 AM 0.31 32.558 0.084 6.97 4.18 13.99
12/28/2022 6:30:00 AM 0.31 32.558 0.084 6.97 4.12 13.99
12/28/2022 6:45:00 AM 0.3 32.54 0.084 6.97 4.31 14
12/28/2022 7:00:00 AM 0.3 32.54 0.084 6.97 4.07 14
12/28/2022 7:15:00 AM 0.3 32.54 0.085 6.97 4.09 14
12/28/2022 7:30:00 AM 0.3 32.54 0.085 6.97 4.16 14
12/28/2022 7:45:00 AM 0.29 32.522 0.085 6.97 3.93 14.01
12/28/2022 8:00:00 AM 0.29 32.522 0.085 6.97 3.88 14.02
12/28/2022 8:15:00 AM 0.31 32.558 0.085 6.98 4.02 14.04
12/28/2022 8:30:00 AM 0.33 32.594 0.085 6.98 3.98 14.05
12/28/2022 8:45:00 AM 0.35 32.63 0.085 6.98 3.84 14.07
12/28/2022 9:00:00 AM 0.37 32.666 0.085 6.99 3.82 14.08
12/28/2022 9:15:00 AM 0.38 32.684 0.085 6.99 3.9 14.09
12/28/2022 9:30:00 AM 0.41 32.738 0.085 7 4.01 14.1
12/28/2022 9:45:00 AM 0.44 32.792 0.084 7 3.98 14.1
12/28/2022 10:00:00 AM 0.48 32.864 0.084 7.01 4.15 14.11
12/28/2022 10:15:00 AM 0.52 32.936 0.084 7.01 4.01 14.11
12/28/2022 10:30:00 AM 0.59 33.062 0.084 7.01 3.97 14.09
12/28/2022 10:45:00 AM 0.65 33.17 0.084 7.01 3.87 14.1
12/28/2022 11:00:00 AM 0.69 33.242 0.084 7.02 4.12 14.07
12/28/2022 11:15:00 AM 0.76 33.368 0.087 7.02 4.07 14.05
12/28/2022 11:30:00 AM 0.83 33.494 0.09 7.02 4.23 14.05
12/28/2022 11:45:00 AM 0.92 33.656 0.089 7.03 4.61 14.03
12/28/2022 12:00:00 PM 1 33.8 0.087 7.03 4.89 14.02
12/28/2022 12:15:00 PM 1.03 33.854 0.087 7.04 4.99 13.98
12/28/2022 12:30:00 PM 1.11 33.998 0.086 7.04 6.09 13.95
12/28/2022 12:45:00 PM 1.18 34.124 0.086 7.04 7.68 13.92
12/28/2022 1:00:00 PM 1.22 34.196 0.086 7.04 9.13 13.9
12/28/2022 1:15:00 PM 1.28 34.304 0.085 7.05 8.9 13.88
12/28/2022 1:30:00 PM 1.28 34.304 0.085 7.05 10.49 13.85
12/28/2022 1:45:00 PM 1.31 34.358 0.085 7.05 11.08 13.84
12/28/2022 2:00:00 PM 1.37 34.466 0.085 7.05 9.18 13.81
12/28/2022 2:15:00 PM 1.36 34.448 0.084 7.05 7.45 13.8
12/28/2022 2:30:00 PM 1.34 34.412 0.084 7.05 7.57 13.79
12/28/2022 2:45:00 PM 1.32 34.376 0.084 7.05 10.19 13.79
12/28/2022 3:00:00 PM 1.31 34.358 0.084 7.05 26.7 13.77
12/28/2022 3:15:00 PM 1.3 34.34 0.084 7.05 18.96 13.77
12/28/2022 3:30:00 PM 1.31 34.358 0.084 7.05 11.83 13.77
12/28/2022 3:45:00 PM 1.31 34.358 0.083 7.04 9.22 13.76
12/28/2022 4:00:00 PM 1.29 34.322 0.083 7.05 7.94 13.76
12/28/2022 4:15:00 PM 1.26 34.268 0.083 7.04 6.91 13.74
12/28/2022 4:30:00 PM 1.24 34.232 0.083 7.04 6.86 13.73
12/28/2022 4:45:00 PM 1.2 34.16 0.083 7.04 6.65 13.71
12/28/2022 5:00:00 PM 1.18 34.124 0.083 7.03 6.45 13.7
12/28/2022 5:15:00 PM 1.17 34.106 0.083 7.03 5.99 13.68
12/28/2022 5:30:00 PM 1.16 34.088 0.083 7.02 5.71 13.67
12/28/2022 5:45:00 PM 1.14 34.052 0.084 7.02 5.44 13.67
12/28/2022 6:00:00 PM 1.12 34.016 0.084 7.01 5.58 13.66
12/28/2022 6:15:00 PM 1.11 33.998 0.084 7.01 5.41 13.67
12/28/2022 6:30:00 PM 1.09 33.962 0.084 7.01 5.44 13.67
12/28/2022 6:45:00 PM 1.07 33.926 0.084 7.01 5.15 13.66
12/28/2022 7:00:00 PM 1.07 33.926 0.084 7.01 4.9 13.68
12/28/2022 7:15:00 PM 1.07 33.926 0.084 7 5.16 13.68
12/28/2022 7:30:00 PM 1.07 33.926 0.085 7 5.13 13.69
12/28/2022 7:45:00 PM 1.07 33.926 0.085 7 4.83 13.69
12/28/2022 8:00:00 PM 1.06 33.908 0.085 7 5.14 13.7
12/28/2022 8:15:00 PM 1.05 33.89 0.085 7 4.83 13.69
12/28/2022 8:30:00 PM 1.05 33.89 0.085 7 5.12 13.7
12/28/2022 8:45:00 PM 1.05 33.89 0.085 7 4.79 13.71
12/28/2022 9:00:00 PM 1.04 33.872 0.085 7 4.56 13.71
12/28/2022 9:15:00 PM 1.02 33.836 0.085 7 4.69 13.71
12/28/2022 9:30:00 PM 1.02 33.836 0.085 7 4.78 13.72
12/28/2022 9:45:00 PM 1.01 33.818 0.085 7 4.62 13.71
12/28/2022 10:00:00 PM 1 33.8 0.086 7 4.72 13.72
12/28/2022 10:15:00 PM 0.98 33.764 0.086 7 4.4 13.73
12/28/2022 10:30:00 PM 0.97 33.746 0.086 7 4.46 13.73
12/28/2022 10:45:00 PM 0.95 33.71 0.086 7 4.61 13.74
12/28/2022 11:00:00 PM 0.94 33.692 0.086 7 4.51 13.74
12/28/2022 11:15:00 PM 0.93 33.674 0.086 7 4.54 13.74
12/28/2022 11:30:00 PM 0.92 33.656 0.086 7 4.61 13.75
12/28/2022 11:45:00 PM 0.92 33.656 0.086 7 4.46 13.76
12/29/2022 12:00:00 AM 0.91 33.638 0.086 7 4.28 13.76
12/29/2022 12:15:00 AM 0.9 33.62 0.086 7 4.4 13.76
12/29/2022 12:30:00 AM 0.89 33.602 0.086 7 4.56 13.76
12/29/2022 12:45:00 AM 0.88 33.584 0.086 7 4.71 13.77
12/29/2022 1:00:00 AM 0.87 33.566 0.086 7 4.37 13.77
12/29/2022 1:15:00 AM 0.85 33.53 0.086 7 4.4 13.79
12/29/2022 1:30:00 AM 0.83 33.494 0.086 7 4.76 13.81
12/29/2022 1:45:00 AM 0.82 33.476 0.086 6.99 4.49 13.79
12/29/2022 2:00:00 AM 0.8 33.44 0.086 6.99 4.35 13.81
12/29/2022 2:15:00 AM 0.78 33.404 0.086 7 4.36 13.81
12/29/2022 2:30:00 AM 0.76 33.368 0.086 7 4.43 13.81
12/29/2022 2:45:00 AM 0.75 33.35 0.086 7 4.35 13.82
12/29/2022 3:00:00 AM 0.73 33.314 0.086 7 4.2 13.85
12/29/2022 3:15:00 AM 0.71 33.278 0.086 6.99 4.26 13.84
12/29/2022 3:30:00 AM 0.69 33.242 0.086 6.99 4.33 13.86
12/29/2022 3:45:00 AM 0.67 33.206 0.086 6.99 4.14 13.85
12/29/2022 4:00:00 AM 0.65 33.17 0.086 6.99 4.23 13.87
12/29/2022 4:15:00 AM 0.63 33.134 0.086 6.99 4.14 13.87
12/29/2022 4:30:00 AM 0.62 33.116 0.086 6.99 4.2 13.88
12/29/2022 4:45:00 AM 0.6 33.08 0.086 6.99 4.18 13.89
12/29/2022 5:00:00 AM 0.58 33.044 0.086 6.99 3.99 13.9
12/29/2022 5:15:00 AM 0.56 33.008 0.086 6.99 4.14 13.91
12/29/2022 5:30:00 AM 0.54 32.972 0.086 6.99 4.11 13.91
12/29/2022 5:45:00 AM 0.52 32.936 0.086 6.99 3.91 13.92
12/29/2022 6:00:00 AM 0.49 32.882 0.086 6.99 3.99 13.93
12/29/2022 6:15:00 AM 0.47 32.846 0.086 6.99 3.93 13.94
12/29/2022 6:30:00 AM 0.45 32.81 0.086 6.99 3.89 13.95
12/29/2022 6:45:00 AM 0.43 32.774 0.086 6.98 4.06 13.96
12/29/2022 7:00:00 AM 0.4 32.72 0.086 6.98 4.1 13.97
12/29/2022 7:15:00 AM 0.38 32.684 0.087 6.98 4.13 13.98
12/29/2022 7:30:00 AM 0.37 32.666 0.086 6.97 3.98 13.99
12/29/2022 7:45:00 AM 0.35 32.63 0.086 6.97 3.99 14
12/29/2022 8:00:00 AM 0.33 32.594 0.086 6.97 3.88 14.01
12/29/2022 8:15:00 AM 0.31 32.558 0.086 6.97 3.92 14.03
12/29/2022 8:30:00 AM 0.3 32.54 0.086 6.98 3.9 14.05
12/29/2022 8:45:00 AM 0.29 32.522 0.086 6.98 3.91 14.08
12/29/2022 9:00:00 AM 0.28 32.504 0.086 6.99 3.78 14.09
12/29/2022 9:15:00 AM 0.29 32.522 0.086 6.99 3.76 14.12
12/29/2022 9:30:00 AM 0.32 32.576 0.086 7 3.61 14.15
12/29/2022 9:45:00 AM 0.35 32.63 0.086 7.01 3.77 14.16
12/29/2022 10:00:00 AM 0.4 32.72 0.086 7.01 3.81 14.17
12/29/2022 10:15:00 AM 0.46 32.828 0.086 7.01 3.48 14.17
12/29/2022 10:30:00 AM 0.53 32.954 0.086 7.02 3.55 14.16
12/29/2022 10:45:00 AM 0.61 33.098 0.086 7.02 3.65 14.15
12/29/2022 11:00:00 AM 0.71 33.278 0.086 7.03 3.74 14.13
12/29/2022 11:15:00 AM 0.82 33.476 0.086 7.04 3.49 14.12
12/29/2022 11:30:00 AM 0.94 33.692 0.086 7.04 3.45 14.08
12/29/2022 11:45:00 AM 1.06 33.908 0.086 7.04 3.41 14.04
12/29/2022 12:00:00 PM 1.19 34.142 0.085 7.05 3.46 13.99
12/29/2022 12:15:00 PM 1.31 34.358 0.085 7.05 3.49 13.95
12/29/2022 12:30:00 PM 1.45 34.61 0.085 7.04 3.39 13.9
12/29/2022 12:45:00 PM 1.6 34.88 0.085 7.06 3.45 13.86
12/29/2022 1:00:00 PM 1.74 35.132 0.085 7.06 3.55 13.81
12/29/2022 1:15:00 PM 1.86 35.348 0.085 7.07 3.63 13.76
12/29/2022 1:30:00 PM 1.91 35.438 0.085 7.07 5.91 13.71
12/29/2022 1:45:00 PM 1.97 35.546 0.085 7.07 4.15 13.67
12/29/2022 2:00:00 PM 2.07 35.726 0.085 7.07 4.34 13.64
12/29/2022 2:15:00 PM 2.12 35.816 0.085 7.07 5.21 13.6
12/29/2022 2:30:00 PM 2.2 35.96 0.085 7.07 5.47 13.57
12/29/2022 2:45:00 PM 2.25 36.05 0.085 7.07 6.68 13.55
12/29/2022 3:00:00 PM 2.27 36.086 0.085 7.08 6.77 13.53
12/29/2022 3:15:00 PM 2.27 36.086 0.085 7.07 8.53 13.5
12/29/2022 3:30:00 PM 2.25 36.05 0.085 7.07 9.27 13.48
12/29/2022 3:45:00 PM 2.21 35.978 0.085 7.07 10.98 13.46
12/29/2022 4:00:00 PM 2.16 35.888 0.085 7.07 9.85 13.46
12/29/2022 4:15:00 PM 2.1 35.78 0.085 7.06 10.57 13.44
12/29/2022 4:30:00 PM 2.07 35.726 0.085 7.06 9.37 13.43
12/29/2022 4:45:00 PM 2.03 35.654 0.085 7.05 8.49 13.41
12/29/2022 5:00:00 PM 2 35.6 0.085 7.05 7.18 13.4
12/29/2022 5:15:00 PM 1.98 35.564 0.085 7.05 6.04 13.4
12/29/2022 5:30:00 PM 1.95 35.51 0.085 7.04 5.5 13.39
12/29/2022 5:45:00 PM 1.93 35.474 0.085 7.04 5.07 13.39
12/29/2022 6:00:00 PM 1.9 35.42 0.085 7.03 5.09 13.4
12/29/2022 6:15:00 PM 1.88 35.384 0.085 7.03 4.81 13.4
12/29/2022 6:30:00 PM 1.85 35.33 0.085 7.03 4.94 13.41
12/29/2022 6:45:00 PM 1.82 35.276 0.085 7.03 4.98 13.41
12/29/2022 7:00:00 PM 1.79 35.222 0.085 7.02 4.87 13.43
12/29/2022 7:15:00 PM 1.77 35.186 0.085 7.02 4.63 13.44
12/29/2022 7:30:00 PM 1.74 35.132 0.085 7.02 4.66 13.45
12/29/2022 7:45:00 PM 1.71 35.078 0.085 7.02 4.62 13.47
12/29/2022 8:00:00 PM 1.68 35.024 0.085 7.02 4.66 13.47
12/29/2022 8:15:00 PM 1.66 34.988 0.086 7.01 4.72 13.48
12/29/2022 8:30:00 PM 1.63 34.934 0.085 7.02 4.58 13.5
12/29/2022 8:45:00 PM 1.61 34.898 0.085 7.01 4.55 13.51
12/29/2022 9:00:00 PM 1.6 34.88 0.086 7.01 4.28 13.52
12/29/2022 9:15:00 PM 1.61 34.898 0.086 7.01 4.55 13.52
12/29/2022 9:30:00 PM 1.62 34.916 0.086 7.01 4.37 13.53
12/29/2022 9:45:00 PM 1.63 34.934 0.086 7.01 4.37 13.53
12/29/2022 10:00:00 PM 1.64 34.952 0.086 7.01 4.64 13.53
12/29/2022 10:15:00 PM 1.66 34.988 0.086 7.01 4.51 13.53
12/29/2022 10:30:00 PM 1.68 35.024 0.086 7.01 4.4 13.52
12/29/2022 10:45:00 PM 1.69 35.042 0.086 7.01 4.27 13.52
12/29/2022 11:00:00 PM 1.71 35.078 0.086 7.01 4.29 13.51
12/29/2022 11:15:00 PM 1.73 35.114 0.086 7.01 4.48 13.5
12/29/2022 11:30:00 PM 1.75 35.15 0.086 7.01 4.4 13.49
12/29/2022 11:45:00 PM 1.77 35.186 0.086 7.01 4.07 13.49
12/30/2022 12:00:00 AM 1.79 35.222 0.086 7.01 4.02 13.48
12/30/2022 12:15:00 AM 1.8 35.24 0.086 7.01 4.26 13.47
12/30/2022 12:30:00 AM 1.82 35.276 0.086 7.01 4.15 13.46
12/30/2022 12:45:00 AM 1.85 35.33 0.086 7.01 4.25 13.46
12/30/2022 1:00:00 AM 1.87 35.366 0.086 7.01 4.43 13.45
12/30/2022 1:15:00 AM 1.89 35.402 0.086 7.01 4.38 13.44
12/30/2022 1:30:00 AM 1.91 35.438 0.086 7.01 4.39 13.43
12/30/2022 1:45:00 AM 1.93 35.474 0.086 7.01 4.35 13.42
12/30/2022 2:00:00 AM 1.95 35.51 0.086 7.01 4.46 13.41
12/30/2022 2:15:00 AM 1.97 35.546 0.086 7.01 4.25 13.41
12/30/2022 2:30:00 AM 1.98 35.564 0.086 7.01 4.07 13.4
12/30/2022 2:45:00 AM 2 35.6 0.086 7.01 4.28 13.39
12/30/2022 3:00:00 AM 2.01 35.618 0.086 7.01 4.37 13.39
12/30/2022 3:15:00 AM 2.02 35.636 0.086 7.01 4.17 13.38
12/30/2022 3:30:00 AM 2.02 35.636 0.086 7.01 4.27 13.38
12/30/2022 3:45:00 AM 2.02 35.636 0.086 7.01 4.49 13.37
12/30/2022 4:00:00 AM 2.02 35.636 0.086 7.01 4.45 13.38
12/30/2022 4:15:00 AM 2.03 35.654 0.086 7.01 4.34 13.37
12/30/2022 4:30:00 AM 2.04 35.672 0.086 7.01 8.62 13.37
12/30/2022 4:45:00 AM 2.05 35.69 0.086 7.01 4.13 13.36
12/30/2022 5:00:00 AM 2.06 35.708 0.086 7.01 4.15 13.35
12/30/2022 5:15:00 AM 2.07 35.726 0.087 7.01 4.29 13.36
12/30/2022 5:30:00 AM 2.08 35.744 0.087 7.01 4.1 13.36
12/30/2022 5:45:00 AM 2.09 35.762 0.087 7.01 4.16 13.35
12/30/2022 6:00:00 AM 2.09 35.762 0.087 7.01 4.18 13.35
12/30/2022 6:15:00 AM 2.09 35.762 0.086 7.01 4.04 13.35
12/30/2022 6:30:00 AM 2.1 35.78 0.087 7.01 4.21 13.35
12/30/2022 6:45:00 AM 2.11 35.798 0.086 7.01 4.09 13.34
12/30/2022 7:00:00 AM 2.12 35.816 0.087 7.02 4.07 13.34
12/30/2022 7:15:00 AM 2.13 35.834 0.086 7.02 4.05 13.33
12/30/2022 7:30:00 AM 2.14 35.852 0.087 7.01 4.04 13.33
12/30/2022 7:45:00 AM 2.15 35.87 0.086 7.01 4.01 13.33
12/30/2022 8:00:00 AM 2.16 35.888 0.086 7.02 4 13.33
12/30/2022 8:15:00 AM 2.17 35.906 0.086 7.02 3.83 13.34
12/30/2022 8:30:00 AM 2.19 35.942 0.086 7.02 3.93 13.36
12/30/2022 8:45:00 AM 2.21 35.978 0.086 7.03 4.03 13.37
12/30/2022 9:00:00 AM 2.24 36.032 0.086 7.03 4.23 13.39
12/30/2022 9:15:00 AM 2.28 36.104 0.086 7.04 4.12 13.41
12/30/2022 9:30:00 AM 2.31 36.158 0.086 7.04 3.87 13.43
12/30/2022 9:45:00 AM 2.33 36.194 0.086 7.05 3.94 13.44
12/30/2022 10:00:00 AM 2.37 36.266 0.085 7.04 4.34 13.44
12/30/2022 10:15:00 AM 2.41 36.338 0.085 7.06 4.31 13.45
12/30/2022 10:30:00 AM 2.48 36.464 0.085 7.06 3.86 13.45
12/30/2022 10:45:00 AM 2.54 36.572 0.085 7.07 3.98 13.45
12/30/2022 11:00:00 AM 2.6 36.68 0.085 7.07 4.34 13.45
12/30/2022 11:15:00 AM 2.67 36.806 0.085 7.07 4.63 13.43
12/30/2022 11:30:00 AM 2.75 36.95 0.085 7.08 4.9 13.42
12/30/2022 11:45:00 AM 2.82 37.076 0.084 7.09 5.35 13.39
12/30/2022 12:00:00 PM 2.88 37.184 0.084 7.09 5.63 13.37
12/30/2022 12:15:00 PM 2.95 37.31 0.084 7.09 7.18 13.35
12/30/2022 12:30:00 PM 3.01 37.418 0.084 7.1 7.9 13.33
12/30/2022 12:45:00 PM 3.04 37.472 0.084 7.1 9.41 13.31
12/30/2022 1:00:00 PM 3.1 37.58 0.084 7.1 10.09 13.28
12/30/2022 1:15:00 PM 3.16 37.688 0.084 7.1 11.36 13.27
12/30/2022 1:30:00 PM 3.21 37.778 0.084 7.11 10.43 13.24
12/30/2022 1:45:00 PM 3.23 37.814 0.084 7.11 10.95 13.22
12/30/2022 2:00:00 PM 3.24 37.832 0.083 7.11 12.4 13.18
12/30/2022 2:15:00 PM 3.27 37.886 0.083 7.11 14.77 13.17
12/30/2022 2:30:00 PM 3.28 37.904 0.083 7.11 14.59 13.17
12/30/2022 2:45:00 PM 3.26 37.868 0.083 7.11 14.29 13.17
12/30/2022 3:00:00 PM 3.23 37.814 0.083 7.11 14.9 13.15
12/30/2022 3:15:00 PM 3.19 37.742 0.083 7.11 14.62 13.15
12/30/2022 3:30:00 PM 3.14 37.652 0.083 7.11 15.14 13.15
12/30/2022 3:45:00 PM 3.08 37.544 0.083 7.1 14.05 13.15
12/30/2022 4:00:00 PM 3.02 37.436 0.082 7.1 12.6 13.16
12/30/2022 4:15:00 PM 2.94 37.292 0.082 7.1 14.44 13.16
12/30/2022 4:30:00 PM 2.83 37.094 0.082 7.09 14.31 13.17
12/30/2022 4:45:00 PM 2.74 36.932 0.082 7.09 13.58 13.17
12/30/2022 5:00:00 PM 2.64 36.752 0.081 7.08 14.77 13.18
12/30/2022 5:15:00 PM 2.54 36.572 0.081 7.08 14.29 13.2
12/30/2022 5:30:00 PM 2.45 36.41 0.081 7.07 12.82 13.22
12/30/2022 5:45:00 PM 2.35 36.23 0.081 7.06 13.62 13.24
12/30/2022 6:00:00 PM 2.27 36.086 0.081 7.07 12.57 13.26
12/30/2022 6:15:00 PM 2.2 35.96 0.082 7.06 13.15 13.29
12/30/2022 6:30:00 PM 2.14 35.852 0.082 7.06 12.69 13.32
12/30/2022 6:45:00 PM 2.09 35.762 0.082 7.05 13.17 13.34
12/30/2022 7:00:00 PM 2.04 35.672 0.083 7.05 13.12 13.36
12/30/2022 7:15:00 PM 2.01 35.618 0.083 7.06 12.13 13.38
12/30/2022 7:30:00 PM 1.99 35.582 0.084 7.05 12.05 13.39
12/30/2022 7:45:00 PM 1.97 35.546 0.084 7.05 11.75 13.4
12/30/2022 8:00:00 PM 1.95 35.51 0.085 7.04 12 13.41
12/30/2022 8:15:00 PM 1.94 35.492 0.085 7.04 11.55 13.41
12/30/2022 8:30:00 PM 1.93 35.474 0.085 7.05 12 13.42
12/30/2022 8:45:00 PM 1.92 35.456 0.085 7.04 10.83 13.42
12/30/2022 9:00:00 PM 1.92 35.456 0.085 7.04 10.24 13.42
12/30/2022 9:15:00 PM 1.92 35.456 0.085 7.04 11.02 13.43
12/30/2022 9:30:00 PM 1.92 35.456 0.085 7.04 10.75 13.43
12/30/2022 9:45:00 PM 1.92 35.456 0.085 7.04 9.61 13.43
12/30/2022 10:00:00 PM 1.91 35.438 0.084 7.03 10.25 13.42
12/30/2022 10:15:00 PM 1.91 35.438 0.085 7.03 970.37 13.42
12/30/2022 10:30:00 PM 1.91 35.438 0.084 7.03 9.9 13.42
12/30/2022 10:45:00 PM 1.91 35.438 0.084 7.03 9.4 13.42
12/30/2022 11:00:00 PM 1.91 35.438 0.084 7.03 9.79 13.43
12/30/2022 11:15:00 PM 1.91 35.438 0.083 7.03 9.27 13.42
12/30/2022 11:30:00 PM 1.91 35.438 0.083 7.03 9.6 13.42
12/30/2022 11:45:00 PM 1.91 35.438 0.083 7.03 9.5 13.42
12/31/2022 12:00:00 AM 1.91 35.438 0.083 7.03 9.45 13.42
12/31/2022 12:15:00 AM 1.9 35.42 0.082 7.03 9.29 13.42
12/31/2022 12:30:00 AM 1.9 35.42 0.082 7.03 10.07 13.42
12/31/2022 12:45:00 AM 1.89 35.402 0.082 7.02 9.43 13.42
12/31/2022 1:00:00 AM 1.88 35.384 0.082 7.02 8.93 13.42
12/31/2022 1:15:00 AM 1.88 35.384 0.081 7.02 9.02 13.41
12/31/2022 1:30:00 AM 1.88 35.384 0.081 7.02 8.66 13.42
12/31/2022 1:45:00 AM 1.87 35.366 0.081 7.02 8.27 13.42
12/31/2022 2:00:00 AM 1.87 35.366 0.081 7.02 8.14 13.41
12/31/2022 2:15:00 AM 1.87 35.366 0.081 7.01 8.37 13.41
12/31/2022 2:30:00 AM 1.87 35.366 0.081 7.01 8.42 13.41
12/31/2022 2:45:00 AM 1.88 35.384 0.081 7.01 7.85 13.4
12/31/2022 3:00:00 AM 1.88 35.384 0.08 7.01 7.34 13.4
12/31/2022 3:15:00 AM 1.88 35.384 0.08 7.01 7.89 13.4
12/31/2022 3:30:00 AM 1.89 35.402 0.08 7.01 7.26 13.39
12/31/2022 3:45:00 AM 1.89 35.402 0.08 7.01 7.22 13.38
12/31/2022 4:00:00 AM 1.88 35.384 0.08 7.01 7.61 13.38
12/31/2022 4:15:00 AM 1.88 35.384 0.08 7 7.29 13.38
12/31/2022 4:30:00 AM 1.88 35.384 0.081 7.01 6.57 13.39
12/31/2022 4:45:00 AM 1.89 35.402 0.081 7 7.57 13.38
12/31/2022 5:00:00 AM 1.9 35.42 0.081 7.01 6.93 13.38
12/31/2022 5:15:00 AM 1.92 35.456 0.081 7.01 7.34 13.38
12/31/2022 5:30:00 AM 1.94 35.492 0.081 7.01 7.2 13.36
12/31/2022 5:45:00 AM 1.95 35.51 0.081 7.01 7.05 13.36
12/31/2022 6:00:00 AM 1.98 35.564 0.081 7.01 6.65 13.36
12/31/2022 6:15:00 AM 2 35.6 0.081 7 7.04 13.35
12/31/2022 6:30:00 AM 2.01 35.618 0.081 7 6.58 13.34
12/31/2022 6:45:00 AM 2.03 35.654 0.082 7.01 6.61 13.34
12/31/2022 7:00:00 AM 2.05 35.69 0.081 7 6.58 13.33
12/31/2022 7:15:00 AM 2.07 35.726 0.081 7.01 6.72 13.32
12/31/2022 7:30:00 AM 2.09 35.762 0.081 7.01 6.64 13.31
12/31/2022 7:45:00 AM 2.1 35.78 0.081 7.01 6.12 13.31
12/31/2022 8:00:00 AM 2.12 35.816 0.081 7.01 5.89 13.3
12/31/2022 8:15:00 AM 2.14 35.852 0.081 7.01 6.17 13.31
12/31/2022 8:30:00 AM 2.16 35.888 0.081 7.01 5.76 13.3
12/31/2022 8:45:00 AM 2.19 35.942 0.081 7.02 5.83 13.31
12/31/2022 9:00:00 AM 2.22 35.996 0.081 7.02 6.24 13.31
12/31/2022 9:15:00 AM 2.25 36.05 0.081 7.02 6.05 13.31
12/31/2022 9:30:00 AM 2.28 36.104 0.082 7.03 5.77 13.31
12/31/2022 9:45:00 AM 2.3 36.14 0.081 7.03 6.27 13.3
12/31/2022 10:00:00 AM 2.33 36.194 0.081 7.03 5.7 13.29
12/31/2022 10:15:00 AM 2.37 36.266 0.081 7.03 5.43 13.3
12/31/2022 10:30:00 AM 2.4 36.32 0.081 7.03 5.76 13.29
12/31/2022 10:45:00 AM 2.44 36.392 0.081 7.04 5.67 13.3
12/31/2022 11:00:00 AM 2.49 36.482 0.081 7.05 5.73 13.31
12/31/2022 11:15:00 AM 2.56 36.608 0.08 7.05 5.8 13.31
12/31/2022 11:30:00 AM 2.6 36.68 0.08 7.06 6.04 13.31
12/31/2022 11:45:00 AM 2.65 36.77 0.08 7.06 6.14 13.3
12/31/2022 12:00:00 PM 2.69 36.842 0.08 7.07 6.34 13.28
12/31/2022 12:15:00 PM 2.72 36.896 0.08 7.07 6.68 13.25
12/31/2022 12:30:00 PM 2.76 36.968 0.08 7.06 6.84 13.24
12/31/2022 12:45:00 PM 2.8 37.04 0.08 7.08 6.25 13.22
12/31/2022 1:00:00 PM 2.83 37.094 0.08 7.07 7 13.19
12/31/2022 1:15:00 PM 2.85 37.13 0.08 7.08 7.37 13.17
12/31/2022 1:30:00 PM 2.87 37.166 0.08 7.08 7.13 13.15
12/31/2022 1:45:00 PM 2.89 37.202 0.08 7.08 7.27 13.14
12/31/2022 2:00:00 PM 2.92 37.256 0.08 7.08 7.65 13.12
12/31/2022 2:15:00 PM 2.93 37.274 0.08 7.08 8.04 13.11
12/31/2022 2:30:00 PM 2.93 37.274 0.08 7.08 8.35 13.1
12/31/2022 2:45:00 PM 2.93 37.274 0.079 7.08 9.15 13.09
12/31/2022 3:00:00 PM 2.92 37.256 0.079 7.08 9.03 13.07
12/31/2022 3:15:00 PM 2.91 37.238 0.079 7.07 10.78 13.06
12/31/2022 3:30:00 PM 2.89 37.202 0.079 7.08 10.49 13.05
12/31/2022 3:45:00 PM 2.87 37.166 0.079 7.07 10.4 13.04
12/31/2022 4:00:00 PM 2.85 37.13 0.079 7.06 11.15 13.03
12/31/2022 4:15:00 PM 2.82 37.076 0.079 7.07 12.44 13.02
12/31/2022 4:30:00 PM 2.79 37.022 0.079 7.06 12.66 13.02
12/31/2022 4:45:00 PM 2.77 36.986 0.079 7.05 12.43 13.02
12/31/2022 5:00:00 PM 2.75 36.95 0.079 7.05 13.49 13.01
12/31/2022 5:15:00 PM 2.73 36.914 0.079 7.05 12.83 13.01
12/31/2022 5:30:00 PM 2.72 36.896 0.079 7.05 12.57 13.01
12/31/2022 5:45:00 PM 2.71 36.878 0.08 7.04 13.18 13.01
12/31/2022 6:00:00 PM 2.7 36.86 0.08 7.04 15.24 13.02
12/31/2022 6:15:00 PM 2.68 36.824 0.08 7.04 17.49 13.02
12/31/2022 6:30:00 PM 2.67 36.806 0.08 7.04 16.06 13.02
12/31/2022 6:45:00 PM 2.65 36.77 0.08 7.04 12.51 13.03
12/31/2022 7:00:00 PM 2.64 36.752 0.079 7.04 16.32 13.03
12/31/2022 7:15:00 PM 2.63 36.734 0.079 7.04 16.96 13.03
12/31/2022 7:30:00 PM 2.61 36.698 0.079 7.04 16.39 13.04
12/31/2022 7:45:00 PM 2.58 36.644 0.079 7.04 17.08 13.05
12/31/2022 8:00:00 PM 2.56 36.608 0.079 7.04 19.96 13.05
12/31/2022 8:15:00 PM 2.53 36.554 0.078 7.04 17.38 13.07
12/31/2022 8:30:00 PM 2.5 36.5 0.078 7.04 17 13.07
12/31/2022 8:45:00 PM 2.48 36.464 0.078 7.04 18.72 13.08
12/31/2022 9:00:00 PM 2.45 36.41 0.078 7.03 16.87 13.09
12/31/2022 9:15:00 PM 2.43 36.374 0.078 7.03 19.74 13.11
12/31/2022 9:30:00 PM 2.4 36.32 0.078 7.03 26.74 13.12
12/31/2022 9:45:00 PM 2.38 36.284 0.078 7.03 20.11 13.12
12/31/2022 10:00:00 PM 2.38 36.284 0.077 7.02 19.5 13.13
12/31/2022 10:15:00 PM 2.37 36.266 0.077 7.02 19.13 13.13
12/31/2022 10:30:00 PM 2.39 36.302 0.077 7.02 19.76 13.13
12/31/2022 10:45:00 PM 2.41 36.338 0.077 7.02 17.97 13.12
12/31/2022 11:00:00 PM 2.43 36.374 0.077 7.02 18.9 13.12
12/31/2022 11:15:00 PM 2.46 36.428 0.077 7.02 21.52 13.11
12/31/2022 11:30:00 PM 2.48 36.464 0.077 7.02 19.23 13.1
12/31/2022 11:45:00 PM 2.49 36.482 0.077 7.02 21.68 13.1
1/1/2023 12:00:00 AM 2.53 36.554 0.077 7.02 18.58 13.08
1/1/2023 12:15:00 AM 2.55 36.59 0.077 7.02 17.54 13.08
1/1/2023 12:30:00 AM 2.56 36.608 0.077 7.02 18.27 13.07
1/1/2023 12:45:00 AM 2.57 36.626 0.077 7.02 16.87 13.07
1/1/2023 1:00:00 AM 2.57 36.626 0.077 7.01 18.76 13.06
1/1/2023 1:15:00 AM 2.58 36.644 0.077 7.01 17.6 13.06
1/1/2023 1:30:00 AM 2.6 36.68 0.077 7.01 17.25 13.06
1/1/2023 1:45:00 AM 2.62 36.716 0.077 7.01 16.49 13.05
1/1/2023 2:00:00 AM 2.64 36.752 0.077 7.01 16.26 13.05
1/1/2023 2:15:00 AM 2.66 36.788 0.077 7.01 16.41 13.05
1/1/2023 2:30:00 AM 2.67 36.806 0.077 7.01 17.94 13.04
1/1/2023 2:45:00 AM 2.68 36.824 0.077 7.01 16.24 13.05
1/1/2023 3:00:00 AM 2.68 36.824 0.077 7.02 15.71 13.04
1/1/2023 3:15:00 AM 2.68 36.824 0.077 7.02 16.17 13.04
1/1/2023 3:30:00 AM 2.67 36.806 0.076 7.02 14.18 13.05
1/1/2023 3:45:00 AM 2.66 36.788 0.076 7.02 14.35 13.04
1/1/2023 4:00:00 AM 2.65 36.77 0.076 7.02 13.62 13.05
1/1/2023 4:30:00 AM 2.62 36.716 0.076 7.01 12.94 13.06
1/1/2023 4:45:00 AM 2.61 36.698 0.076 7.01 13.52 13.06
1/1/2023 5:00:00 AM 2.59 36.662 0.075 7.01 13.3 13.07
1/1/2023 5:15:00 AM 2.58 36.644 0.075 7.01 13.3 13.08
1/1/2023 5:30:00 AM 2.57 36.626 0.075 7.01 12.13 13.08
1/1/2023 5:45:00 AM 2.57 36.626 0.075 7.01 12.01 13.09
1/1/2023 6:00:00 AM 2.57 36.626 0.075 7 12.29 13.1
1/1/2023 6:15:00 AM 2.55 36.59 0.075 7 11.49 13.11
1/1/2023 6:30:00 AM 2.54 36.572 0.075 7 12.09 13.11
1/1/2023 6:45:00 AM 2.53 36.554 0.075 7 10.95 13.12
1/1/2023 7:00:00 AM 2.53 36.554 0.075 7 10.61 13.13
1/1/2023 7:15:00 AM 2.53 36.554 0.075 7 10.5 13.13
1/1/2023 7:30:00 AM 2.53 36.554 0.075 7 10.06 13.13
1/1/2023 7:45:00 AM 2.54 36.572 0.075 7 10.58 13.13
1/1/2023 8:00:00 AM 2.55 36.59 0.075 7 9.74 13.14
1/1/2023 8:15:00 AM 2.56 36.608 0.076 7 9.69 13.14
1/1/2023 8:30:00 AM 2.58 36.644 0.076 7 10.34 13.15
1/1/2023 8:45:00 AM 2.6 36.68 0.076 7.01 9.29 13.16
1/1/2023 9:00:00 AM 2.63 36.734 0.076 7.01 8.95 13.17
1/1/2023 9:15:00 AM 2.67 36.806 0.076 7.02 8.73 13.19
1/1/2023 9:30:00 AM 2.72 36.896 0.076 7.03 9.05 13.2
1/1/2023 9:45:00 AM 2.76 36.968 0.076 7.04 9.06 13.21
1/1/2023 10:00:00 AM 2.81 37.058 0.076 7.04 8.89 13.2
1/1/2023 10:15:00 AM 2.84 37.112 0.076 7.04 8.32 13.19
1/1/2023 10:30:00 AM 2.89 37.202 0.076 7.05 8.34 13.19
1/1/2023 10:45:00 AM 2.95 37.31 0.076 7.05 8.38 13.18
1/1/2023 11:00:00 AM 3 37.4 0.076 7.06 8.37 13.18
1/1/2023 11:15:00 AM 3.05 37.49 0.076 7.06 7.89 13.16
1/1/2023 11:30:00 AM 3.12 37.616 0.076 7.06 8.34 13.15
1/1/2023 11:45:00 AM 3.2 37.76 0.075 7.06 8.54 13.14
1/1/2023 12:00:00 PM 3.34 38.012 0.075 7.08 8.78 13.11
1/1/2023 12:15:00 PM 3.4 38.12 0.075 7.07 8.87 13.09
1/1/2023 12:30:00 PM 3.43 38.174 0.075 7.08 9.82 13.07
1/1/2023 12:45:00 PM 3.5 38.3 0.075 7.08 9.58 13.05
1/1/2023 1:00:00 PM 3.56 38.408 0.075 7.08 8.57 13.03
1/1/2023 1:15:00 PM 3.57 38.426 0.075 7.09 9.18 13
1/1/2023 1:30:00 PM 3.58 38.444 0.075 7.09 9.26 12.99
1/1/2023 1:45:00 PM 3.61 38.498 0.075 7.08 9.2 12.97
1/1/2023 2:00:00 PM 3.65 38.57 0.075 7.09 8.93 12.96
1/1/2023 2:15:00 PM 3.7 38.66 0.075 7.09 9.25 12.95
1/1/2023 2:30:00 PM 3.71 38.678 0.075 7.09 8.93 12.92
1/1/2023 2:45:00 PM 3.73 38.714 0.075 7.09 9.91 12.9
1/1/2023 3:00:00 PM 3.75 38.75 0.075 7.08 9.86 12.9
1/1/2023 3:15:00 PM 3.77 38.786 0.075 7.09 9.67 12.9
1/1/2023 3:30:00 PM 3.75 38.75 0.075 7.09 9.72 12.89
1/1/2023 3:45:00 PM 3.72 38.696 0.075 7.08 9.81 12.87
1/1/2023 4:00:00 PM 3.69 38.642 0.075 7.08 9.77 12.86
1/1/2023 4:15:00 PM 3.66 38.588 0.075 7.07 10.55 12.84
1/1/2023 4:30:00 PM 3.63 38.534 0.075 7.06 9.93 12.83
1/1/2023 4:45:00 PM 3.6 38.48 0.075 7.05 9.61 12.82
1/1/2023 5:00:00 PM 3.57 38.426 0.075 7.05 9.4 12.8
1/1/2023 5:15:00 PM 3.54 38.372 0.075 7.04 9.56 12.8
1/1/2023 5:30:00 PM 3.52 38.336 0.075 7.03 9.23 12.8
1/1/2023 5:45:00 PM 3.49 38.282 0.075 7.02 9.37 12.8
1/1/2023 6:00:00 PM 3.47 38.246 0.075 7.02 8.95 12.8
1/1/2023 6:15:00 PM 3.45 38.21 0.075 7.02 9.67 12.81
1/1/2023 6:30:00 PM 3.43 38.174 0.075 7.01 8.9 12.81
1/1/2023 6:45:00 PM 3.42 38.156 0.075 7.01 8.97 12.82
1/1/2023 7:00:00 PM 3.4 38.12 0.075 7.01 8.76 12.83
1/1/2023 7:15:00 PM 3.39 38.102 0.075 7 9.74 12.84
1/1/2023 7:30:00 PM 3.38 38.084 0.075 7 9.72 12.84
1/1/2023 7:45:00 PM 3.37 38.066 0.075 7 8.79 12.84
1/1/2023 8:00:00 PM 3.36 38.048 0.074 7 8.25 12.84
1/1/2023 8:15:00 PM 3.35 38.03 0.075 7 8.98 12.86
1/1/2023 8:30:00 PM 3.35 38.03 0.074 6.99 8.68 12.85
1/1/2023 8:45:00 PM 3.34 38.012 0.074 6.99 8.98 12.86
1/1/2023 9:00:00 PM 3.33 37.994 0.074 6.99 8.92 12.86
1/1/2023 9:15:00 PM 3.31 37.958 0.074 6.99 8.11 12.86
1/1/2023 9:30:00 PM 3.29 37.922 0.074 6.99 8.12 12.87
1/1/2023 9:45:00 PM 3.28 37.904 0.074 6.99 8.27 12.87
1/1/2023 10:00:00 PM 3.27 37.886 0.074 6.99 7.96 12.89
1/1/2023 10:15:00 PM 3.26 37.868 0.074 6.98 7.39 12.89
1/1/2023 10:30:00 PM 3.25 37.85 0.074 6.98 7.91 12.89
1/1/2023 10:45:00 PM 3.25 37.85 0.074 6.98 8.12 12.89
1/1/2023 11:00:00 PM 3.25 37.85 0.074 6.98 7.53 12.89
1/1/2023 11:15:00 PM 3.24 37.832 0.074 6.98 7.82 12.89
1/1/2023 11:30:00 PM 3.24 37.832 0.074 6.98 7.77 12.9
1/1/2023 11:45:00 PM 3.24 37.832 0.074 6.98 7.39 12.89
1/2/2023 12:00:00 AM 3.24 37.832 0.074 6.98 7.28 12.9
1/2/2023 12:15:00 AM 3.24 37.832 0.074 6.98 7.18 12.9
1/2/2023 12:30:00 AM 3.24 37.832 0.074 6.98 7.39 12.89
1/2/2023 12:45:00 AM 3.24 37.832 0.074 6.98 6.79 12.89
1/2/2023 1:00:00 AM 3.23 37.814 0.074 6.97 7.28 12.89
1/2/2023 1:15:00 AM 3.22 37.796 0.074 6.98 7.14 12.89
1/2/2023 1:30:00 AM 3.22 37.796 0.074 6.97 7.31 12.89
1/2/2023 1:45:00 AM 3.21 37.778 0.074 6.97 7.11 12.9
1/2/2023 2:00:00 AM 3.21 37.778 0.074 6.97 7.18 12.9
1/2/2023 2:15:00 AM 3.19 37.742 0.074 6.97 6.65 12.91
1/2/2023 2:30:00 AM 3.18 37.724 0.074 6.97 7.2 12.91
1/2/2023 2:45:00 AM 3.18 37.724 0.074 6.97 7 12.91
1/2/2023 3:00:00 AM 3.18 37.724 0.074 6.97 7.55 12.92
1/2/2023 3:15:00 AM 3.18 37.724 0.074 6.97 6.46 12.91
1/2/2023 3:30:00 AM 3.18 37.724 0.074 6.97 6.68 12.92
1/2/2023 3:45:00 AM 3.18 37.724 0.074 6.97 7.44 12.92
1/2/2023 4:00:00 AM 3.18 37.724 0.074 6.97 6.55 12.93
1/2/2023 4:15:00 AM 3.18 37.724 0.074 6.97 7.1 12.93
1/2/2023 4:30:00 AM 3.18 37.724 0.074 6.96 7.11 12.93
1/2/2023 4:45:00 AM 3.18 37.724 0.074 6.97 7.16 12.93
1/2/2023 5:00:00 AM 3.19 37.742 0.074 6.96 7.61 12.92
1/2/2023 5:15:00 AM 3.19 37.742 0.074 6.96 6.68 12.93
1/2/2023 5:30:00 AM 3.19 37.742 0.074 6.96 6.82 12.92
1/2/2023 5:45:00 AM 3.2 37.76 0.074 6.96 6.84 12.92
1/2/2023 6:00:00 AM 3.2 37.76 0.074 6.96 6.8 12.92
1/2/2023 6:15:00 AM 3.21 37.778 0.074 6.96 7.01 12.92
1/2/2023 6:30:00 AM 3.21 37.778 0.074 6.96 6.89 12.92
1/2/2023 6:45:00 AM 3.22 37.796 0.074 6.96 7.12 12.91
1/2/2023 7:00:00 AM 3.22 37.796 0.074 6.96 6.56 12.91
1/2/2023 7:15:00 AM 3.23 37.814 0.074 6.96 6.65 12.92
1/2/2023 7:30:00 AM 3.24 37.832 0.074 6.96 7.96 12.92
1/2/2023 7:45:00 AM 3.24 37.832 0.074 6.96 7.33 12.92
1/2/2023 8:00:00 AM 3.25 37.85 0.074 6.96 6.77 12.92
1/2/2023 8:15:00 AM 3.26 37.868 0.074 6.97 6.63 12.93
1/2/2023 8:30:00 AM 3.27 37.886 0.074 6.97 6.53 12.96
1/2/2023 8:45:00 AM 3.29 37.922 0.074 6.98 6.98 12.98
1/2/2023 9:00:00 AM 3.32 37.976 0.074 6.98 6.79 13
1/2/2023 9:15:00 AM 3.34 38.012 0.074 6.99 6.52 13.02
1/2/2023 9:30:00 AM 3.39 38.102 0.074 7 6.21 13.04
1/2/2023 9:45:00 AM 3.43 38.174 0.074 7.01 6.67 13.05
1/2/2023 10:00:00 AM 3.48 38.264 0.074 7.01 6.21 13.05
1/2/2023 10:15:00 AM 3.53 38.354 0.074 7.02 6.03 13.05
1/2/2023 10:30:00 AM 3.61 38.498 0.074 7.03 6.09 13.04
1/2/2023 10:45:00 AM 3.7 38.66 0.074 7.04 5.96 13.03
1/2/2023 11:00:00 AM 3.79 38.822 0.074 7.05 5.87 13.01
1/2/2023 11:15:00 AM 3.9 39.02 0.073 7.05 6.06 12.98
1/2/2023 11:30:00 AM 3.98 39.164 0.073 7.06 6.51 12.96
1/2/2023 11:45:00 AM 4.07 39.326 0.073 7.07 6.91 12.93
1/2/2023 12:00:00 PM 4.17 39.506 0.073 7.07 7.3 12.91
1/2/2023 12:15:00 PM 4.24 39.632 0.073 7.08 8.07 12.88
1/2/2023 12:30:00 PM 4.35 39.83 0.073 7.08 8.4 12.86
1/2/2023 12:45:00 PM 4.52 40.136 0.073 7.08 8.6 12.82
1/2/2023 1:00:00 PM 4.65 40.37 0.073 7.09 8.58 12.79
1/2/2023 1:15:00 PM 4.73 40.514 0.073 7.08 8.43 12.76
1/2/2023 1:30:00 PM 4.8 40.64 0.073 7.1 9.75 12.71
1/2/2023 1:45:00 PM 4.83 40.694 0.073 7.1 9.56 12.69
1/2/2023 2:00:00 PM 4.85 40.73 0.073 7.09 10 12.67
1/2/2023 2:15:00 PM 4.86 40.748 0.073 7.09 10.72 12.65
1/2/2023 2:30:00 PM 4.84 40.712 0.073 7.09 9.85 12.62
1/2/2023 2:45:00 PM 4.81 40.658 0.073 7.09 9.87 12.61
1/2/2023 3:00:00 PM 4.76 40.568 0.074 7.08 9.76 12.59
1/2/2023 3:15:00 PM 4.69 40.442 0.074 7.08 9.28 12.57
1/2/2023 3:30:00 PM 4.66 40.388 0.074 7.07 8.8 12.57
1/2/2023 3:45:00 PM 4.62 40.316 0.074 7.07 9.42 12.56
1/2/2023 4:00:00 PM 4.59 40.262 0.074 7.06 9.14 12.56
1/2/2023 4:15:00 PM 4.55 40.19 0.074 7.05 9.42 12.56
1/2/2023 4:30:00 PM 4.52 40.136 0.074 7.05 9.91 12.56
1/2/2023 4:45:00 PM 4.47 40.046 0.074 7.04 9.02 12.55
1/2/2023 5:00:00 PM 4.42 39.956 0.074 7.03 9.72 12.54
1/2/2023 5:15:00 PM 4.37 39.866 0.074 7.03 8.91 12.54
1/2/2023 5:30:00 PM 4.31 39.758 0.074 7.02 8.38 12.54
1/2/2023 5:45:00 PM 4.26 39.668 0.074 7.01 8.9 12.55
1/2/2023 6:00:00 PM 4.22 39.596 0.075 7.01 8.77 12.56
1/2/2023 6:15:00 PM 4.18 39.524 0.075 7 8.37 12.57
1/2/2023 6:30:00 PM 4.13 39.434 0.075 7 8.77 12.59
1/2/2023 6:45:00 PM 4.09 39.362 0.074 7 8.13 12.6
1/2/2023 7:00:00 PM 4.05 39.29 0.074 7 8.35 12.62
1/2/2023 7:15:00 PM 4.01 39.218 0.074 6.99 8.18 12.64
1/2/2023 7:30:00 PM 3.96 39.128 0.074 6.99 7.83 12.65
1/2/2023 7:45:00 PM 3.92 39.056 0.074 6.99 7.7 12.67
1/2/2023 8:00:00 PM 3.88 38.984 0.074 6.98 7.55 12.69
1/2/2023 8:15:00 PM 3.85 38.93 0.074 6.98 7.43 12.69
1/2/2023 8:30:00 PM 3.82 38.876 0.075 6.98 7.09 12.7
1/2/2023 8:45:00 PM 3.79 38.822 0.075 6.98 7.85 12.72
1/2/2023 9:00:00 PM 3.76 38.768 0.075 6.98 7.97 12.72
1/2/2023 9:15:00 PM 3.73 38.714 0.075 6.98 7.77 12.73
1/2/2023 9:30:00 PM 3.69 38.642 0.075 6.98 7.1 12.74
1/2/2023 9:45:00 PM 3.66 38.588 0.075 6.97 7.08 12.75
1/2/2023 10:00:00 PM 3.63 38.534 0.075 6.97 6.83 12.76
1/2/2023 10:15:00 PM 3.6 38.48 0.075 6.98 8.82 12.77
1/2/2023 10:30:00 PM 3.58 38.444 0.075 6.97 7.99 12.78
1/2/2023 10:45:00 PM 3.55 38.39 0.075 6.97 7.61 12.78
1/2/2023 11:00:00 PM 3.53 38.354 0.075 6.97 7.13 12.79
1/2/2023 11:15:00 PM 3.51 38.318 0.075 6.97 7.18 12.8
1/2/2023 11:30:00 PM 3.49 38.282 0.075 6.97 6.53 12.8
1/2/2023 11:45:00 PM 3.47 38.246 0.075 6.97 6.6 12.82
1/3/2023 12:00:00 AM 3.46 38.228 0.076 6.97 6.57 12.83
1/3/2023 12:15:00 AM 3.46 38.228 0.076 6.97 6.6 12.83
1/3/2023 12:30:00 AM 3.47 38.246 0.076 6.97 6.16 12.83
1/3/2023 12:45:00 AM 3.47 38.246 0.075 6.97 6.33 12.82
1/3/2023 1:00:00 AM 3.48 38.264 0.076 6.97 6.56 12.82
1/3/2023 1:15:00 AM 3.48 38.264 0.076 6.97 6.74 12.82
1/3/2023 1:30:00 AM 3.49 38.282 0.076 6.97 6.82 12.82
1/3/2023 1:45:00 AM 3.49 38.282 0.076 6.97 6.65 12.8
1/3/2023 2:00:00 AM 3.51 38.318 0.076 6.97 6.49 12.81
1/3/2023 2:15:00 AM 3.52 38.336 0.076 6.97 6.52 12.81
1/3/2023 2:30:00 AM 3.53 38.354 0.076 6.97 6.17 12.8
1/3/2023 2:45:00 AM 3.54 38.372 0.076 6.97 6.34 12.79
1/3/2023 3:00:00 AM 3.55 38.39 0.076 6.97 6.07 12.79
1/3/2023 3:15:00 AM 3.57 38.426 0.076 6.98 5.99 12.79
1/3/2023 3:30:00 AM 3.58 38.444 0.076 6.98 6.33 12.78
1/3/2023 3:45:00 AM 3.59 38.462 0.076 6.98 6.69 12.77
1/3/2023 4:00:00 AM 3.61 38.498 0.076 6.98 5.93 12.77
1/3/2023 4:15:00 AM 3.62 38.516 0.076 6.98 5.84 12.76
1/3/2023 4:30:00 AM 3.64 38.552 0.076 6.97 5.82 12.76
1/3/2023 4:45:00 AM 3.65 38.57 0.076 6.98 6.03 12.75
1/3/2023 5:00:00 AM 3.66 38.588 0.076 6.98 5.95 12.74
1/3/2023 5:15:00 AM 3.67 38.606 0.076 6.98 5.92 12.73
1/3/2023 5:30:00 AM 3.68 38.624 0.076 6.98 6.63 12.73
1/3/2023 5:45:00 AM 3.69 38.642 0.076 6.98 6.2 12.71
1/3/2023 6:00:00 AM 3.71 38.678 0.076 6.98 6.01 12.71
1/3/2023 6:15:00 AM 3.72 38.696 0.076 6.98 6.54 12.7
1/3/2023 6:30:00 AM 3.73 38.714 0.076 6.98 5.92 12.69
1/3/2023 6:45:00 AM 3.74 38.732 0.076 6.98 5.87 12.69
1/3/2023 7:00:00 AM 3.75 38.75 0.076 6.98 5.62 12.68
1/3/2023 7:15:00 AM 3.76 38.768 0.076 6.98 5.82 12.68
1/3/2023 7:30:00 AM 3.77 38.786 0.076 6.98 5.75 12.67
1/3/2023 7:45:00 AM 3.78 38.804 0.076 6.98 5.91 12.67
1/3/2023 8:00:00 AM 3.79 38.822 0.076 6.98 5.5 12.66
1/3/2023 8:15:00 AM 3.81 38.858 0.076 6.98 5.71 12.66
1/3/2023 8:30:00 AM 3.83 38.894 0.076 6.98 5.61 12.67
1/3/2023 8:45:00 AM 3.84 38.912 0.076 6.99 5.98 12.67
1/3/2023 9:00:00 AM 3.86 38.948 0.076 6.98 5.77 12.67
1/3/2023 9:15:00 AM 3.87 38.966 0.076 6.98 5.97 12.68
1/3/2023 9:30:00 AM 3.89 39.002 0.076 6.99 10.11 12.67
1/3/2023 9:45:00 AM 3.91 39.038 0.076 6.99 12.32 12.67
1/3/2023 10:00:00 AM 3.93 39.074 0.076 6.99 14.4 12.68
1/3/2023 10:15:00 AM 3.95 39.11 0.076 7 15.16 12.68
1/3/2023 10:30:00 AM 3.98 39.164 0.076 7 15.01 12.68
1/3/2023 10:45:00 AM 4.02 39.236 0.076 7.01 15.19 12.69
1/3/2023 11:00:00 AM 4.07 39.326 0.076 7.01 16.01 12.69
1/3/2023 11:15:00 AM 4.11 39.398 0.075 7.01 18.32 12.68
1/3/2023 11:30:00 AM 4.16 39.488 0.075 7.03 18.91 12.67
1/3/2023 11:45:00 AM 4.22 39.596 0.075 7.04 19.34 12.64
1/3/2023 12:00:00 PM 4.28 39.704 0.075 7.04 19.09 12.61
1/3/2023 12:15:00 PM 4.34 39.812 0.075 7.04 30.35 12.58
1/3/2023 12:30:00 PM 4.39 39.902 0.074 7.04 33.69 12.55
1/3/2023 12:45:00 PM 4.44 39.992 0.075 7.04 40.89 12.53
1/3/2023 1:00:00 PM 4.47 40.046 0.075 7.04 58.07 12.5
1/3/2023 1:15:00 PM 4.48 40.064 0.075 7.04 56.09 12.49
1/3/2023 1:30:00 PM 4.47 40.046 0.075 7.04 60.97 12.47
1/3/2023 1:45:00 PM 4.45 40.01 0.075 7.03 68.46 12.46
1/3/2023 2:00:00 PM 4.42 39.956 0.075 7.03 71.26 12.47
1/3/2023 2:15:00 PM 4.4 39.92 0.074 7.03 72.37 12.47
1/3/2023 2:30:00 PM 4.39 39.902 0.074 7.02 68.61 12.47
1/3/2023 2:45:00 PM 4.4 39.92 0.074 7.01 67.58 12.47
1/3/2023 3:00:00 PM 4.41 39.938 0.074 7.01 64.97 12.46
1/3/2023 3:15:00 PM 4.43 39.974 0.073 7 70.77 12.46
1/3/2023 3:30:00 PM 4.44 39.992 0.073 7 65.76 12.46
1/3/2023 3:45:00 PM 4.46 40.028 0.072 6.99 61.44 12.45
1/3/2023 4:00:00 PM 4.47 40.046 0.072 6.99 55.2 12.44
1/3/2023 4:15:00 PM 4.48 40.064 0.071 6.98 51.08 12.43
1/3/2023 4:30:00 PM 4.5 40.1 0.071 6.98 44.36 12.42
1/3/2023 4:45:00 PM 4.52 40.136 0.071 6.97 51.7 12.41
1/3/2023 5:00:00 PM 4.54 40.172 0.07 6.97 40.05 12.4
1/3/2023 5:15:00 PM 4.56 40.208 0.07 6.97 37.1 12.39
1/3/2023 5:30:00 PM 4.57 40.226 0.069 6.96 43.36 12.39
1/3/2023 5:45:00 PM 4.58 40.244 0.069 6.96 26.31 12.39
1/3/2023 6:00:00 PM 4.6 40.28 0.069 6.96 34.47 12.37
1/3/2023 6:15:00 PM 4.61 40.298 0.069 6.95 33.1 12.37
1/3/2023 6:30:00 PM 4.62 40.316 0.069 6.96 31.82 12.37
1/3/2023 6:45:00 PM 4.64 40.352 0.069 6.95 28.01 12.36
1/3/2023 7:00:00 PM 4.65 40.37 0.069 6.95 39.13 12.35
1/3/2023 7:15:00 PM 4.66 40.388 0.069 6.95 27.65 12.35
1/3/2023 7:30:00 PM 4.66 40.388 0.069 6.95 27.7 12.35
1/3/2023 7:45:00 PM 4.67 40.406 0.069 6.94 28.44 12.34
1/3/2023 8:00:00 PM 4.69 40.442 0.07 6.94 23.29 12.34
1/3/2023 8:15:00 PM 4.7 40.46 0.07 6.94 23.45 12.33
1/3/2023 8:30:00 PM 4.72 40.496 0.07 6.94 24.72 12.32
1/3/2023 8:45:00 PM 4.74 40.532 0.07 6.95 24.92 12.31
1/3/2023 9:00:00 PM 4.76 40.568 0.07 6.95 22.51 12.31
1/3/2023 9:15:00 PM 4.78 40.604 0.071 6.95 22.55 12.31
1/3/2023 9:30:00 PM 4.79 40.622 0.071 6.95 20.14 12.29
1/3/2023 9:45:00 PM 4.8 40.64 0.071 6.95 19.06 12.29
1/3/2023 10:00:00 PM 4.81 40.658 0.071 6.95 19.92 12.28
1/3/2023 10:15:00 PM 4.81 40.658 0.071 6.95 19.46 12.28
1/3/2023 10:30:00 PM 4.82 40.676 0.071 6.95 19.5 12.27
1/3/2023 10:45:00 PM 4.83 40.694 0.072 6.95 22.91 12.27
1/3/2023 11:00:00 PM 4.83 40.694 0.072 6.95 20.29 12.28
1/3/2023 11:15:00 PM 4.83 40.694 0.072 6.95 25.99 12.27
1/3/2023 11:30:00 PM 4.84 40.712 0.072 6.95 17.67 12.26
1/3/2023 11:45:00 PM 4.84 40.712 0.073 6.94 18.1 12.26
1/4/2023 12:00:00 AM 4.85 40.73 0.073 6.95 17.18 12.25
1/4/2023 12:15:00 AM 4.86 40.748 0.073 6.94 16.87 12.25
1/4/2023 12:30:00 AM 4.88 40.784 0.073 6.94 16.34 12.25
1/4/2023 12:45:00 AM 4.9 40.82 0.073 6.94 17.28 12.25
1/4/2023 1:00:00 AM 4.91 40.838 0.073 6.94 26.74 12.23
1/4/2023 1:15:00 AM 4.92 40.856 0.074 6.94 23.14 12.23
1/4/2023 1:30:00 AM 4.93 40.874 0.074 6.94 20.53 12.23
1/4/2023 1:45:00 AM 4.95 40.91 0.074 6.94 25.44 12.22
1/4/2023 2:00:00 AM 4.97 40.946 0.074 6.94 18.07 12.22
1/4/2023 2:15:00 AM 4.99 40.982 0.074 6.95 17.1 12.21
1/4/2023 2:30:00 AM 5.01 41.018 0.074 6.95 18.34 12.21
1/4/2023 2:45:00 AM 5.03 41.054 0.074 6.94 18.01 12.21
1/4/2023 3:00:00 AM 5.05 41.09 0.074 6.95 18.74 12.2
1/4/2023 3:15:00 AM 5.07 41.126 0.074 6.95 18.2 12.19
1/4/2023 3:30:00 AM 5.09 41.162 0.074 6.95 17.58 12.19
1/4/2023 3:45:00 AM 5.1 41.18 0.074 6.95 17.57 12.18
1/4/2023 4:00:00 AM 5.12 41.216 0.074 6.95 15.37 12.18
1/4/2023 4:15:00 AM 5.13 41.234 0.074 6.95 16.68 12.17
1/4/2023 4:30:00 AM 5.14 41.252 0.074 6.95 17.04 12.17
1/4/2023 4:45:00 AM 5.15 41.27 0.074 6.95 15 12.17
1/4/2023 5:00:00 AM 5.16 41.288 0.074 6.95 15.55 12.16
1/4/2023 5:15:00 AM 5.17 41.306 0.074 6.95 14.77 12.16
1/4/2023 5:30:00 AM 5.18 41.324 0.074 6.95 13.96 12.15
1/4/2023 5:45:00 AM 5.19 41.342 0.074 6.95 13.1 12.15
1/4/2023 6:00:00 AM 5.19 41.342 0.074 6.95 13.75 12.15
1/4/2023 6:15:00 AM 5.17 41.306 0.074 6.94 13.83 12.15
1/4/2023 6:30:00 AM 5.18 41.324 0.074 6.95 13.23 12.16
1/4/2023 6:45:00 AM 5.19 41.342 0.074 6.94 13.78 12.15
1/4/2023 7:00:00 AM 5.19 41.342 0.074 6.94 12.59 12.15
1/4/2023 7:15:00 AM 5.2 41.36 0.074 6.94 13.11 12.16
1/4/2023 7:30:00 AM 5.19 41.342 0.074 6.94 12.31 12.16
1/4/2023 7:45:00 AM 5.18 41.324 0.074 6.94 12.4 12.17
1/4/2023 8:00:00 AM 5.17 41.306 0.074 6.94 12.51 12.17
1/4/2023 8:15:00 AM 5.16 41.288 0.075 6.94 11.53 12.19
1/4/2023 8:30:00 AM 5.17 41.306 0.075 6.95 12.16 12.21
1/4/2023 8:45:00 AM 5.19 41.342 0.075 6.95 11.83 12.23
1/4/2023 9:00:00 AM 5.21 41.378 0.075 6.96 11.34 12.26
1/4/2023 9:15:00 AM 5.25 41.45 0.074 6.96 10.47 12.27
1/4/2023 9:30:00 AM 5.29 41.522 0.074 6.98 10.79 12.29
1/4/2023 9:45:00 AM 5.33 41.594 0.074 6.98 11.93 12.29
1/4/2023 10:00:00 AM 5.38 41.684 0.074 6.99 10.27 12.3
1/4/2023 10:15:00 AM 5.44 41.792 0.074 7 10.42 12.3
1/4/2023 10:30:00 AM 5.5 41.9 0.074 7 10.25 12.29
1/4/2023 10:45:00 AM 5.57 42.026 0.074 7.02 10.22 12.29
1/4/2023 11:00:00 AM 5.64 42.152 0.074 7.02 10.65 12.27
1/4/2023 11:15:00 AM 5.71 42.278 0.074 7.03 10.11 12.26
1/4/2023 11:30:00 AM 5.78 42.404 0.074 7.04 10.11 12.24
1/4/2023 11:45:00 AM 5.85 42.53 0.074 7.04 9.79 12.22
1/4/2023 12:00:00 PM 5.91 42.638 0.074 7.05 9.37 12.2
1/4/2023 12:15:00 PM 5.97 42.746 0.074 7.05 8.62 12.18
1/4/2023 12:30:00 PM 6.03 42.854 0.074 7.06 8.98 12.16
1/4/2023 12:45:00 PM 6.09 42.962 0.074 7.05 9.22 12.14
1/4/2023 1:00:00 PM 6.13 43.034 0.074 7.06 11.44 12.11
1/4/2023 1:15:00 PM 6.18 43.124 0.074 7.05 10.83 12.09
1/4/2023 1:30:00 PM 6.23 43.214 0.074 7.05 10.63 12.07
1/4/2023 1:45:00 PM 6.26 43.268 0.074 7.06 10.93 12.05
1/4/2023 2:00:00 PM 6.3 43.34 0.074 7.05 9.9 12.03
1/4/2023 2:15:00 PM 6.34 43.412 0.074 7.05 10.38 12.01
1/4/2023 2:30:00 PM 6.37 43.466 0.074 7.05 10.04 11.99
1/4/2023 2:45:00 PM 6.39 43.502 0.074 7.05 9.56 11.98
1/4/2023 3:00:00 PM 6.4 43.52 0.074 7.05 9.77 11.96
1/4/2023 3:15:00 PM 6.41 43.538 0.074 7.05 8.93 11.94
1/4/2023 3:30:00 PM 6.41 43.538 0.074 7.04 9.48 11.92
1/4/2023 3:45:00 PM 6.4 43.52 0.074 7.03 14.19 11.89
1/4/2023 4:00:00 PM 6.39 43.502 0.074 7.02 15.34 11.86
1/4/2023 4:15:00 PM 6.38 43.484 0.074 7.01 14.55 11.84
1/4/2023 4:30:00 PM 6.37 43.466 0.074 7 13.53 11.82
1/4/2023 4:45:00 PM 6.36 43.448 0.073 6.99 12.39 11.8
1/4/2023 5:00:00 PM 6.35 43.43 0.074 6.99 12.35 11.78
1/4/2023 5:15:00 PM 6.33 43.394 0.074 6.98 10.88 11.77
1/4/2023 5:30:00 PM 6.32 43.376 0.074 6.98 11.93 11.77
1/4/2023 5:45:00 PM 6.3 43.34 0.074 6.97 9.96 11.77
1/4/2023 6:00:00 PM 6.28 43.304 0.074 6.96 10.51 11.77
1/4/2023 6:15:00 PM 6.27 43.286 0.074 6.96 10.49 11.77
1/4/2023 6:30:00 PM 6.26 43.268 0.074 6.95 9.46 11.77
1/4/2023 6:45:00 PM 6.24 43.232 0.074 6.95 12.15 11.78
1/4/2023 7:00:00 PM 6.22 43.196 0.074 6.95 11.54 11.78
1/4/2023 7:15:00 PM 6.21 43.178 0.074 6.95 12.35 11.78
1/4/2023 7:30:00 PM 6.2 43.16 0.074 6.95 11.84 11.79
1/4/2023 7:45:00 PM 6.19 43.142 0.074 6.94 10.66 11.79
1/4/2023 8:00:00 PM 6.19 43.142 0.074 6.94 10.16 11.79
1/4/2023 8:15:00 PM 6.18 43.124 0.074 6.95 9.65 11.79
1/4/2023 8:30:00 PM 6.19 43.142 0.074 6.95 9.33 11.79
1/4/2023 8:45:00 PM 6.19 43.142 0.074 6.95 9.78 11.79
1/4/2023 9:00:00 PM 6.2 43.16 0.074 6.96 8.68 11.79
1/4/2023 9:15:00 PM 6.22 43.196 0.074 6.95 8.76 11.78
1/4/2023 9:30:00 PM 6.23 43.214 0.074 6.95 8.41 11.78
1/4/2023 9:45:00 PM 6.24 43.232 0.074 6.96 9.6 11.77
1/4/2023 10:00:00 PM 6.24 43.232 0.074 6.95 9 11.78
1/4/2023 10:15:00 PM 6.25 43.25 0.074 6.96 9.52 11.77
1/4/2023 10:30:00 PM 6.27 43.286 0.074 6.96 9.2 11.77
1/4/2023 10:45:00 PM 6.27 43.286 0.074 6.96 8.72 11.76
1/4/2023 11:00:00 PM 6.29 43.322 0.074 6.96 8.61 11.76
1/4/2023 11:15:00 PM 6.3 43.34 0.074 6.95 10.72 11.76
1/4/2023 11:30:00 PM 6.3 43.34 0.074 6.95 8.8 11.76
1/4/2023 11:45:00 PM 6.3 43.34 0.074 6.95 8.98 11.76
1/5/2023 12:00:00 AM 6.31 43.358 0.074 6.96 8.54 11.75
1/5/2023 12:15:00 AM 6.32 43.376 0.074 6.96 8.5 11.75
1/5/2023 12:30:00 AM 6.32 43.376 0.074 6.96 8.76 11.75
1/5/2023 12:45:00 AM 6.32 43.376 0.074 6.96 8.03 11.75
1/5/2023 1:00:00 AM 6.32 43.376 0.074 6.96 9.09 11.75
1/5/2023 1:15:00 AM 6.31 43.358 0.074 6.96 8.19 11.76
1/5/2023 1:30:00 AM 6.29 43.322 0.074 6.95 8.52 11.76
1/5/2023 1:45:00 AM 6.28 43.304 0.074 6.95 9.84 11.76
1/5/2023 2:00:00 AM 6.28 43.304 0.074 6.95 8.37 11.77
1/5/2023 2:15:00 AM 6.26 43.268 0.074 6.95 8.93 11.77
1/5/2023 2:30:00 AM 6.24 43.232 0.074 6.95 8.56 11.78
1/5/2023 2:45:00 AM 6.22 43.196 0.074 6.95 8.43 11.79
1/5/2023 3:00:00 AM 6.21 43.178 0.074 6.96 8.33 11.8
1/5/2023 3:15:00 AM 6.17 43.106 0.074 6.96 8.48 11.81
1/5/2023 3:30:00 AM 6.13 43.034 0.074 6.96 8 11.82
1/5/2023 3:45:00 AM 6.08 42.944 0.074 6.96 7.69 11.84
1/5/2023 4:00:00 AM 6.03 42.854 0.074 6.96 8.24 11.85
1/5/2023 4:15:00 AM 5.99 42.782 0.074 6.96 7.92 11.87
1/5/2023 4:30:00 AM 5.95 42.71 0.074 6.96 7.68 11.88
1/5/2023 4:45:00 AM 5.9 42.62 0.074 6.95 7.49 11.9
1/5/2023 5:00:00 AM 5.85 42.53 0.074 6.96 7.72 11.92
1/5/2023 5:15:00 AM 5.8 42.44 0.074 6.96 7.24 11.93
1/5/2023 5:30:00 AM 5.75 42.35 0.074 6.96 7.32 11.95
1/5/2023 5:45:00 AM 5.7 42.26 0.074 6.95 7.18 11.97
1/5/2023 6:00:00 AM 5.65 42.17 0.074 6.95 6.66 11.99
1/5/2023 6:15:00 AM 5.61 42.098 0.074 6.95 6.87 12
1/5/2023 6:30:00 AM 5.56 42.008 0.074 6.95 6.71 12.02
1/5/2023 6:45:00 AM 5.51 41.918 0.074 6.94 7.16 12.04
1/5/2023 7:00:00 AM 5.46 41.828 0.074 6.95 6.89 12.05
1/5/2023 7:15:00 AM 5.41 41.738 0.074 6.95 6.78 12.07
1/5/2023 7:30:00 AM 5.36 41.648 0.074 6.95 6.78 12.09
1/5/2023 7:45:00 AM 5.31 41.558 0.074 6.95 6.44 12.1
1/5/2023 8:00:00 AM 5.25 41.45 0.074 6.95 6.57 12.13
1/5/2023 8:15:00 AM 5.2 41.36 0.074 6.96 6.91 12.16
1/5/2023 8:30:00 AM 5.16 41.288 0.074 6.96 6.33 12.19
1/5/2023 8:45:00 AM 5.13 41.234 0.074 6.97 6.05 12.23
1/5/2023 9:00:00 AM 5.11 41.198 0.074 6.97 6.17 12.27
1/5/2023 9:15:00 AM 5.11 41.198 0.074 6.98 6.34 12.32
1/5/2023 9:30:00 AM 5.1 41.18 0.074 7 6.68 12.36
1/5/2023 9:45:00 AM 5.12 41.216 0.074 7.01 6.19 12.4
1/5/2023 10:00:00 AM 5.14 41.252 0.074 7.01 6.17 12.43
1/5/2023 10:15:00 AM 5.16 41.288 0.074 7.02 5.63 12.44
1/5/2023 10:30:00 AM 5.19 41.342 0.074 7.03 5.58 12.43
1/5/2023 10:45:00 AM 5.23 41.414 0.074 7.03 5.57 12.43
1/5/2023 11:00:00 AM 5.28 41.504 0.074 7.04 5.81 12.42
1/5/2023 11:15:00 AM 5.36 41.648 0.074 7.05 5.51 12.42
1/5/2023 11:30:00 AM 5.46 41.828 0.074 7.06 5.6 12.41
1/5/2023 11:45:00 AM 5.54 41.972 0.074 7.06 5.6 12.4
1/5/2023 12:00:00 PM 5.61 42.098 0.074 7.07 5.77 12.37
1/5/2023 12:15:00 PM 5.69 42.242 0.074 7.07 5.4 12.35
1/5/2023 12:30:00 PM 5.77 42.386 0.074 7.07 5.57 12.33
1/5/2023 12:45:00 PM 5.84 42.512 0.074 7.08 5.67 12.31
1/5/2023 1:00:00 PM 5.9 42.62 0.074 7.08 5.22 12.29
1/5/2023 1:15:00 PM 5.96 42.728 0.074 7.09 5.11 12.27
1/5/2023 1:30:00 PM 6.01 42.818 0.074 7.09 5.07 12.26
1/5/2023 1:45:00 PM 6.04 42.872 0.074 7.09 5.38 12.24
1/5/2023 2:00:00 PM 6.06 42.908 0.074 7.09 5.64 12.22
1/5/2023 2:15:00 PM 6.08 42.944 0.074 7.09 5.89 12.21
1/5/2023 2:30:00 PM 6.08 42.944 0.074 7.09 5.57 12.19
1/5/2023 2:45:00 PM 6.08 42.944 0.074 7.09 5.65 12.18
1/5/2023 3:00:00 PM 6.07 42.926 0.074 7.09 5.56 12.16
1/5/2023 3:15:00 PM 6.03 42.854 0.074 7.08 5.25 12.14
1/5/2023 3:30:00 PM 5.98 42.764 0.074 7.08 5.57 12.13
1/5/2023 3:45:00 PM 5.95 42.71 0.074 7.07 5.68 12.12
1/5/2023 4:00:00 PM 5.92 42.656 0.074 7.06 5.54 12.1
1/5/2023 4:15:00 PM 5.88 42.584 0.074 7.05 5.34 12.07
1/5/2023 4:30:00 PM 5.83 42.494 0.074 7.04 5.22 12.05
1/5/2023 4:45:00 PM 5.8 42.44 0.074 7.03 5.5 12.03
1/5/2023 5:00:00 PM 5.76 42.368 0.074 7.02 5.35 12.02
1/5/2023 5:15:00 PM 5.73 42.314 0.074 7.01 5.6 12
1/5/2023 5:30:00 PM 5.69 42.242 0.074 7 5.31 12
1/5/2023 5:45:00 PM 5.64 42.152 0.074 6.99 5.55 12
1/5/2023 6:00:00 PM 5.6 42.08 0.074 6.99 5.39 12.01
1/5/2023 6:15:00 PM 5.55 41.99 0.074 6.98 5.23 12.02
1/5/2023 6:30:00 PM 5.5 41.9 0.074 6.98 5.59 12.04
1/5/2023 6:45:00 PM 5.46 41.828 0.074 6.98 5.94 12.05
1/5/2023 7:00:00 PM 5.41 41.738 0.074 6.97 5.65 12.06
1/5/2023 7:15:00 PM 5.35 41.63 0.074 6.97 5.41 12.07
1/5/2023 7:30:00 PM 5.29 41.522 0.074 6.97 5.65 12.1
1/5/2023 7:45:00 PM 5.24 41.432 0.074 6.97 5.55 12.11
1/5/2023 8:00:00 PM 5.18 41.324 0.074 6.97 5.5 12.13
1/5/2023 8:15:00 PM 5.14 41.252 0.075 6.97 5.53 12.15
1/5/2023 8:30:00 PM 5.08 41.144 0.075 6.96 5.39 12.17
1/5/2023 8:45:00 PM 5.05 41.09 0.075 6.96 5.02 12.19
1/5/2023 9:00:00 PM 5.02 41.036 0.075 6.96 5.36 12.19
1/5/2023 9:15:00 PM 4.98 40.964 0.075 6.96 5.32 12.21
1/5/2023 9:30:00 PM 4.95 40.91 0.075 6.96 5.26 12.22
1/5/2023 9:45:00 PM 4.92 40.856 0.075 6.96 5.47 12.23
1/5/2023 10:00:00 PM 4.89 40.802 0.075 6.96 5.07 12.24
1/5/2023 10:15:00 PM 4.86 40.748 0.075 6.96 5.08 12.26
1/5/2023 10:30:00 PM 4.84 40.712 0.075 6.96 5.71 12.26
1/5/2023 10:45:00 PM 4.81 40.658 0.075 6.96 5.38 12.27
1/5/2023 11:00:00 PM 4.79 40.622 0.075 6.96 5.32 12.27
1/5/2023 11:15:00 PM 4.76 40.568 0.075 6.96 5.18 12.28
1/5/2023 11:30:00 PM 4.73 40.514 0.075 6.96 5.06 12.29
1/5/2023 11:45:00 PM 4.71 40.478 0.075 6.96 5.2 12.3
1/6/2023 12:00:00 AM 4.68 40.424 0.075 6.96 5.21 12.31
1/6/2023 12:15:00 AM 4.66 40.388 0.075 6.95 5.16 12.31
1/6/2023 12:30:00 AM 4.65 40.37 0.076 6.95 5.29 12.32
1/6/2023 12:45:00 AM 4.63 40.334 0.076 6.96 5.2 12.33
1/6/2023 1:00:00 AM 4.61 40.298 0.076 6.95 5.02 12.33
1/6/2023 1:15:00 AM 4.59 40.262 0.076 6.96 4.88 12.33
1/6/2023 1:30:00 AM 4.57 40.226 0.076 6.96 5.08 12.34
1/6/2023 1:45:00 AM 4.56 40.208 0.076 6.96 5.02 12.34
1/6/2023 2:00:00 AM 4.54 40.172 0.076 6.95 4.99 12.35
1/6/2023 2:15:00 AM 4.52 40.136 0.076 6.96 5.19 12.35
1/6/2023 2:30:00 AM 4.5 40.1 0.076 6.95 5 12.35
1/6/2023 2:45:00 AM 4.48 40.064 0.076 6.95 4.98 12.36
1/6/2023 3:00:00 AM 4.46 40.028 0.076 6.96 4.9 12.37
1/6/2023 3:15:00 AM 4.44 39.992 0.076 6.96 4.9 12.38
1/6/2023 3:30:00 AM 4.42 39.956 0.076 6.95 4.89 12.39
1/6/2023 3:45:00 AM 4.4 39.92 0.076 6.96 5.21 12.39
1/6/2023 4:00:00 AM 4.38 39.884 0.076 6.95 4.92 12.4
1/6/2023 4:15:00 AM 4.37 39.866 0.076 6.95 5.02 12.4
1/6/2023 4:30:00 AM 4.35 39.83 0.076 6.95 4.92 12.41
1/6/2023 4:45:00 AM 4.33 39.794 0.076 6.95 5.21 12.42
1/6/2023 5:00:00 AM 4.31 39.758 0.076 6.95 4.86 12.42
1/6/2023 5:15:00 AM 4.3 39.74 0.076 6.95 4.96 12.43
1/6/2023 5:30:00 AM 4.29 39.722 0.076 6.95 4.66 12.43
1/6/2023 5:45:00 AM 4.27 39.686 0.076 6.95 4.77 12.44
1/6/2023 6:00:00 AM 4.25 39.65 0.076 6.95 4.86 12.45
1/6/2023 6:15:00 AM 4.23 39.614 0.076 6.95 4.8 12.45
1/6/2023 6:30:00 AM 4.2 39.56 0.076 6.95 6.09 12.45
1/6/2023 6:45:00 AM 4.16 39.488 0.076 6.95 4.71 12.46
1/6/2023 7:00:00 AM 4.13 39.434 0.076 6.95 4.77 12.47
1/6/2023 7:15:00 AM 4.1 39.38 0.076 6.95 4.95 12.48
1/6/2023 7:30:00 AM 4.08 39.344 0.076 6.95 4.81 12.49
1/6/2023 7:45:00 AM 4.06 39.308 0.076 6.95 5.41 12.51
1/6/2023 8:00:00 AM 4.04 39.272 0.076 6.95 4.49 12.53
1/6/2023 8:15:00 AM 4.04 39.272 0.076 6.95 4.58 12.55
1/6/2023 8:30:00 AM 4.04 39.272 0.076 6.96 4.43 12.59
1/6/2023 8:45:00 AM 4.05 39.29 0.076 6.97 4.29 12.63
1/6/2023 9:00:00 AM 4.06 39.308 0.076 6.98 4.33 12.67
1/6/2023 9:15:00 AM 4.08 39.344 0.076 6.99 4.39 12.7
1/6/2023 9:30:00 AM 4.1 39.38 0.076 7 4.2 12.73
1/6/2023 9:45:00 AM 4.13 39.434 0.076 7.01 4.22 12.75
1/6/2023 10:00:00 AM 4.17 39.506 0.076 7.01 4.54 12.77
1/6/2023 10:15:00 AM 4.22 39.596 0.076 7.03 4.42 12.78
1/6/2023 10:30:00 AM 4.28 39.704 0.076 7.04 4.33 12.79
1/6/2023 10:45:00 AM 4.33 39.794 0.076 7.05 4.16 12.79
1/6/2023 11:00:00 AM 4.39 39.902 0.076 7.06 4.09 12.79
1/6/2023 11:15:00 AM 4.44 39.992 0.075 7.07 3.94 12.77
1/6/2023 11:30:00 AM 4.48 40.064 0.075 7.08 4.02 12.75
1/6/2023 11:45:00 AM 4.51 40.118 0.075 7.08 4.5 12.72
1/6/2023 12:00:00 PM 4.54 40.172 0.075 7.08 4.39 12.69
1/6/2023 12:15:00 PM 4.56 40.208 0.075 7.08 5.51 12.68
1/6/2023 12:30:00 PM 4.6 40.28 0.075 7.09 5.46 12.67
1/6/2023 12:45:00 PM 4.64 40.352 0.075 7.08 5.91 12.68
1/6/2023 1:00:00 PM 4.67 40.406 0.075 7.09 5.35 12.67
1/6/2023 1:15:00 PM 4.7 40.46 0.074 7.09 5.21 12.67
1/6/2023 1:30:00 PM 4.73 40.514 0.074 7.09 4.83 12.66
1/6/2023 1:45:00 PM 4.75 40.55 0.074 7.1 4.87 12.65
1/6/2023 2:00:00 PM 4.78 40.604 0.074 7.1 5.07 12.64
1/6/2023 2:15:00 PM 4.78 40.604 0.074 7.1 5.17 12.63
1/6/2023 2:30:00 PM 4.82 40.676 0.074 7.1 5.07 12.63
1/6/2023 2:45:00 PM 4.84 40.712 0.074 7.11 4.7 12.64
1/6/2023 3:00:00 PM 4.84 40.712 0.074 7.1 4.51 12.62
1/6/2023 3:15:00 PM 4.84 40.712 0.074 7.1 4.57 12.6
1/6/2023 3:30:00 PM 4.83 40.694 0.074 7.1 4.47 12.59
1/6/2023 3:45:00 PM 4.82 40.676 0.074 7.09 4.8 12.57
1/6/2023 4:00:00 PM 4.8 40.64 0.074 7.08 4.53 12.55
1/6/2023 4:15:00 PM 4.77 40.586 0.074 7.08 4.7 12.52
1/6/2023 4:30:00 PM 4.74 40.532 0.074 7.07 4.78 12.49
1/6/2023 4:45:00 PM 4.72 40.496 0.074 7.05 4.9 12.45
1/6/2023 5:00:00 PM 4.69 40.442 0.074 7.05 4.96 12.43
1/6/2023 5:15:00 PM 4.63 40.334 0.074 7.03 4.68 12.41
1/6/2023 5:30:00 PM 4.58 40.244 0.074 7.02 5.11 12.41
1/6/2023 5:45:00 PM 4.58 40.244 0.075 7.02 4.79 12.41
1/6/2023 6:00:00 PM 4.56 40.208 0.075 7.01 4.89 12.4
1/6/2023 6:15:00 PM 4.53 40.154 0.075 7.01 4.79 12.41
1/6/2023 6:30:00 PM 4.5 40.1 0.075 7 4.75 12.42
1/6/2023 6:45:00 PM 4.48 40.064 0.075 7 4.86 12.43
1/6/2023 7:00:00 PM 4.44 39.992 0.075 7 4.75 12.44
1/6/2023 7:15:00 PM 4.41 39.938 0.075 6.99 4.75 12.46
1/6/2023 7:30:00 PM 4.37 39.866 0.075 6.99 4.71 12.46
1/6/2023 7:45:00 PM 4.34 39.812 0.075 6.99 4.92 12.48
1/6/2023 8:00:00 PM 4.3 39.74 0.075 6.99 4.52 12.49
1/6/2023 8:15:00 PM 4.27 39.686 0.075 6.99 4.47 12.5
1/6/2023 8:30:00 PM 4.24 39.632 0.075 6.99 4.43 12.51
1/6/2023 8:45:00 PM 4.22 39.596 0.075 6.99 4.53 12.53
1/6/2023 9:00:00 PM 4.19 39.542 0.075 6.98 4.85 12.54
1/6/2023 9:15:00 PM 4.17 39.506 0.075 6.99 5.03 12.54
1/6/2023 9:30:00 PM 4.15 39.47 0.075 6.99 4.49 12.55
1/6/2023 9:45:00 PM 4.13 39.434 0.075 6.98 4.99 12.56
1/6/2023 10:00:00 PM 4.11 39.398 0.075 6.98 4.7 12.56
1/6/2023 10:15:00 PM 4.09 39.362 0.076 6.98 4.88 12.58
1/6/2023 10:30:00 PM 4.07 39.326 0.076 6.98 4.84 12.58
1/6/2023 10:45:00 PM 4.05 39.29 0.076 6.98 5.01 12.59
1/6/2023 11:00:00 PM 4.03 39.254 0.076 6.98 4.83 12.59
1/6/2023 11:15:00 PM 4.02 39.236 0.076 6.98 4.62 12.59
1/6/2023 11:30:00 PM 4.01 39.218 0.077 6.98 4.4 12.6
1/6/2023 11:45:00 PM 3.99 39.182 0.077 6.98 4.57 12.6
1/7/2023 12:00:00 AM 3.98 39.164 0.077 6.98 4.52 12.61
1/7/2023 12:15:00 AM 3.97 39.146 0.077 6.98 4.57 12.61
1/7/2023 12:30:00 AM 3.96 39.128 0.077 6.98 4.59 12.62
1/7/2023 12:45:00 AM 3.95 39.11 0.077 6.98 4.33 12.62
1/7/2023 1:00:00 AM 3.94 39.092 0.077 6.98 4.39 12.62
1/7/2023 1:15:00 AM 3.93 39.074 0.078 6.98 4.53 12.62
1/7/2023 1:30:00 AM 3.92 39.056 0.077 6.98 4.55 12.63
1/7/2023 1:45:00 AM 3.91 39.038 0.078 6.98 4.55 12.64
1/7/2023 2:00:00 AM 3.9 39.02 0.078 6.98 4.24 12.63
1/7/2023 2:15:00 AM 3.89 39.002 0.078 6.98 4.34 12.64
1/7/2023 2:30:00 AM 3.88 38.984 0.078 6.98 4.42 12.63
1/7/2023 2:45:00 AM 3.87 38.966 0.078 6.98 4.48 12.64
1/7/2023 3:00:00 AM 3.86 38.948 0.078 6.98 4.27 12.65
1/7/2023 3:15:00 AM 3.85 38.93 0.077 6.98 4.15 12.65
1/7/2023 3:30:00 AM 3.84 38.912 0.077 6.98 4.22 12.65
1/7/2023 3:45:00 AM 3.84 38.912 0.077 6.98 4.26 12.65
1/7/2023 4:00:00 AM 3.83 38.894 0.078 6.98 4.34 12.65
1/7/2023 4:15:00 AM 3.81 38.858 0.077 6.98 4.37 12.66
1/7/2023 4:30:00 AM 3.8 38.84 0.077 6.97 4.29 12.66
1/7/2023 4:45:00 AM 3.79 38.822 0.077 6.98 4.5 12.66
1/7/2023 5:00:00 AM 3.78 38.804 0.077 6.98 4.14 12.67
1/7/2023 5:15:00 AM 3.77 38.786 0.077 6.98 4.05 12.68
1/7/2023 5:30:00 AM 3.76 38.768 0.077 6.98 4.08 12.68
1/7/2023 5:45:00 AM 3.75 38.75 0.077 6.98 4.24 12.68
1/7/2023 6:00:00 AM 3.73 38.714 0.077 6.98 4.22 12.68
1/7/2023 6:15:00 AM 3.72 38.696 0.077 6.98 4.07 12.69
1/7/2023 6:30:00 AM 3.71 38.678 0.077 6.98 4.05 12.69
1/7/2023 6:45:00 AM 3.7 38.66 0.077 6.98 3.93 12.7
1/7/2023 7:00:00 AM 3.69 38.642 0.077 6.98 3.95 12.7
1/7/2023 7:15:00 AM 3.68 38.624 0.078 6.97 3.95 12.71
1/7/2023 7:30:00 AM 3.67 38.606 0.077 6.98 3.99 12.71
1/7/2023 7:45:00 AM 3.66 38.588 0.077 6.98 3.9 12.72
1/7/2023 8:00:00 AM 3.65 38.57 0.077 6.98 4.03 12.74
1/7/2023 8:15:00 AM 3.65 38.57 0.077 6.98 3.79 12.75
1/7/2023 8:30:00 AM 3.65 38.57 0.077 6.98 3.77 12.76
1/7/2023 8:45:00 AM 3.65 38.57 0.077 6.98 3.91 12.78
1/7/2023 9:00:00 AM 3.65 38.57 0.077 6.99 3.76 12.81
1/7/2023 9:15:00 AM 3.66 38.588 0.077 7 3.85 12.84
1/7/2023 9:30:00 AM 3.67 38.606 0.077 7.01 3.73 12.88
1/7/2023 9:45:00 AM 3.69 38.642 0.077 7.02 3.76 12.9
1/7/2023 10:00:00 AM 3.71 38.678 0.077 7.02 3.87 12.93
1/7/2023 10:15:00 AM 3.74 38.732 0.077 7.03 3.64 12.96
1/7/2023 10:30:00 AM 3.78 38.804 0.077 7.04 3.68 12.98
1/7/2023 10:45:00 AM 3.81 38.858 0.077 7.06 3.61 13
1/7/2023 11:00:00 AM 3.84 38.912 0.077 7.06 3.61 13
1/7/2023 11:15:00 AM 3.87 38.966 0.077 7.07 3.41 13.01
1/7/2023 11:30:00 AM 3.91 39.038 0.077 7.08 3.58 13.01
1/7/2023 11:45:00 AM 3.94 39.092 0.077 7.09 3.54 13.01
1/7/2023 12:00:00 PM 3.96 39.128 0.077 7.09 3.64 13
1/7/2023 12:15:00 PM 3.99 39.182 0.077 7.1 3.56 12.99
1/7/2023 12:30:00 PM 4.01 39.218 0.076 7.1 3.53 12.97
1/7/2023 12:45:00 PM 4.07 39.326 0.076 7.1 3.5 12.98
1/7/2023 1:00:00 PM 4.1 39.38 0.076 7.1 3.46 12.97
1/7/2023 1:15:00 PM 4.15 39.47 0.077 7.11 3.53 12.96
1/7/2023 1:30:00 PM 4.18 39.524 0.077 7.11 3.55 12.94
1/7/2023 1:45:00 PM 4.11 39.398 0.077 7.1 3.68 12.9
1/7/2023 2:00:00 PM 4.1 39.38 0.076 7.1 3.76 12.89
1/7/2023 2:15:00 PM 4.14 39.452 0.076 7.1 4.71 12.9
1/7/2023 2:30:00 PM 4.15 39.47 0.076 7.1 5.88 12.88
1/7/2023 2:45:00 PM 4.15 39.47 0.076 7.1 4.38 12.88
1/7/2023 3:00:00 PM 4.19 39.542 0.076 7.1 4.2 12.9
1/7/2023 3:15:00 PM 4.19 39.542 0.076 7.1 4.34 12.91
1/7/2023 3:30:00 PM 4.17 39.506 0.076 7.1 4 12.9
1/7/2023 3:45:00 PM 4.18 39.524 0.076 7.1 3.95 12.87
1/7/2023 4:00:00 PM 4.18 39.524 0.076 7.09 3.79 12.85
1/7/2023 4:15:00 PM 4.17 39.506 0.076 7.09 3.62 12.82
1/7/2023 4:30:00 PM 4.16 39.488 0.076 7.08 3.76 12.76
1/7/2023 4:45:00 PM 4.14 39.452 0.076 7.07 3.59 12.72
1/7/2023 5:00:00 PM 4.12 39.416 0.076 7.05 3.69 12.68
1/7/2023 5:15:00 PM 4.09 39.362 0.076 7.04 3.7 12.66
1/7/2023 5:30:00 PM 4.07 39.326 0.076 7.03 3.97 12.64
1/7/2023 5:45:00 PM 4.05 39.29 0.076 7.03 3.86 12.64
1/7/2023 6:00:00 PM 4.03 39.254 0.076 7.02 3.96 12.63
1/7/2023 6:15:00 PM 4.02 39.236 0.077 7.01 3.91 12.63
1/7/2023 6:30:00 PM 3.99 39.182 0.077 7.01 3.84 12.64
1/7/2023 6:45:00 PM 3.97 39.146 0.077 7.01 3.76 12.65
1/7/2023 7:00:00 PM 3.94 39.092 0.077 7.01 3.79 12.65
1/7/2023 7:15:00 PM 3.91 39.038 0.077 7 3.95 12.67
1/7/2023 7:30:00 PM 3.88 38.984 0.077 7 3.83 12.68
1/7/2023 7:45:00 PM 3.86 38.948 0.077 7 3.75 12.68
1/7/2023 8:00:00 PM 3.83 38.894 0.077 7 4.01 12.69
1/7/2023 8:15:00 PM 3.81 38.858 0.077 7 3.68 12.71
1/7/2023 8:30:00 PM 3.78 38.804 0.077 7 3.64 12.72
1/7/2023 8:45:00 PM 3.75 38.75 0.077 7 3.7 12.73
1/7/2023 9:00:00 PM 3.72 38.696 0.077 7 3.85 12.73
1/7/2023 9:15:00 PM 3.69 38.642 0.077 7 3.54 12.75
1/7/2023 9:30:00 PM 3.67 38.606 0.077 7 3.72 12.76
1/7/2023 9:45:00 PM 3.64 38.552 0.078 7 3.67 12.77
1/7/2023 10:00:00 PM 3.61 38.498 0.078 7 3.81 12.78
1/7/2023 10:15:00 PM 3.58 38.444 0.078 7 3.84 12.79
1/7/2023 10:30:00 PM 3.55 38.39 0.078 7 3.74 12.79
1/7/2023 10:45:00 PM 3.53 38.354 0.078 7 3.83 12.8
1/7/2023 11:00:00 PM 3.5 38.3 0.078 7 3.78 12.81
1/7/2023 11:15:00 PM 3.47 38.246 0.078 6.99 3.71 12.82
1/7/2023 11:30:00 PM 3.43 38.174 0.078 7 3.71 12.84
1/7/2023 11:45:00 PM 3.39 38.102 0.078 6.99 3.77 12.86
1/8/2023 12:00:00 AM 3.35 38.03 0.078 7 3.96 12.87
1/8/2023 12:15:00 AM 3.31 37.958 0.078 7 3.65 12.89
1/8/2023 12:30:00 AM 3.28 37.904 0.078 6.99 3.75 12.9
1/8/2023 12:45:00 AM 3.25 37.85 0.078 6.99 3.67 12.9
1/8/2023 1:00:00 AM 3.21 37.778 0.078 6.99 3.75 12.91
1/8/2023 1:15:00 AM 3.17 37.706 0.078 6.99 3.67 12.92
1/8/2023 1:30:00 AM 3.13 37.634 0.078 6.99 3.8 12.95
1/8/2023 1:45:00 AM 3.08 37.544 0.079 6.98 3.72 12.96
1/8/2023 2:00:00 AM 3.04 37.472 0.079 6.96 3.53 12.96
1/8/2023 2:15:00 AM 3 37.4 0.079 6.97 3.84 12.98
1/8/2023 2:30:00 AM 2.96 37.328 0.079 6.97 3.68 13
1/8/2023 2:45:00 AM 2.92 37.256 0.079 6.97 3.67 13.01
1/8/2023 3:00:00 AM 2.87 37.166 0.079 6.97 3.59 13.03
1/8/2023 3:15:00 AM 2.82 37.076 0.079 6.97 3.55 13.05
1/8/2023 3:30:00 AM 2.77 36.986 0.079 6.97 3.53 13.07
1/8/2023 3:45:00 AM 2.72 36.896 0.079 6.97 3.55 13.09
1/8/2023 4:00:00 AM 2.67 36.806 0.079 6.97 3.48 13.11
1/8/2023 4:15:00 AM 2.63 36.734 0.08 6.97 3.56 13.13
1/8/2023 4:30:00 AM 2.6 36.68 0.08 6.98 3.59 13.14
1/8/2023 4:45:00 AM 2.55 36.59 0.08 6.97 3.59 13.16
1/8/2023 5:00:00 AM 2.53 36.554 0.08 6.98 3.61 13.18
1/8/2023 5:15:00 AM 2.51 36.518 0.08 6.98 3.46 13.19
1/8/2023 5:30:00 AM 2.48 36.464 0.08 6.98 3.42 13.2
1/8/2023 5:45:00 AM 2.46 36.428 0.08 6.98 3.52 13.21
1/8/2023 6:00:00 AM 2.43 36.374 0.08 6.98 3.45 13.23
1/8/2023 6:15:00 AM 2.42 36.356 0.08 6.98 3.48 13.24
1/8/2023 6:30:00 AM 2.4 36.32 0.08 6.98 3.34 13.24
1/8/2023 6:45:00 AM 2.38 36.284 0.08 6.98 3.28 13.25
1/8/2023 7:00:00 AM 2.37 36.266 0.08 6.98 3.46 13.25
1/8/2023 7:15:00 AM 2.35 36.23 0.08 6.99 3.53 13.26
1/8/2023 7:30:00 AM 2.33 36.194 0.08 6.99 3.31 13.27
1/8/2023 7:45:00 AM 2.32 36.176 0.08 6.99 3.36 13.28
1/8/2023 8:00:00 AM 2.32 36.176 0.08 6.99 3.38 13.3
1/8/2023 8:15:00 AM 2.32 36.176 0.08 7 3.51 13.32
1/8/2023 8:30:00 AM 2.32 36.176 0.08 7.01 3.33 13.35
1/8/2023 8:45:00 AM 2.33 36.194 0.08 7.02 3.49 13.39
1/8/2023 9:00:00 AM 2.34 36.212 0.08 7.03 3.41 13.44
1/8/2023 9:15:00 AM 2.36 36.248 0.08 7.04 3.3 13.49
1/8/2023 9:30:00 AM 2.38 36.284 0.08 7.05 3.12 13.52
1/8/2023 9:45:00 AM 2.42 36.356 0.08 7.06 3.25 13.55
1/8/2023 10:00:00 AM 2.45 36.41 0.08 7.07 3.26 13.57
1/8/2023 10:15:00 AM 2.49 36.482 0.08 7.08 3.32 13.59
1/8/2023 10:30:00 AM 2.54 36.572 0.08 7.09 3.35 13.6
1/8/2023 10:45:00 AM 2.58 36.644 0.08 7.1 3.22 13.6
1/8/2023 11:00:00 AM 2.62 36.716 0.08 7.1 3.09 13.6
1/8/2023 11:15:00 AM 2.7 36.86 0.08 7.11 3.21 13.59
1/8/2023 11:30:00 AM 2.77 36.986 0.08 7.12 3.11 13.57
1/8/2023 11:45:00 AM 2.84 37.112 0.08 7.12 3.34 13.55
1/8/2023 12:00:00 PM 2.91 37.238 0.08 7.13 3.45 13.54
1/8/2023 12:15:00 PM 3.04 37.472 0.08 7.13 3.45 13.51
1/8/2023 12:30:00 PM 3.15 37.67 0.08 7.12 3.55 13.47
1/8/2023 12:45:00 PM 3.24 37.832 0.08 7.13 3.52 13.43
1/8/2023 1:00:00 PM 3.29 37.922 0.08 7.13 3.61 13.41
1/8/2023 1:15:00 PM 3.31 37.958 0.08 7.13 3.95 13.39
1/8/2023 1:30:00 PM 3.35 38.03 0.08 7.13 3.55 13.36
1/8/2023 1:45:00 PM 3.38 38.084 0.08 7.13 3.8 13.34
1/8/2023 2:00:00 PM 3.4 38.12 0.08 7.13 3.72 13.32
1/8/2023 2:15:00 PM 3.41 38.138 0.08 7.12 3.62 13.29
1/8/2023 2:30:00 PM 3.42 38.156 0.08 7.13 3.76 13.27
1/8/2023 2:45:00 PM 3.41 38.138 0.08 7.13 3.61 13.27
1/8/2023 3:00:00 PM 3.39 38.102 0.08 7.13 3.46 13.25
1/8/2023 3:15:00 PM 3.35 38.03 0.08 7.12 3.45 13.24
1/8/2023 3:30:00 PM 3.3 37.94 0.08 7.12 3.47 13.24
1/8/2023 3:45:00 PM 3.24 37.832 0.08 7.11 3.48 13.21
1/8/2023 4:00:00 PM 3.17 37.706 0.08 7.11 3.41 13.19
1/8/2023 4:15:00 PM 3.11 37.598 0.08 7.1 3.45 13.17
1/8/2023 4:30:00 PM 3.05 37.49 0.08 7.09 3.36 13.15
1/8/2023 4:45:00 PM 3 37.4 0.08 7.08 3.43 13.11
1/8/2023 5:00:00 PM 2.96 37.328 0.08 7.07 3.28 13.08
1/8/2023 5:15:00 PM 2.91 37.238 0.08 7.06 3.28 13.06
1/8/2023 5:30:00 PM 2.87 37.166 0.08 7.05 3.43 13.04
1/8/2023 5:45:00 PM 2.82 37.076 0.081 7.04 3.42 13.04
1/8/2023 6:00:00 PM 2.78 37.004 0.08 7.03 3.44 13.04
1/8/2023 6:15:00 PM 2.73 36.914 0.08 7.03 3.37 13.04
1/8/2023 6:30:00 PM 2.68 36.824 0.08 7.02 3.32 13.05
1/8/2023 6:45:00 PM 2.63 36.734 0.08 7.02 3.41 13.06
1/8/2023 7:00:00 PM 2.58 36.644 0.08 7.01 3.44 13.08
1/8/2023 7:15:00 PM 2.54 36.572 0.08 7.01 3.41 13.09
1/8/2023 7:30:00 PM 2.49 36.482 0.08 7.01 3.57 13.11
1/8/2023 7:45:00 PM 2.44 36.392 0.08 7 3.32 13.13
1/8/2023 8:00:00 PM 2.4 36.32 0.08 7 3.34 13.14
1/8/2023 8:15:00 PM 2.35 36.23 0.08 7 3.45 13.16
1/8/2023 8:30:00 PM 2.3 36.14 0.08 7 3.63 13.18
1/8/2023 8:45:00 PM 2.26 36.068 0.08 7 3.52 13.19
1/8/2023 9:00:00 PM 2.21 35.978 0.08 6.99 3.39 13.21
1/8/2023 9:15:00 PM 2.17 35.906 0.08 6.97 3.39 13.22
1/8/2023 9:30:00 PM 2.12 35.816 0.08 6.97 3.31 13.23
1/8/2023 9:45:00 PM 2.08 35.744 0.08 6.98 3.31 13.24
1/8/2023 10:00:00 PM 2.04 35.672 0.08 6.98 3.24 13.26
1/8/2023 10:15:00 PM 2 35.6 0.08 6.98 3.31 13.27
1/8/2023 10:30:00 PM 1.96 35.528 0.08 6.98 3.25 13.3
1/8/2023 10:45:00 PM 1.92 35.456 0.08 6.98 3.33 13.31
1/8/2023 11:00:00 PM 1.88 35.384 0.08 6.98 3.34 13.32
1/8/2023 11:15:00 PM 1.84 35.312 0.08 6.98 3.22 13.33
1/8/2023 11:30:00 PM 1.81 35.258 0.08 6.98 3.32 13.34
1/8/2023 11:45:00 PM 1.77 35.186 0.08 6.98 3.25 13.36
1/9/2023 12:00:00 AM 1.74 35.132 0.08 6.98 3.26 13.37
1/9/2023 12:15:00 AM 1.72 35.096 0.08 6.98 3.24 13.38
1/9/2023 12:30:00 AM 1.71 35.078 0.08 6.99 3.29 13.39
1/9/2023 12:45:00 AM 1.7 35.06 0.08 6.98 3.18 13.39
1/9/2023 1:00:00 AM 1.69 35.042 0.079 6.98 3.2 13.4
1/9/2023 1:15:00 AM 1.68 35.024 0.079 6.99 3.19 13.4
1/9/2023 1:30:00 AM 1.67 35.006 0.079 6.99 3.16 13.41
1/9/2023 1:45:00 AM 1.67 35.006 0.079 6.99 3.18 13.4
1/9/2023 2:00:00 AM 1.67 35.006 0.079 6.99 3.17 13.41
1/9/2023 2:15:00 AM 1.65 34.97 0.079 6.99 3.14 13.4
1/9/2023 2:30:00 AM 1.65 34.97 0.079 6.99 3.17 13.4
1/9/2023 2:45:00 AM 1.64 34.952 0.08 6.99 3.27 13.4
1/9/2023 3:00:00 AM 1.64 34.952 0.08 6.99 3.12 13.4
1/9/2023 3:15:00 AM 1.64 34.952 0.08 6.99 3.21 13.4
1/9/2023 3:30:00 AM 1.64 34.952 0.08 6.99 3.17 13.4
1/9/2023 3:45:00 AM 1.64 34.952 0.08 6.99 3.2 13.4
1/9/2023 4:00:00 AM 1.64 34.952 0.08 6.99 3.05 13.39
1/9/2023 4:15:00 AM 1.64 34.952 0.08 6.99 3.1 13.39
1/9/2023 4:30:00 AM 1.64 34.952 0.08 6.99 3.24 13.39
1/9/2023 4:45:00 AM 1.64 34.952 0.08 6.99 3.29 13.38
1/9/2023 5:00:00 AM 1.64 34.952 0.08 6.99 3.07 13.38
1/9/2023 5:15:00 AM 1.64 34.952 0.08 6.99 3.04 13.39
1/9/2023 5:30:00 AM 1.63 34.934 0.08 6.99 3.25 13.38
1/9/2023 5:45:00 AM 1.62 34.916 0.08 6.99 3.06 13.39
1/9/2023 6:00:00 AM 1.6 34.88 0.08 6.99 3.3 13.39
1/9/2023 6:15:00 AM 1.58 34.844 0.08 6.99 3.29 13.39
1/9/2023 6:30:00 AM 1.57 34.826 0.08 6.99 3.22 13.39
1/9/2023 6:45:00 AM 1.57 34.826 0.08 6.98 3.21 13.4
1/9/2023 7:00:00 AM 1.56 34.808 0.08 6.98 3.04 13.41
1/9/2023 7:15:00 AM 1.55 34.79 0.08 6.98 3.15 13.41
1/9/2023 7:30:00 AM 1.55 34.79 0.08 6.98 3.1 13.41
1/9/2023 7:45:00 AM 1.55 34.79 0.08 6.99 3.2 13.42
1/9/2023 8:00:00 AM 1.56 34.808 0.08 6.99 3.06 13.44
1/9/2023 8:15:00 AM 1.57 34.826 0.08 7 3.07 13.46
1/9/2023 8:30:00 AM 1.59 34.862 0.08 7 3.21 13.5
1/9/2023 8:45:00 AM 1.61 34.898 0.079 7.01 2.88 13.53
1/9/2023 9:00:00 AM 1.63 34.934 0.079 7.02 3.06 13.56
1/9/2023 9:15:00 AM 1.65 34.97 0.079 7.03 3.24 13.59
1/9/2023 9:30:00 AM 1.67 35.006 0.079 7.03 4.29 13.59
1/9/2023 9:45:00 AM 1.69 35.042 0.079 7.04 5.45 13.6
1/9/2023 10:00:00 AM 1.71 35.078 0.079 7.05 4.46 13.61
1/9/2023 10:15:00 AM 1.72 35.096 0.079 7.05 3.67 13.63
1/9/2023 10:30:00 AM 1.74 35.132 0.079 7.06 3.17 13.65
1/9/2023 10:45:00 AM 1.76 35.168 0.079 7.07 3.99 13.66
1/9/2023 11:00:00 AM 1.8 35.24 0.079 7.08 4.82 13.67
1/9/2023 11:15:00 AM 1.85 35.33 0.08 7.1 5.03 13.68
1/9/2023 11:30:00 AM 1.92 35.456 0.079 7.11 3.92 13.69
1/9/2023 11:45:00 AM 1.98 35.564 0.079 7.11 3.66 13.7
1/9/2023 12:00:00 PM 2.05 35.69 0.079 7.12 3.75 13.69
1/9/2023 12:15:00 PM 2.13 35.834 0.079 7.13 3.59 13.68
1/9/2023 12:30:00 PM 2.22 35.996 0.079 7.13 3.17 13.67
1/9/2023 12:45:00 PM 2.31 36.158 0.079 7.13 2.97 13.65
1/9/2023 1:00:00 PM 2.43 36.374 0.079 7.14 3.05 13.62
1/9/2023 1:15:00 PM 2.54 36.572 0.083 7.14 3.21 13.59
1/9/2023 1:30:00 PM 2.61 36.698 0.086 7.14 3.35 13.55
1/9/2023 1:45:00 PM 2.68 36.824 0.084 7.14 3.25 13.52
1/9/2023 2:00:00 PM 2.75 36.95 0.082 7.15 3.67 13.49
1/9/2023 2:15:00 PM 2.79 37.022 0.081 7.14 4.05 13.46
1/9/2023 2:30:00 PM 2.82 37.076 0.081 7.14 4.2 13.43
1/9/2023 2:45:00 PM 2.85 37.13 0.081 7.15 4.05 13.4
1/9/2023 3:00:00 PM 2.86 37.148 0.08 7.14 4.06 13.38
1/9/2023 3:15:00 PM 2.84 37.112 0.08 7.15 4.63 13.36
1/9/2023 3:30:00 PM 2.81 37.058 0.08 7.14 5 13.34
1/9/2023 3:45:00 PM 2.76 36.968 0.08 7.14 5.89 13.33
1/9/2023 4:00:00 PM 2.71 36.878 0.079 7.13 5.11 13.3
1/9/2023 4:15:00 PM 2.66 36.788 0.079 7.12 3.71 13.28
1/9/2023 4:30:00 PM 2.62 36.716 0.079 7.12 3.39 13.26
1/9/2023 4:45:00 PM 2.58 36.644 0.079 7.1 3.25 13.21
1/9/2023 5:00:00 PM 2.54 36.572 0.079 7.09 3.14 13.18
1/9/2023 5:15:00 PM 2.51 36.518 0.08 7.08 3.22 13.14
1/9/2023 5:30:00 PM 2.47 36.446 0.08 7.07 3.24 13.12
1/9/2023 5:45:00 PM 2.43 36.374 0.08 7.05 3.14 13.1
1/9/2023 6:00:00 PM 2.4 36.32 0.08 7.04 3.16 13.1
1/9/2023 6:15:00 PM 2.36 36.248 0.08 7.04 3.19 13.09
1/9/2023 6:30:00 PM 2.32 36.176 0.08 7.04 3.25 13.1
1/9/2023 6:45:00 PM 2.27 36.086 0.08 7.03 3.25 13.11
1/9/2023 7:00:00 PM 2.23 36.014 0.08 7.03 3.18 13.12
1/9/2023 7:15:00 PM 2.18 35.924 0.08 7.02 3.31 13.14
1/9/2023 7:30:00 PM 2.14 35.852 0.08 7.02 3.27 13.16
1/9/2023 7:45:00 PM 2.1 35.78 0.08 7.02 3.17 13.17
1/9/2023 8:00:00 PM 2.05 35.69 0.08 7.02 3.22 13.19
1/9/2023 8:15:00 PM 2.01 35.618 0.08 7.02 3.13 13.21
1/9/2023 8:30:00 PM 1.97 35.546 0.08 7.01 3.22 13.22
1/9/2023 8:45:00 PM 1.93 35.474 0.08 7.01 3.22 13.24
1/9/2023 9:00:00 PM 1.89 35.402 0.08 7.01 3.17 13.26
1/9/2023 9:15:00 PM 1.85 35.33 0.08 7.01 3.33 13.28
1/9/2023 9:30:00 PM 1.84 35.312 0.081 7.01 3.22 13.29
1/9/2023 9:45:00 PM 1.82 35.276 0.081 7.01 3.25 13.3
1/9/2023 10:00:00 PM 1.82 35.276 0.081 7 3.14 13.3
1/9/2023 10:15:00 PM 1.81 35.258 0.081 7 3.12 13.31
1/9/2023 10:30:00 PM 1.81 35.258 0.081 7.01 3.19 13.31
1/9/2023 10:45:00 PM 1.81 35.258 0.081 7 3.12 13.32
1/9/2023 11:00:00 PM 1.82 35.276 0.081 7.01 2.95 13.32
1/9/2023 11:15:00 PM 1.83 35.294 0.081 7.01 3.05 13.32
1/9/2023 11:30:00 PM 1.83 35.294 0.081 7.01 3.05 13.32
1/9/2023 11:45:00 PM 1.85 35.33 0.081 7.01 3.08 13.32
1/10/2023 12:00:00 AM 1.86 35.348 0.081 7.01 3.1 13.31
1/10/2023 12:15:00 AM 1.87 35.366 0.081 7.01 3.05 13.31
1/10/2023 12:30:00 AM 1.89 35.402 0.081 7.01 3.07 13.3
1/10/2023 12:45:00 AM 1.9 35.42 0.081 7.01 2.96 13.29
1/10/2023 1:00:00 AM 1.92 35.456 0.081 7.01 3.11 13.28
1/10/2023 1:15:00 AM 1.95 35.51 0.081 7.01 3.1 13.28
1/10/2023 1:30:00 AM 1.97 35.546 0.081 7.01 2.97 13.26
1/10/2023 1:45:00 AM 1.98 35.564 0.081 7.01 3.11 13.26
1/10/2023 2:00:00 AM 2.01 35.618 0.081 7.01 2.99 13.25
1/10/2023 2:15:00 AM 2.02 35.636 0.081 7.01 3.04 13.25
1/10/2023 2:30:00 AM 2.03 35.654 0.081 7.01 3.12 13.24
1/10/2023 2:45:00 AM 2.05 35.69 0.081 7.02 3.02 13.24
1/10/2023 3:00:00 AM 2.06 35.708 0.081 7.01 3.08 13.23
1/10/2023 3:15:00 AM 2.07 35.726 0.081 7.01 2.97 13.23
1/10/2023 3:30:00 AM 2.08 35.744 0.081 7.02 3 13.22
1/10/2023 3:45:00 AM 2.09 35.762 0.08 7.01 2.92 13.22
1/10/2023 4:00:00 AM 2.11 35.798 0.08 7.01 3.15 13.22
1/10/2023 4:15:00 AM 2.12 35.816 0.08 7.01 2.93 13.21
1/10/2023 4:30:00 AM 2.13 35.834 0.08 7.01 3.02 13.2
1/10/2023 4:45:00 AM 2.14 35.852 0.08 7.01 3.04 13.2
1/10/2023 5:00:00 AM 2.16 35.888 0.08 7.02 2.97 13.19
1/10/2023 5:15:00 AM 2.18 35.924 0.08 7 2.92 13.18
1/10/2023 5:30:00 AM 2.19 35.942 0.08 7.01 2.97 13.18
1/10/2023 5:45:00 AM 2.21 35.978 0.08 7.01 3.03 13.17
1/10/2023 6:00:00 AM 2.22 35.996 0.08 7.01 2.95 13.17
1/10/2023 6:15:00 AM 2.23 36.014 0.08 7.01 2.97 13.17
1/10/2023 6:30:00 AM 2.25 36.05 0.08 7.01 2.9 13.16
1/10/2023 6:45:00 AM 2.26 36.068 0.08 7.01 2.92 13.16
1/10/2023 7:00:00 AM 2.27 36.086 0.08 7.01 2.86 13.16
1/10/2023 7:15:00 AM 2.28 36.104 0.08 7.01 2.91 13.16
1/10/2023 7:30:00 AM 2.29 36.122 0.08 7.01 3 13.15
1/10/2023 7:45:00 AM 2.3 36.14 0.08 7.01 2.88 13.14
1/10/2023 8:00:00 AM 2.31 36.158 0.08 7.01 2.96 13.15
1/10/2023 8:15:00 AM 2.32 36.176 0.08 7.02 3.12 13.16
1/10/2023 8:30:00 AM 2.33 36.194 0.08 7.02 2.98 13.16
1/10/2023 8:45:00 AM 2.34 36.212 0.08 7.02 3.09 13.17
1/10/2023 9:00:00 AM 2.35 36.23 0.08 7.03 3.03 13.2
1/10/2023 9:15:00 AM 2.37 36.266 0.08 7.03 2.81 13.23
1/10/2023 9:30:00 AM 2.38 36.284 0.08 7.04 3.08 13.27
1/10/2023 9:45:00 AM 2.4 36.32 0.08 7.05 2.91 13.3
1/10/2023 10:00:00 AM 2.42 36.356 0.08 7.06 2.89 13.32
1/10/2023 10:15:00 AM 2.44 36.392 0.08 7.07 2.77 13.36
1/10/2023 10:30:00 AM 2.46 36.428 0.08 7.08 2.96 13.39
1/10/2023 10:45:00 AM 2.49 36.482 0.08 7.09 2.99 13.41
1/10/2023 11:00:00 AM 2.52 36.536 0.08 7.09 2.86 13.43
1/10/2023 11:15:00 AM 2.55 36.59 0.08 7.1 2.93 13.45
1/10/2023 11:30:00 AM 2.59 36.662 0.08 7.11 2.92 13.46
1/10/2023 11:45:00 AM 2.62 36.716 0.08 7.12 2.82 13.47
1/10/2023 12:00:00 PM 2.65 36.77 0.08 7.12 2.88 13.46
1/10/2023 12:15:00 PM 2.67 36.806 0.08 7.13 3 13.44
1/10/2023 12:30:00 PM 2.69 36.842 0.079 7.13 2.8 13.43
1/10/2023 12:45:00 PM 2.71 36.878 0.079 7.13 2.84 13.41
1/10/2023 1:00:00 PM 2.72 36.896 0.08 7.14 2.91 13.4
1/10/2023 1:15:00 PM 2.73 36.914 0.08 7.13 2.86 13.38
1/10/2023 1:30:00 PM 2.74 36.932 0.08 7.13 2.79 13.36
1/10/2023 1:45:00 PM 2.75 36.95 0.08 7.13 2.78 13.34
1/10/2023 2:00:00 PM 2.75 36.95 0.08 7.13 2.89 13.31
1/10/2023 2:15:00 PM 2.75 36.95 0.08 7.12 2.84 13.29
1/10/2023 2:30:00 PM 2.76 36.968 0.08 7.12 2.78 13.27
1/10/2023 2:45:00 PM 2.76 36.968 0.08 7.11 2.79 13.25
1/10/2023 3:00:00 PM 2.77 36.986 0.08 7.11 2.79 13.25
1/10/2023 3:15:00 PM 2.77 36.986 0.08 7.11 2.88 13.24
1/10/2023 3:30:00 PM 2.78 37.004 0.08 7.11 2.89 13.24
1/10/2023 3:45:00 PM 2.78 37.004 0.08 7.11 3 13.22
1/10/2023 4:00:00 PM 2.77 36.986 0.08 7.1 2.8 13.21
1/10/2023 4:15:00 PM 2.77 36.986 0.08 7.1 2.73 13.2
1/10/2023 4:30:00 PM 2.76 36.968 0.08 7.09 2.95 13.17
1/10/2023 4:45:00 PM 2.76 36.968 0.08 7.09 2.85 13.13
1/10/2023 5:00:00 PM 2.75 36.95 0.08 7.08 2.77 13.1
1/10/2023 5:15:00 PM 2.74 36.932 0.08 7.07 2.89 13.07
1/10/2023 5:30:00 PM 2.72 36.896 0.08 7.06 2.86 13.06
1/10/2023 5:45:00 PM 2.71 36.878 0.08 7.05 2.84 13.04
1/10/2023 6:00:00 PM 2.7 36.86 0.08 7.05 2.86 13.03
1/10/2023 6:15:00 PM 2.69 36.842 0.081 7.05 2.82 13.03
1/10/2023 6:30:00 PM 2.68 36.824 0.081 7.04 2.93 13.03
1/10/2023 6:45:00 PM 2.67 36.806 0.081 7.04 2.92 13.03
1/10/2023 7:00:00 PM 2.66 36.788 0.081 7.03 2.9 13.03
1/10/2023 7:15:00 PM 2.64 36.752 0.081 7.03 2.98 13.03
1/10/2023 7:30:00 PM 2.63 36.734 0.081 7.03 2.94 13.03
1/10/2023 7:45:00 PM 2.62 36.716 0.081 7.03 2.97 13.03
1/10/2023 8:00:00 PM 2.61 36.698 0.081 7.03 3 13.04
1/10/2023 8:15:00 PM 2.6 36.68 0.081 7.03 2.92 13.04
1/10/2023 8:30:00 PM 2.59 36.662 0.081 7.03 2.98 13.05
1/10/2023 8:45:00 PM 2.57 36.626 0.081 7.03 3 13.06
1/10/2023 9:00:00 PM 2.56 36.608 0.081 7.02 2.98 13.06
1/10/2023 9:15:00 PM 2.55 36.59 0.081 7.02 2.79 13.07
1/10/2023 9:30:00 PM 2.54 36.572 0.081 7.03 3.04 13.07
1/10/2023 9:45:00 PM 2.53 36.554 0.081 7.03 2.96 13.08
1/10/2023 10:00:00 PM 2.52 36.536 0.081 7.02 2.93 13.09
1/10/2023 10:15:00 PM 2.51 36.518 0.081 7.02 3.04 13.09
1/10/2023 10:30:00 PM 2.51 36.518 0.081 7.02 2.93 13.08
1/10/2023 10:45:00 PM 2.5 36.5 0.081 7.01 2.8 13.09
1/10/2023 11:00:00 PM 2.49 36.482 0.081 7.02 2.89 13.1
1/10/2023 11:15:00 PM 2.48 36.464 0.081 7.02 2.97 13.11
1/10/2023 11:30:00 PM 2.47 36.446 0.081 7.02 2.96 13.11
1/10/2023 11:45:00 PM 2.46 36.428 0.081 7.01 2.83 13.12
1/11/2023 12:00:00 AM 2.45 36.41 0.081 7.02 2.91 13.12
1/11/2023 12:15:00 AM 2.44 36.392 0.081 7.01 2.94 13.12
1/11/2023 12:30:00 AM 2.43 36.374 0.081 7.02 3.03 13.12
1/11/2023 12:45:00 AM 2.42 36.356 0.081 7.02 2.97 13.12
1/11/2023 1:00:00 AM 2.41 36.338 0.081 7.02 2.93 13.13
1/11/2023 1:15:00 AM 2.4 36.32 0.081 7.02 2.91 13.14
1/11/2023 1:30:00 AM 2.4 36.32 0.081 7.02 2.94 13.14
1/11/2023 1:45:00 AM 2.39 36.302 0.081 7.01 3.02 13.14
1/11/2023 2:00:00 AM 2.38 36.284 0.081 7.02 2.97 13.15
1/11/2023 2:15:00 AM 2.37 36.266 0.081 7.02 2.79 13.15
1/11/2023 2:30:00 AM 2.36 36.248 0.081 7.02 2.93 13.15
1/11/2023 2:45:00 AM 2.36 36.248 0.081 7.02 2.85 13.15
1/11/2023 3:00:00 AM 2.35 36.23 0.081 7.01 2.88 13.16
1/11/2023 3:15:00 AM 2.34 36.212 0.081 7.01 3.07 13.17
1/11/2023 3:30:00 AM 2.34 36.212 0.081 7.02 2.91 13.17
1/11/2023 3:45:00 AM 2.33 36.194 0.081 7.02 2.92 13.18
1/11/2023 4:00:00 AM 2.33 36.194 0.081 7.02 2.81 13.18
1/11/2023 4:15:00 AM 2.32 36.176 0.081 7.02 2.99 13.18
1/11/2023 4:30:00 AM 2.32 36.176 0.081 7.01 2.83 13.19
1/11/2023 4:45:00 AM 2.31 36.158 0.081 7.01 2.75 13.19
1/11/2023 5:00:00 AM 2.3 36.14 0.081 7.01 2.8 13.19
1/11/2023 5:15:00 AM 2.29 36.122 0.081 7.02 2.76 13.18
1/11/2023 5:30:00 AM 2.28 36.104 0.081 7.01 2.85 13.19
1/11/2023 5:45:00 AM 2.28 36.104 0.081 7.01 2.78 13.19
1/11/2023 6:00:00 AM 2.27 36.086 0.081 7.01 2.77 13.19
1/11/2023 6:15:00 AM 2.27 36.086 0.081 7.01 2.87 13.2
1/11/2023 6:30:00 AM 2.26 36.068 0.081 7.01 2.9 13.2
1/11/2023 6:45:00 AM 2.25 36.05 0.081 7.01 2.76 13.2
1/11/2023 7:00:00 AM 2.25 36.05 0.081 7.01 2.79 13.2
1/11/2023 7:15:00 AM 2.25 36.05 0.081 7.01 2.93 13.21
1/11/2023 7:30:00 AM 2.24 36.032 0.081 7.01 2.81 13.22
1/11/2023 7:45:00 AM 2.24 36.032 0.081 7.01 2.74 13.21
1/11/2023 8:00:00 AM 2.24 36.032 0.081 7.02 2.75 13.24
1/11/2023 8:15:00 AM 2.24 36.032 0.081 7.02 2.75 13.26
1/11/2023 8:30:00 AM 2.24 36.032 0.081 7.03 2.74 13.3
1/11/2023 8:45:00 AM 2.26 36.068 0.081 7.04 2.76 13.36
1/11/2023 9:00:00 AM 2.27 36.086 0.081 7.05 2.78 13.42
1/11/2023 9:15:00 AM 2.3 36.14 0.081 7.06 2.89 13.47
1/11/2023 9:30:00 AM 2.33 36.194 0.081 7.07 2.68 13.52
1/11/2023 9:45:00 AM 2.36 36.248 0.081 7.09 2.81 13.56
1/11/2023 10:00:00 AM 2.4 36.32 0.081 7.1 2.65 13.59
1/11/2023 10:15:00 AM 2.44 36.392 0.081 7.11 2.76 13.61
1/11/2023 10:30:00 AM 2.5 36.5 0.081 7.12 2.73 13.63
1/11/2023 10:45:00 AM 2.56 36.608 0.08 7.13 2.68 13.64
1/11/2023 11:00:00 AM 2.63 36.734 0.08 7.14 2.79 13.63
1/11/2023 11:15:00 AM 2.71 36.878 0.08 7.15 2.67 13.62
1/11/2023 11:30:00 AM 2.75 36.95 0.08 7.15 2.71 13.6
1/11/2023 11:45:00 AM 2.78 37.004 0.08 7.15 2.73 13.59
1/11/2023 12:00:00 PM 2.83 37.094 0.08 7.16 2.64 13.57
1/11/2023 12:15:00 PM 2.89 37.202 0.08 7.17 2.67 13.55
1/11/2023 12:30:00 PM 2.94 37.292 0.08 7.17 2.76 13.54
1/11/2023 12:45:00 PM 3 37.4 0.08 7.17 2.77 13.52
1/11/2023 1:00:00 PM 3.07 37.526 0.08 7.18 2.83 13.5
1/11/2023 1:15:00 PM 3.16 37.688 0.08 7.18 2.8 13.49
1/11/2023 1:30:00 PM 3.22 37.796 0.08 7.19 2.8 13.46
1/11/2023 1:45:00 PM 3.28 37.904 0.08 7.19 2.81 13.45
1/11/2023 2:00:00 PM 3.34 38.012 0.08 7.19 2.84 13.42
1/11/2023 2:15:00 PM 3.39 38.102 0.08 7.19 2.92 13.39
1/11/2023 2:30:00 PM 3.42 38.156 0.079 7.2 2.83 13.36
1/11/2023 2:45:00 PM 3.44 38.192 0.079 7.2 2.87 13.34
1/11/2023 3:00:00 PM 3.46 38.228 0.079 7.2 2.96 13.32
1/11/2023 3:15:00 PM 3.47 38.246 0.079 7.2 2.93 13.29
1/11/2023 3:30:00 PM 3.48 38.264 0.079 7.19 2.96 13.28
1/11/2023 3:45:00 PM 3.47 38.246 0.079 7.19 2.9 13.27
1/11/2023 4:00:00 PM 3.46 38.228 0.079 7.19 3 13.24
1/11/2023 4:15:00 PM 3.44 38.192 0.079 7.19 2.98 13.21
1/11/2023 4:30:00 PM 3.41 38.138 0.079 7.17 2.91 13.16
1/11/2023 4:45:00 PM 3.37 38.066 0.08 7.16 2.97 13.11
1/11/2023 5:00:00 PM 3.35 38.03 0.08 7.14 2.88 13.04
1/11/2023 5:15:00 PM 3.32 37.976 0.08 7.12 2.9 12.98
1/11/2023 5:30:00 PM 3.3 37.94 0.08 7.11 2.95 12.93
1/11/2023 5:45:00 PM 3.28 37.904 0.08 7.09 2.9 12.9
1/11/2023 6:00:00 PM 3.25 37.85 0.08 7.08 3.05 12.87
1/11/2023 6:15:00 PM 3.23 37.814 0.08 7.07 3.07 12.87
1/11/2023 6:30:00 PM 3.21 37.778 0.08 7.06 3.12 12.86
1/11/2023 6:45:00 PM 3.18 37.724 0.08 7.06 2.95 12.86
1/11/2023 7:00:00 PM 3.14 37.652 0.08 7.05 2.97 12.86
1/11/2023 7:15:00 PM 3.09 37.562 0.081 7.05 2.95 12.87
1/11/2023 7:30:00 PM 3.06 37.508 0.08 7.04 2.91 12.88
1/11/2023 7:45:00 PM 3.04 37.472 0.081 7.04 2.97 12.88
1/11/2023 8:00:00 PM 3.01 37.418 0.081 7.04 2.98 12.89
1/11/2023 8:15:00 PM 2.98 37.364 0.081 7.03 2.94 12.91
1/11/2023 8:30:00 PM 2.95 37.31 0.081 7.03 2.94 12.92
1/11/2023 8:45:00 PM 2.92 37.256 0.081 7.03 2.97 12.93
1/11/2023 9:00:00 PM 2.9 37.22 0.081 7.03 2.85 12.93
1/11/2023 9:15:00 PM 2.87 37.166 0.081 7.03 2.87 12.95
1/11/2023 9:30:00 PM 2.85 37.13 0.081 7.03 2.89 12.96
1/11/2023 9:45:00 PM 2.84 37.112 0.081 7.03 2.97 12.96
1/11/2023 10:00:00 PM 2.83 37.094 0.081 7.03 2.91 12.98
1/11/2023 10:15:00 PM 2.82 37.076 0.081 7.03 2.87 12.98
1/11/2023 10:30:00 PM 2.8 37.04 0.081 7.02 2.83 12.99
1/11/2023 10:45:00 PM 2.78 37.004 0.081 7.02 2.9 12.99
1/11/2023 11:00:00 PM 2.77 36.986 0.081 7.03 3 13
1/11/2023 11:15:00 PM 2.75 36.95 0.081 7.02 2.73 13
1/11/2023 11:30:00 PM 2.74 36.932 0.081 7.02 2.79 13.01
1/11/2023 11:45:00 PM 2.73 36.914 0.081 7.02 2.93 13.01
1/12/2023 12:00:00 AM 2.72 36.896 0.081 7.03 2.96 13.01
1/12/2023 12:15:00 AM 2.71 36.878 0.081 7.02 2.94 13.01
1/12/2023 12:30:00 AM 2.71 36.878 0.081 7.03 2.76 13.02
1/12/2023 12:45:00 AM 2.7 36.86 0.081 7.02 2.8 13.02
1/12/2023 1:00:00 AM 2.68 36.824 0.081 7.03 2.82 13.02
1/12/2023 1:15:00 AM 2.67 36.806 0.081 7.03 2.73 13.02
1/12/2023 1:30:00 AM 2.67 36.806 0.081 7.03 2.82 13.02
1/12/2023 1:45:00 AM 2.66 36.788 0.081 7.03 2.82 13.03
1/12/2023 2:00:00 AM 2.65 36.77 0.081 7.02 2.8 13.03
1/12/2023 2:15:00 AM 2.65 36.77 0.081 7.03 2.91 13.03
1/12/2023 2:30:00 AM 2.64 36.752 0.081 7.02 2.88 13.03
1/12/2023 2:45:00 AM 2.63 36.734 0.081 7.03 2.89 13.03
1/12/2023 3:00:00 AM 2.62 36.716 0.081 7.03 2.71 13.03
1/12/2023 3:15:00 AM 2.62 36.716 0.081 7.03 2.7 13.03
1/12/2023 3:30:00 AM 2.61 36.698 0.081 7.03 2.64 13.04
1/12/2023 3:45:00 AM 2.6 36.68 0.081 7.03 2.75 13.04
1/12/2023 4:00:00 AM 2.6 36.68 0.081 7.03 2.71 13.05
1/12/2023 4:15:00 AM 2.6 36.68 0.082 7.03 2.76 13.05
1/12/2023 4:30:00 AM 2.59 36.662 0.082 7.03 2.62 13.05
1/12/2023 4:45:00 AM 2.59 36.662 0.082 7.02 2.92 13.04
1/12/2023 5:00:00 AM 2.59 36.662 0.082 7.03 2.78 13.04
1/12/2023 5:15:00 AM 2.58 36.644 0.082 7.02 2.73 13.04
1/12/2023 5:30:00 AM 2.57 36.626 0.082 7.02 2.78 13.03
1/12/2023 5:45:00 AM 2.55 36.59 0.082 7.03 2.85 13.04
1/12/2023 6:00:00 AM 2.54 36.572 0.082 7.02 2.76 13.04
1/12/2023 6:15:00 AM 2.53 36.554 0.082 7.02 2.76 13.05
1/12/2023 6:30:00 AM 2.5 36.5 0.082 7.02 2.85 13.05
1/12/2023 6:45:00 AM 2.46 36.428 0.082 7.02 2.8 13.06
1/12/2023 7:00:00 AM 2.4 36.32 0.082 7.02 2.76 13.06
1/12/2023 7:15:00 AM 2.36 36.248 0.082 7.02 2.81 13.07
1/12/2023 7:30:00 AM 2.36 36.248 0.082 7.02 2.83 13.08
1/12/2023 7:45:00 AM 2.36 36.248 0.082 7.02 2.78 13.09
1/12/2023 8:00:00 AM 2.36 36.248 0.082 7.02 3.04 13.11
1/12/2023 8:15:00 AM 2.35 36.23 0.082 7.03 2.93 13.12
1/12/2023 8:30:00 AM 2.35 36.23 0.082 7.03 2.94 13.15
1/12/2023 8:45:00 AM 2.36 36.248 0.083 7.03 2.85 13.16
1/12/2023 9:00:00 AM 2.38 36.284 0.083 7.03 2.89 13.19
1/12/2023 9:15:00 AM 2.41 36.338 0.083 7.04 2.85 13.2
1/12/2023 9:30:00 AM 2.43 36.374 0.082 7.04 2.81 13.23
1/12/2023 9:45:00 AM 2.46 36.428 0.082 7.05 2.81 13.26
1/12/2023 10:00:00 AM 2.5 36.5 0.082 7.06 2.93 13.28
1/12/2023 10:15:00 AM 2.53 36.554 0.082 7.07 2.71 13.32
1/12/2023 10:30:00 AM 2.57 36.626 0.082 7.08 2.7 13.35
1/12/2023 10:45:00 AM 2.61 36.698 0.081 7.09 2.66 13.39
1/12/2023 11:00:00 AM 2.66 36.788 0.081 7.09 2.65 13.41
1/12/2023 11:15:00 AM 2.7 36.86 0.081 7.11 2.76 13.44
1/12/2023 11:30:00 AM 2.75 36.95 0.081 7.12 2.72 13.44
1/12/2023 11:45:00 AM 2.8 37.04 0.081 7.13 2.62 13.43
1/12/2023 12:00:00 PM 2.86 37.148 0.081 7.14 2.71 13.43
1/12/2023 12:15:00 PM 2.91 37.238 0.081 7.15 2.67 13.41
1/12/2023 12:30:00 PM 2.96 37.328 0.081 7.15 2.67 13.39
1/12/2023 12:45:00 PM 3 37.4 0.081 7.16 2.73 13.36
1/12/2023 1:00:00 PM 3.04 37.472 0.081 7.16 2.78 13.34
1/12/2023 1:15:00 PM 3.08 37.544 0.081 7.16 2.61 13.3
1/12/2023 1:30:00 PM 3.11 37.598 0.081 7.16 2.8 13.27
1/12/2023 1:45:00 PM 3.14 37.652 0.081 7.15 2.77 13.22
1/12/2023 2:00:00 PM 3.17 37.706 0.081 7.15 2.94 13.18
1/12/2023 2:15:00 PM 3.2 37.76 0.081 7.15 2.83 13.17
1/12/2023 2:30:00 PM 3.23 37.814 0.081 7.15 2.98 13.16
1/12/2023 2:45:00 PM 3.25 37.85 0.081 7.15 2.83 13.13
1/12/2023 3:00:00 PM 3.28 37.904 0.082 7.14 2.98 13.09
1/12/2023 3:15:00 PM 3.3 37.94 0.082 7.14 3.03 13.06
1/12/2023 3:30:00 PM 3.32 37.976 0.082 7.14 2.99 13.02
1/12/2023 3:45:00 PM 3.34 38.012 0.082 7.13 2.84 12.99
1/12/2023 4:00:00 PM 3.37 38.066 0.082 7.13 2.92 12.96
1/12/2023 4:15:00 PM 3.39 38.102 0.082 7.12 2.92 12.91
1/12/2023 4:30:00 PM 3.41 38.138 0.082 7.11 3.03 12.87
1/12/2023 4:45:00 PM 3.43 38.174 0.082 7.11 2.89 12.82
1/12/2023 5:00:00 PM 3.45 38.21 0.082 7.09 2.98 12.79
1/12/2023 5:15:00 PM 3.46 38.228 0.081 7.08 3.02 12.73
1/12/2023 5:30:00 PM 3.47 38.246 0.081 7.08 3.13 12.71
1/12/2023 5:45:00 PM 3.48 38.264 0.081 7.07 4.49 12.68
1/12/2023 6:00:00 PM 3.5 38.3 0.082 7.07 9.01 12.66
1/12/2023 6:15:00 PM 3.51 38.318 0.083 7.06 8.79 12.64
1/12/2023 6:30:00 PM 3.53 38.354 0.083 7.05 6.13 12.62
1/12/2023 6:45:00 PM 3.54 38.372 0.082 7.05 7.08 12.61
1/12/2023 7:00:00 PM 3.56 38.408 0.082 7.06 8.24 12.6
1/12/2023 7:15:00 PM 3.58 38.444 0.082 7.06 10.05 12.59
1/12/2023 7:30:00 PM 3.6 38.48 0.082 7.06 8.42 12.57
1/12/2023 7:45:00 PM 3.61 38.498 0.082 7.05 8.02 12.57
1/12/2023 8:00:00 PM 3.63 38.534 0.082 7.06 8.07 12.56
1/12/2023 8:15:00 PM 3.65 38.57 0.082 7.06 8.64 12.56
1/12/2023 8:30:00 PM 3.67 38.606 0.082 7.05 8.44 12.56
1/12/2023 8:45:00 PM 3.69 38.642 0.082 7.06 8.46 12.55
1/12/2023 9:00:00 PM 3.71 38.678 0.082 7.06 8.23 12.54
1/12/2023 9:15:00 PM 3.73 38.714 0.082 7.06 9.17 12.54
1/12/2023 9:30:00 PM 3.75 38.75 0.081 7.06 9.78 12.53
1/12/2023 9:45:00 PM 3.77 38.786 0.081 7.07 9.99 12.52
1/12/2023 10:00:00 PM 3.8 38.84 0.081 7.07 10.84 12.52
1/12/2023 10:15:00 PM 3.82 38.876 0.081 7.06 11.35 12.51
1/12/2023 10:30:00 PM 3.85 38.93 0.081 7.08 11.67 12.5
1/12/2023 10:45:00 PM 3.87 38.966 0.082 7.08 12.89 12.5
1/12/2023 11:00:00 PM 3.89 39.002 0.082 7.07 12.17 12.48
1/12/2023 11:15:00 PM 3.91 39.038 0.083 7.07 13.41 12.48
1/12/2023 11:30:00 PM 3.94 39.092 0.083 7.07 14.28 12.46
1/12/2023 11:45:00 PM 3.96 39.128 0.084 7.06 12.35 12.45
1/13/2023 12:00:00 AM 3.99 39.182 0.084 7.07 12.83 12.44
1/13/2023 12:15:00 AM 4.01 39.218 0.084 7.07 12.49 12.44
1/13/2023 12:30:00 AM 4.03 39.254 0.084 7.07 13.87 12.43
1/13/2023 12:45:00 AM 4.05 39.29 0.084 7.08 12.01 12.42
1/13/2023 1:00:00 AM 4.07 39.326 0.085 7.08 12.81 12.41
1/13/2023 1:15:00 AM 4.09 39.362 0.085 7.08 12.44 12.4
1/13/2023 1:30:00 AM 4.11 39.398 0.085 7.08 12.41 12.38
1/13/2023 1:45:00 AM 4.13 39.434 0.085 7.08 11.69 12.38
1/13/2023 2:00:00 AM 4.15 39.47 0.084 7.08 12.67 12.37
1/13/2023 2:15:00 AM 4.17 39.506 0.085 7.08 13.37 12.36
1/13/2023 2:30:00 AM 4.18 39.524 0.085 7.07 16.43 12.36
1/13/2023 2:45:00 AM 4.2 39.56 0.085 7.07 16.4 12.35
1/13/2023 3:00:00 AM 4.21 39.578 0.085 7.07 17.32 12.34
1/13/2023 3:15:00 AM 4.22 39.596 0.085 7.07 16.36 12.34
1/13/2023 3:30:00 AM 4.24 39.632 0.086 7.07 17.59 12.33
1/13/2023 3:45:00 AM 4.25 39.65 0.086 7.07 17.55 12.32
1/13/2023 4:00:00 AM 4.26 39.668 0.086 7.07 19.88 12.32
1/13/2023 4:15:00 AM 4.28 39.704 0.086 7.08 18.24 12.32
1/13/2023 4:30:00 AM 4.29 39.722 0.085 7.08 16.7 12.31
1/13/2023 4:45:00 AM 4.31 39.758 0.085 7.08 17.97 12.3
1/13/2023 5:00:00 AM 4.33 39.794 0.085 7.09 17.21 12.3
1/13/2023 5:15:00 AM 4.35 39.83 0.084 7.09 18.15 12.29
1/13/2023 5:30:00 AM 4.37 39.866 0.083 7.09 19.43 12.29
1/13/2023 5:45:00 AM 4.4 39.92 0.083 7.09 22.63 12.29
1/13/2023 6:00:00 AM 4.42 39.956 0.082 7.09 20.98 12.29
1/13/2023 6:15:00 AM 4.43 39.974 0.082 7.09 20.17 12.28
1/13/2023 6:30:00 AM 4.45 40.01 0.082 7.09 24.8 12.28
1/13/2023 6:45:00 AM 4.46 40.028 0.082 7.1 22.82 12.28
1/13/2023 7:00:00 AM 4.48 40.064 0.081 7.09 23.5 12.27
1/13/2023 7:15:00 AM 4.48 40.064 0.081 7.09 31.31 12.28
1/13/2023 7:30:00 AM 4.47 40.046 0.08 7.09 23.48 12.28
1/13/2023 7:45:00 AM 4.46 40.028 0.08 7.09 21.1 12.29
1/13/2023 8:00:00 AM 4.45 40.01 0.079 7.08 19.57 12.3
1/13/2023 8:15:00 AM 4.44 39.992 0.079 7.09 21.03 12.31
1/13/2023 8:30:00 AM 4.41 39.938 0.078 7.1 20.06 12.33
1/13/2023 8:45:00 AM 4.38 39.884 0.078 7.09 18.84 12.34
1/13/2023 9:00:00 AM 4.33 39.794 0.078 7.09 19.02 12.37
1/13/2023 9:15:00 AM 4.3 39.74 0.077 7.09 18.58 12.4
1/13/2023 9:30:00 AM 4.28 39.704 0.077 7.1 16.57 12.45
1/13/2023 9:45:00 AM 4.25 39.65 0.076 7.1 16.67 12.49
1/13/2023 10:00:00 AM 4.22 39.596 0.076 7.11 15.49 12.53
1/13/2023 10:15:00 AM 4.18 39.524 0.076 7.11 14.88 12.56
1/13/2023 10:30:00 AM 4.14 39.452 0.076 7.11 14.3 12.57
1/13/2023 10:45:00 AM 4.1 39.38 0.076 7.11 13.11 12.58
1/13/2023 11:00:00 AM 4.07 39.326 0.075 7.11 11.89 12.61
1/13/2023 11:15:00 AM 4.04 39.272 0.075 7.12 11.87 12.63
1/13/2023 11:30:00 AM 4.02 39.236 0.075 7.12 11.43 12.67
1/13/2023 11:45:00 AM 4.01 39.218 0.075 7.13 11.12 12.7
1/13/2023 12:00:00 PM 3.97 39.146 0.075 7.13 10.93 12.73
1/13/2023 12:15:00 PM 3.95 39.11 0.075 7.13 10.13 12.75
1/13/2023 12:30:00 PM 3.92 39.056 0.075 7.14 9.97 12.77
1/13/2023 12:45:00 PM 3.89 39.002 0.075 7.14 9.57 12.78
1/13/2023 1:00:00 PM 3.89 39.002 0.075 7.14 9.56 12.8
1/13/2023 1:15:00 PM 3.85 38.93 0.075 7.15 9.02 12.8
1/13/2023 1:30:00 PM 3.81 38.858 0.075 7.14 9.17 12.8
1/13/2023 1:45:00 PM 3.77 38.786 0.075 7.14 8.83 12.8
1/13/2023 2:00:00 PM 3.74 38.732 0.075 7.14 8.24 12.81
1/13/2023 2:15:00 PM 3.72 38.696 0.076 7.14 8.22 12.82
1/13/2023 2:30:00 PM 3.69 38.642 0.076 7.14 7.64 12.83
1/13/2023 2:45:00 PM 3.65 38.57 0.076 7.13 7.65 12.82
1/13/2023 3:00:00 PM 3.6 38.48 0.076 7.13 7.17 12.81
1/13/2023 3:15:00 PM 3.55 38.39 0.077 7.12 7.39 12.8
1/13/2023 3:30:00 PM 3.5 38.3 0.077 7.11 7.19 12.8
1/13/2023 3:45:00 PM 3.46 38.228 0.077 7.11 7.03 12.79
1/13/2023 4:00:00 PM 3.42 38.156 0.078 7.1 7.25 12.79
1/13/2023 4:15:00 PM 3.37 38.066 0.078 7.1 6.95 12.79
1/13/2023 4:30:00 PM 3.33 37.994 0.078 7.09 7.45 12.79
1/13/2023 4:45:00 PM 3.29 37.922 0.078 7.08 6.8 12.8
1/13/2023 5:00:00 PM 3.24 37.832 0.079 7.07 6.85 12.8
1/13/2023 5:15:00 PM 3.19 37.742 0.079 7.06 6.59 12.8
1/13/2023 5:30:00 PM 3.15 37.67 0.079 7.07 6.62 12.81
1/13/2023 5:45:00 PM 3.1 37.58 0.079 7.05 6.65 12.82
1/13/2023 6:00:00 PM 3.06 37.508 0.08 7.05 6.82 12.84
1/13/2023 6:15:00 PM 3.02 37.436 0.08 7.05 6.67 12.85
1/13/2023 6:30:00 PM 2.97 37.346 0.08 7.05 6.48 12.86
1/13/2023 6:45:00 PM 2.94 37.292 0.08 7.05 6.67 12.88
1/13/2023 7:00:00 PM 2.9 37.22 0.08 7.04 6.08 12.89
1/13/2023 7:15:00 PM 2.87 37.166 0.08 7.05 6.2 12.9
1/13/2023 7:30:00 PM 2.83 37.094 0.081 7.04 6.21 12.91
1/13/2023 7:45:00 PM 2.8 37.04 0.081 7.04 6.04 12.92
1/13/2023 8:00:00 PM 2.76 36.968 0.081 7.03 5.77 12.94
1/13/2023 8:15:00 PM 2.72 36.896 0.081 7.03 6.31 12.95
1/13/2023 8:30:00 PM 2.69 36.842 0.081 7.03 6.04 12.97
1/13/2023 8:45:00 PM 2.66 36.788 0.081 7.03 5.69 12.98
1/13/2023 9:00:00 PM 2.61 36.698 0.081 7.02 5.88 13
1/13/2023 9:15:00 PM 2.58 36.644 0.081 7.03 5.5 13.01
1/13/2023 9:30:00 PM 2.55 36.59 0.081 7.03 5.96 13.02
1/13/2023 9:45:00 PM 2.52 36.536 0.081 7.03 5.46 13.04
1/13/2023 10:00:00 PM 2.48 36.464 0.081 7.03 5.66 13.04
1/13/2023 10:15:00 PM 2.45 36.41 0.081 7.03 5.37 13.05
1/13/2023 10:30:00 PM 2.41 36.338 0.082 7.03 5.56 13.07
1/13/2023 10:45:00 PM 2.38 36.284 0.082 7.03 5.37 13.08
1/13/2023 11:00:00 PM 2.35 36.23 0.082 7.03 5.28 13.09
1/13/2023 11:15:00 PM 2.32 36.176 0.082 7.03 5.37 13.1
1/13/2023 11:30:00 PM 2.27 36.086 0.082 7.02 5.01 13.12
1/13/2023 11:45:00 PM 2.24 36.032 0.082 7.02 5.27 13.13
1/14/2023 12:00:00 AM 2.21 35.978 0.082 7.02 5.05 13.14
1/14/2023 12:15:00 AM 2.17 35.906 0.082 7.02 5.03 13.15
1/14/2023 12:30:00 AM 2.13 35.834 0.082 7.02 4.99 13.17
1/14/2023 12:45:00 AM 2.09 35.762 0.082 7.02 5.09 13.18
1/14/2023 1:00:00 AM 2.06 35.708 0.082 7.02 5.02 13.19
1/14/2023 1:15:00 AM 2.03 35.654 0.082 7.02 4.77 13.2
1/14/2023 1:30:00 AM 2 35.6 0.082 7.02 5.31 13.22
1/14/2023 1:45:00 AM 1.97 35.546 0.082 7.02 4.84 13.22
1/14/2023 2:00:00 AM 1.93 35.474 0.082 7.02 4.78 13.23
1/14/2023 2:15:00 AM 1.9 35.42 0.082 7.01 4.9 13.25
1/14/2023 2:30:00 AM 1.86 35.348 0.082 7.02 4.84 13.27
1/14/2023 2:45:00 AM 1.81 35.258 0.082 7.02 4.62 13.29
1/14/2023 3:00:00 AM 1.78 35.204 0.082 7.01 4.67 13.3
1/14/2023 3:15:00 AM 1.75 35.15 0.082 7.01 4.51 13.31
1/14/2023 3:30:00 AM 1.71 35.078 0.082 7.01 4.65 13.33
1/14/2023 3:45:00 AM 1.67 35.006 0.082 7.01 4.28 13.35
1/14/2023 4:00:00 AM 1.63 34.934 0.082 7.01 4.42 13.36
1/14/2023 4:15:00 AM 1.6 34.88 0.082 7.01 4.48 13.37
1/14/2023 4:30:00 AM 1.56 34.808 0.082 7.01 4.46 13.39
1/14/2023 4:45:00 AM 1.53 34.754 0.082 7.01 4.34 13.4
1/14/2023 5:00:00 AM 1.48 34.664 0.082 7.01 4.41 13.42
1/14/2023 5:15:00 AM 1.44 34.592 0.082 7.01 4.49 13.44
1/14/2023 5:30:00 AM 1.41 34.538 0.082 7 4.25 13.46
1/14/2023 5:45:00 AM 1.37 34.466 0.082 7.01 4.24 13.47
1/14/2023 6:00:00 AM 1.35 34.43 0.082 7.01 4.3 13.47
1/14/2023 6:15:00 AM 1.31 34.358 0.082 7 4.22 13.49
1/14/2023 6:30:00 AM 1.29 34.322 0.082 7 4.06 13.51
1/14/2023 6:45:00 AM 1.25 34.25 0.082 7 4.19 13.52
1/14/2023 7:00:00 AM 1.22 34.196 0.082 7 4.16 13.54
1/14/2023 7:15:00 AM 1.18 34.124 0.082 7 4.08 13.55
1/14/2023 7:30:00 AM 1.14 34.052 0.082 7 4.1 13.57
1/14/2023 7:45:00 AM 1.11 33.998 0.082 7 4.12 13.59
1/14/2023 8:00:00 AM 1.08 33.944 0.082 7 4.16 13.6
1/14/2023 8:15:00 AM 1.06 33.908 0.082 7 4.14 13.63
1/14/2023 8:30:00 AM 1.04 33.872 0.082 7.01 4.13 13.65
1/14/2023 8:45:00 AM 1.02 33.836 0.082 7.01 4.02 13.69
1/14/2023 9:00:00 AM 1 33.8 0.082 7.02 3.71 13.75
1/14/2023 9:15:00 AM 0.98 33.764 0.082 7.03 4.01 13.82
1/14/2023 9:30:00 AM 0.98 33.764 0.082 7.05 3.81 13.85
1/14/2023 9:45:00 AM 0.98 33.764 0.082 7.06 3.73 13.92
1/14/2023 10:00:00 AM 0.97 33.746 0.082 7.07 3.66 13.95
1/14/2023 10:15:00 AM 0.99 33.782 0.082 7.08 3.73 13.98
1/14/2023 10:30:00 AM 1.01 33.818 0.081 7.09 3.74 14
1/14/2023 10:45:00 AM 1.02 33.836 0.081 7.1 3.62 14.03
1/14/2023 11:00:00 AM 1.04 33.872 0.081 7.11 3.54 14.05
1/14/2023 11:15:00 AM 1.07 33.926 0.081 7.11 3.69 14.04
1/14/2023 11:30:00 AM 1.1 33.98 0.081 7.12 3.6 14.04
1/14/2023 11:45:00 AM 1.12 34.016 0.081 7.12 3.49 14.05
1/14/2023 12:00:00 PM 1.14 34.052 0.081 7.13 3.39 14.05
1/14/2023 12:15:00 PM 1.17 34.106 0.081 7.13 3.62 14.03
1/14/2023 12:30:00 PM 1.2 34.16 0.081 7.14 3.54 14.02
1/14/2023 12:45:00 PM 1.25 34.25 0.081 7.14 3.41 14.02
1/14/2023 1:00:00 PM 1.27 34.286 0.081 7.15 3.44 14.01
1/14/2023 1:15:00 PM 1.3 34.34 0.081 7.15 3.39 14
1/14/2023 1:30:00 PM 1.32 34.376 0.081 7.15 3.43 13.99
1/14/2023 1:45:00 PM 1.33 34.394 0.081 7.15 3.35 13.98
1/14/2023 2:00:00 PM 1.34 34.412 0.081 7.15 3.29 13.97
1/14/2023 2:15:00 PM 1.35 34.43 0.081 7.15 3.54 13.97
1/14/2023 2:30:00 PM 1.36 34.448 0.081 7.15 3.24 13.96
1/14/2023 2:45:00 PM 1.36 34.448 0.081 7.15 3.35 13.95
1/14/2023 3:00:00 PM 1.35 34.43 0.081 7.15 3.26 13.94
1/14/2023 3:15:00 PM 1.34 34.412 0.081 7.15 3.3 13.94
1/14/2023 3:30:00 PM 1.33 34.394 0.08 7.15 3.26 13.93
1/14/2023 3:45:00 PM 1.3 34.34 0.081 7.15 3.35 13.91
1/14/2023 4:00:00 PM 1.28 34.304 0.081 7.14 3.24 13.88
1/14/2023 4:15:00 PM 1.25 34.25 0.081 7.13 3.43 13.85
1/14/2023 4:30:00 PM 1.22 34.196 0.081 7.12 3.36 13.82
1/14/2023 4:45:00 PM 1.17 34.106 0.082 7.1 3.82 13.79
1/14/2023 5:00:00 PM 1.11 33.998 0.081 7.07 3.24 13.76
1/14/2023 5:15:00 PM 1.07 33.926 0.081 7.06 3.48 13.74
1/14/2023 5:30:00 PM 1.03 33.854 0.081 7.05 3.43 13.72
1/14/2023 5:45:00 PM 0.99 33.782 0.081 7.03 3.35 13.73
1/14/2023 6:00:00 PM 0.94 33.692 0.081 7.03 3.58 13.71
1/14/2023 6:15:00 PM 0.9 33.62 0.081 7.02 3.39 13.73
1/14/2023 6:30:00 PM 0.86 33.548 0.081 7.01 3.44 13.74
1/14/2023 6:45:00 PM 0.82 33.476 0.081 6.99 3.47 13.76
1/14/2023 7:00:00 PM 0.78 33.404 0.081 6.98 3.8 13.76
1/14/2023 7:15:00 PM 0.74 33.332 0.081 6.98 3.69 13.79
1/14/2023 7:30:00 PM 0.71 33.278 0.081 6.98 3.51 13.8
1/14/2023 7:45:00 PM 0.68 33.224 0.081 6.98 3.41 13.81
1/14/2023 8:00:00 PM 0.65 33.17 0.081 6.98 3.74 13.82
1/14/2023 8:15:00 PM 0.62 33.116 0.081 6.98 3.42 13.84
1/14/2023 8:30:00 PM 0.59 33.062 0.08 6.98 9.63 13.86
1/14/2023 8:45:00 PM 0.56 33.008 0.081 6.97 3.45 13.86
1/14/2023 9:00:00 PM 0.53 32.954 0.081 6.97 3.78 13.88
1/14/2023 9:15:00 PM 0.51 32.918 0.081 6.97 4.41 13.88
1/14/2023 9:30:00 PM 0.48 32.864 0.081 6.97 3.5 13.9
1/14/2023 9:45:00 PM 0.46 32.828 0.081 6.97 3.59 13.9
1/14/2023 10:00:00 PM 0.44 32.792 0.081 6.97 3.26 13.91
1/14/2023 10:15:00 PM 0.42 32.756 0.081 6.98 3.3 13.92
1/14/2023 10:30:00 PM 0.39 32.702 0.081 6.97 3.5 13.94
1/14/2023 10:45:00 PM 0.38 32.684 0.081 6.98 8.94 13.94
1/14/2023 11:00:00 PM 0.36 32.648 0.081 6.97 3.43 13.94
1/14/2023 11:15:00 PM 0.34 32.612 0.081 6.98 24.16 13.95
1/14/2023 11:30:00 PM 0.33 32.594 0.081 6.98 3.33 13.95
1/14/2023 11:45:00 PM 0.31 32.558 0.081 6.98 3.42 13.97
1/15/2023 12:00:00 AM 0.29 32.522 0.081 6.98 3.34 13.98
1/15/2023 12:15:00 AM 0.28 32.504 0.081 6.98 3.35 13.98
1/15/2023 12:30:00 AM 0.27 32.486 0.081 6.97 3.55 13.99
1/15/2023 12:45:00 AM 0.26 32.468 0.081 6.98 3.49 14
1/15/2023 1:00:00 AM 0.25 32.45 0.081 6.98 3.33 14.01
1/15/2023 1:15:00 AM 0.24 32.432 0.081 6.98 3.35 14.02
1/15/2023 1:30:00 AM 0.23 32.414 0.081 6.98 3.22 14.01
1/15/2023 1:45:00 AM 0.22 32.396 0.081 6.98 2005.18 14.02
1/15/2023 2:00:00 AM 0.21 32.378 0.081 6.98 3.42 14.02
1/15/2023 2:15:00 AM 0.2 32.36 0.081 6.97 4.52 14.03
1/15/2023 2:30:00 AM 0.2 32.36 0.081 6.98 3.84 14.03
1/15/2023 2:45:00 AM 0.19 32.342 0.081 6.97 3.17 14.04
1/15/2023 3:00:00 AM 0.19 32.342 0.081 6.97 5.4 14.04
1/15/2023 3:15:00 AM 0.18 32.324 0.081 6.97 3.88 14.05
1/15/2023 3:30:00 AM 0.17 32.306 0.081 6.98 3.96 14.05
1/15/2023 3:45:00 AM 0.16 32.288 0.081 6.98 3.68 14.05
1/15/2023 4:00:00 AM 0.15 32.27 0.081 6.97 3.82 14.06
1/15/2023 4:30:00 AM 0.12 32.216 0.081 6.97 3.85 14.07
1/15/2023 4:45:00 AM 0.11 32.198 0.081 6.97 3.88 14.08
1/15/2023 5:00:00 AM 0.08 32.144 0.081 6.97 3.6 14.08
1/15/2023 5:15:00 AM 0.06 32.108 0.081 6.97 3.59 14.09
1/15/2023 5:30:00 AM 0.04 32.072 0.081 6.97 3.61 14.1
1/15/2023 5:45:00 AM 0.03 32.054 0.081 6.97 3.29 14.11
1/15/2023 6:00:00 AM 0.02 32.036 0.081 6.97 3.33 14.12
1/15/2023 6:15:00 AM 0 32 0.081 6.97 3.15 14.13
1/15/2023 6:30:00 AM -0.02 31.964 0.081 6.97 3.1 14.13
1/15/2023 6:45:00 AM -0.04 31.928 0.081 6.97 3.27 14.14
1/15/2023 7:00:00 AM -0.04 31.928 0.082 6.96 3.22 14.15
1/15/2023 7:15:00 AM -0.03 31.946 0.082 6.97 3.15 14.16
1/15/2023 7:30:00 AM -0.03 31.946 0.082 6.97 3.22 14.17
1/15/2023 7:45:00 AM -0.03 31.946 0.082 6.98 3.17 14.18
1/15/2023 8:00:00 AM -0.03 31.946 0.082 6.98 3.09 14.21
1/15/2023 8:15:00 AM -0.03 31.946 0.082 6.98 3.2 14.25
1/15/2023 8:30:00 AM -0.02 31.964 0.082 6.99 3.11 14.3
1/15/2023 8:45:00 AM -0.01 31.982 0.082 7 3.24 14.34
1/15/2023 9:00:00 AM 0 32 0.081 7.01 3.18 14.39
1/15/2023 9:15:00 AM 0.01 32.018 0.081 7.02 3.31 14.43
1/15/2023 9:30:00 AM 0.02 32.036 0.081 7.03 3.12 14.46
1/15/2023 9:45:00 AM 0.03 32.054 0.081 7.03 3.25 14.49
1/15/2023 10:00:00 AM 0.04 32.072 0.081 7.05 3.18 14.5
1/15/2023 10:15:00 AM 0.04 32.072 0.081 7.06 3.11 14.52
1/15/2023 10:30:00 AM 0.05 32.09 0.081 7.07 3.04 14.53
1/15/2023 10:45:00 AM 0.06 32.108 0.081 7.07 3.73 14.53
1/15/2023 11:00:00 AM 0.1 32.18 0.081 7.07 3.6 14.52
1/15/2023 11:15:00 AM 0.21 32.378 0.081 7.08 3.19 14.49
1/15/2023 11:30:00 AM 0.33 32.594 0.08 7.08 3.04 14.46
1/15/2023 11:45:00 AM 0.43 32.774 0.08 7.09 3.07 14.43
1/15/2023 12:00:00 PM 0.56 33.008 0.08 7.09 3.04 14.4
1/15/2023 12:15:00 PM 0.72 33.296 0.08 7.09 3.06 14.36
1/15/2023 12:30:00 PM 0.83 33.494 0.08 7.1 2.91 14.33
1/15/2023 12:45:00 PM 0.89 33.602 0.08 7.1 2.97 14.31
1/15/2023 1:00:00 PM 0.97 33.746 0.08 7.1 2.87 14.26
1/15/2023 1:15:00 PM 1.06 33.908 0.08 7.1 2.92 14.24
1/15/2023 1:30:00 PM 1.14 34.052 0.08 7.1 2.97 14.21
1/15/2023 1:45:00 PM 1.2 34.16 0.08 7.1 2.99 14.17
1/15/2023 2:00:00 PM 1.24 34.232 0.08 7.1 3.02 14.15
1/15/2023 2:15:00 PM 1.25 34.25 0.08 7.11 3.17 14.13
1/15/2023 2:30:00 PM 1.25 34.25 0.08 7.1 3.19 14.11
1/15/2023 2:45:00 PM 1.24 34.232 0.08 7.11 3.29 14.1
1/15/2023 3:00:00 PM 1.22 34.196 0.08 7.11 3.34 14.09
1/15/2023 3:15:00 PM 1.19 34.142 0.08 7.11 3.35 14.08
1/15/2023 3:30:00 PM 1.15 34.07 0.08 7.11 3.43 14.07
1/15/2023 3:45:00 PM 1.09 33.962 0.08 7.1 3.43 14.07
1/15/2023 4:00:00 PM 1.03 33.854 0.08 7.1 3.29 14.05
1/15/2023 4:15:00 PM 0.96 33.728 0.08 7.09 3.2 14.05
1/15/2023 4:30:00 PM 0.9 33.62 0.08 7.09 3.08 14.02
1/15/2023 4:45:00 PM 0.85 33.53 0.08 7.08 3.03 14
1/15/2023 5:00:00 PM 0.8 33.44 0.08 7.07 3.1 13.98
1/15/2023 5:15:00 PM 0.77 33.386 0.08 7.06 3.05 13.94
1/15/2023 5:30:00 PM 0.74 33.332 0.08 7.05 3.1 13.91
1/15/2023 5:45:00 PM 0.69 33.242 0.08 7.04 3.03 13.91
1/15/2023 6:00:00 PM 0.65 33.17 0.08 7.03 3.05 13.9
1/15/2023 6:15:00 PM 0.6 33.08 0.08 7.03 3.07 13.91
1/15/2023 6:30:00 PM 0.56 33.008 0.08 7.02 3.01 13.91
1/15/2023 6:45:00 PM 0.53 32.954 0.08 7.02 3.05 13.92
1/15/2023 7:00:00 PM 0.49 32.882 0.08 7.01 3.16 13.93
1/15/2023 7:15:00 PM 0.44 32.792 0.08 7.01 3.2 13.95
1/15/2023 7:30:00 PM 0.41 32.738 0.081 7 2.94 13.96
1/15/2023 7:45:00 PM 0.36 32.648 0.081 7 3.12 13.98
1/15/2023 8:00:00 PM 0.33 32.594 0.081 6.99 3.12 13.99
1/15/2023 8:15:00 PM 0.29 32.522 0.081 6.98 3.02 14.01
1/15/2023 8:30:00 PM 0.25 32.45 0.081 6.98 3.19 14.02
1/15/2023 8:45:00 PM 0.21 32.378 0.081 6.98 3.07 14.03
1/15/2023 9:00:00 PM 0.18 32.324 0.081 6.98 3.08 14.05
1/15/2023 9:15:00 PM 0.15 32.27 0.081 6.98 3.08 14.06
1/15/2023 9:30:00 PM 0.13 32.234 0.081 6.98 3.12 14.07
1/15/2023 9:45:00 PM 0.11 32.198 0.081 6.99 3.09 14.08
1/15/2023 10:00:00 PM 0.09 32.162 0.081 6.99 2.93 14.09
1/15/2023 10:15:00 PM 0.06 32.108 0.081 6.98 2.96 14.1
1/15/2023 10:30:00 PM 0.02 32.036 0.081 6.98 2.98 14.12
1/15/2023 10:45:00 PM -0.01 31.982 0.081 6.98 3.06 14.13
1/15/2023 11:00:00 PM -0.02 31.964 0.081 6.98 2.94 14.14
1/15/2023 11:15:00 PM -0.04 31.928 0.081 6.98 3.02 14.14
1/15/2023 11:30:00 PM -0.04 31.928 0.081 6.99 2.99 14.15
1/15/2023 11:45:00 PM -0.04 31.928 0.081 6.99 2.96 14.15
1/16/2023 12:00:00 AM -0.03 31.946 0.081 6.99 3.11 14.16
1/16/2023 12:15:00 AM -0.03 31.946 0.081 6.99 3.02 14.16
1/16/2023 12:30:00 AM -0.03 31.946 0.082 6.99 3.03 14.16
1/16/2023 12:45:00 AM -0.03 31.946 0.082 6.99 2.97 14.16
1/16/2023 1:00:00 AM -0.02 31.964 0.082 6.99 3.13 14.16
1/16/2023 1:15:00 AM -0.02 31.964 0.082 6.99 3.01 14.16
1/16/2023 1:30:00 AM -0.02 31.964 0.082 6.99 2.93 14.16
1/16/2023 1:45:00 AM -0.02 31.964 0.082 6.99 2.99 14.16
1/16/2023 2:00:00 AM -0.02 31.964 0.082 6.99 2.98 14.16
1/16/2023 2:15:00 AM -0.02 31.964 0.082 6.99 2.93 14.16
1/16/2023 2:30:00 AM -0.02 31.964 0.082 6.98 2.99 14.16
1/16/2023 2:45:00 AM -0.02 31.964 0.082 6.99 2.99 14.16
1/16/2023 3:00:00 AM -0.02 31.964 0.082 6.99 3.14 14.16
1/16/2023 3:15:00 AM -0.02 31.964 0.082 6.99 3 14.16
1/16/2023 3:30:00 AM -0.02 31.964 0.082 6.99 2.94 14.16
1/16/2023 3:45:00 AM -0.02 31.964 0.082 6.98 2.97 14.16
1/16/2023 4:00:00 AM -0.02 31.964 0.083 6.98 2.97 14.16
1/16/2023 4:15:00 AM -0.02 31.964 0.083 6.98 2.98 14.16
1/16/2023 4:30:00 AM -0.02 31.964 0.083 6.98 2.96 14.15
1/16/2023 4:45:00 AM -0.02 31.964 0.083 6.98 2.99 14.15
1/16/2023 5:00:00 AM -0.02 31.964 0.083 6.97 2.86 14.14
1/16/2023 5:15:00 AM -0.02 31.964 0.083 6.97 2.8 14.14
1/16/2023 5:30:00 AM -0.02 31.964 0.082 6.97 2.93 14.14
1/16/2023 5:45:00 AM -0.02 31.964 0.083 6.97 2.89 14.13
1/16/2023 6:00:00 AM -0.02 31.964 0.083 6.97 2.96 14.13
1/16/2023 6:15:00 AM -0.02 31.964 0.083 6.97 2.94 14.13
1/16/2023 6:30:00 AM -0.02 31.964 0.083 6.96 2.97 14.12
1/16/2023 6:45:00 AM -0.02 31.964 0.082 6.96 2.83 14.12
1/16/2023 7:00:00 AM -0.02 31.964 0.082 6.96 2.88 14.12
1/16/2023 7:15:00 AM -0.02 31.964 0.082 6.96 2.98 14.13
1/16/2023 7:30:00 AM -0.02 31.964 0.082 6.96 2.95 14.13
1/16/2023 7:45:00 AM -0.01 31.982 0.083 6.96 2.95 14.13
1/16/2023 8:00:00 AM -0.01 31.982 0.083 6.96 2.94 14.15
1/16/2023 8:15:00 AM -0.01 31.982 0.083 6.97 2.94 14.18
1/16/2023 8:30:00 AM -0.01 31.982 0.084 6.97 2.99 14.21
1/16/2023 8:45:00 AM 0 32 0.084 6.97 2.97 14.24
1/16/2023 9:00:00 AM 0 32 0.084 6.98 2.91 14.27
1/16/2023 9:15:00 AM 0.01 32.018 0.084 6.99 2.96 14.29
1/16/2023 9:30:00 AM 0.03 32.054